<?xml version="1.0" encoding="UTF-8" standalone="no" ?>
<gpx xmlns="http://www.topografix.com/GPX/1/1" xmlns:xsi="http://www.w3.org/2001/XMLSchema-instance" xsi:schemaLocation="http://www.topografix.com/GPX/1/1 http://www.topografix.com/GPX/1/1/gpx.xsd" version="1.1" creator="VisuGPX - https://www.visugpx.com">
  <metadata>
    <name>4oct2014</name>
    <desc><![CDATA[club vtt des rochers]]></desc>
  </metadata>
  <trk>
    <name><![CDATA[VERDUS]]></name>
    <trkseg>
      <trkpt lat="44.47202" lon="0.93419">
        <ele>75.12</ele>
        <time>2014-10-04T13:03:47Z</time>
      </trkpt>
      <trkpt lat="44.47206" lon="0.93419">
        <ele>75.12</ele>
        <time>2014-10-04T13:04:30Z</time>
      </trkpt>
      <trkpt lat="44.47207" lon="0.9342">
        <ele>77.04</ele>
        <time>2014-10-04T13:05:07Z</time>
      </trkpt>
      <trkpt lat="44.47208" lon="0.9342">
        <ele>77.52</ele>
        <time>2014-10-04T13:05:38Z</time>
      </trkpt>
      <trkpt lat="44.47208" lon="0.9342">
        <ele>78.48</ele>
        <time>2014-10-04T13:06:16Z</time>
      </trkpt>
      <trkpt lat="44.47207" lon="0.9342">
        <ele>78.97</ele>
        <time>2014-10-04T13:06:59Z</time>
      </trkpt>
      <trkpt lat="44.47208" lon="0.9342">
        <ele>78</ele>
        <time>2014-10-04T13:07:43Z</time>
      </trkpt>
      <trkpt lat="44.47203" lon="0.9342">
        <ele>77.52</ele>
        <time>2014-10-04T13:08:13Z</time>
      </trkpt>
      <trkpt lat="44.47203" lon="0.93419">
        <ele>76.56</ele>
        <time>2014-10-04T13:08:37Z</time>
      </trkpt>
      <trkpt lat="44.47202" lon="0.9342">
        <ele>76.08</ele>
        <time>2014-10-04T13:09:05Z</time>
      </trkpt>
      <trkpt lat="44.47202" lon="0.9342">
        <ele>75.6</ele>
        <time>2014-10-04T13:09:28Z</time>
      </trkpt>
      <trkpt lat="44.47201" lon="0.93419">
        <ele>75.6</ele>
        <time>2014-10-04T13:09:53Z</time>
      </trkpt>
      <trkpt lat="44.472" lon="0.9342">
        <ele>75.12</ele>
        <time>2014-10-04T13:09:56Z</time>
      </trkpt>
      <trkpt lat="44.47194" lon="0.93426">
        <ele>75.12</ele>
        <time>2014-10-04T13:10:02Z</time>
      </trkpt>
      <trkpt lat="44.47191" lon="0.9343">
        <ele>75.12</ele>
        <time>2014-10-04T13:10:19Z</time>
      </trkpt>
      <trkpt lat="44.4719" lon="0.93428">
        <ele>75.6</ele>
        <time>2014-10-04T13:10:49Z</time>
      </trkpt>
      <trkpt lat="44.47191" lon="0.93429">
        <ele>74.64</ele>
        <time>2014-10-04T13:11:08Z</time>
      </trkpt>
      <trkpt lat="44.47191" lon="0.93431">
        <ele>74.16</ele>
        <time>2014-10-04T13:11:21Z</time>
      </trkpt>
      <trkpt lat="44.47192" lon="0.93433">
        <ele>73.2</ele>
        <time>2014-10-04T13:11:39Z</time>
      </trkpt>
      <trkpt lat="44.47192" lon="0.93433">
        <ele>73.2</ele>
        <time>2014-10-04T13:11:55Z</time>
      </trkpt>
      <trkpt lat="44.47193" lon="0.93432">
        <ele>71.76</ele>
        <time>2014-10-04T13:12:15Z</time>
      </trkpt>
      <trkpt lat="44.47192" lon="0.93431">
        <ele>71.76</ele>
        <time>2014-10-04T13:12:28Z</time>
      </trkpt>
      <trkpt lat="44.47192" lon="0.93431">
        <ele>71.27</ele>
        <time>2014-10-04T13:12:49Z</time>
      </trkpt>
      <trkpt lat="44.47192" lon="0.93432">
        <ele>71.27</ele>
        <time>2014-10-04T13:13:11Z</time>
      </trkpt>
      <trkpt lat="44.47192" lon="0.93432">
        <ele>71.76</ele>
        <time>2014-10-04T13:13:37Z</time>
      </trkpt>
      <trkpt lat="44.47191" lon="0.93431">
        <ele>71.27</ele>
        <time>2014-10-04T13:13:54Z</time>
      </trkpt>
      <trkpt lat="44.4719" lon="0.93431">
        <ele>71.27</ele>
        <time>2014-10-04T13:14:19Z</time>
      </trkpt>
      <trkpt lat="44.47189" lon="0.93431">
        <ele>71.27</ele>
        <time>2014-10-04T13:14:32Z</time>
      </trkpt>
      <trkpt lat="44.47189" lon="0.93431">
        <ele>70.79</ele>
        <time>2014-10-04T13:14:47Z</time>
      </trkpt>
      <trkpt lat="44.47189" lon="0.93431">
        <ele>70.79</ele>
        <time>2014-10-04T13:15:08Z</time>
      </trkpt>
      <trkpt lat="44.47189" lon="0.9343">
        <ele>70.31</ele>
        <time>2014-10-04T13:15:33Z</time>
      </trkpt>
      <trkpt lat="44.47188" lon="0.9343">
        <ele>70.31</ele>
        <time>2014-10-04T13:15:50Z</time>
      </trkpt>
      <trkpt lat="44.47189" lon="0.93431">
        <ele>70.79</ele>
        <time>2014-10-04T13:16:08Z</time>
      </trkpt>
      <trkpt lat="44.47189" lon="0.93431">
        <ele>71.27</ele>
        <time>2014-10-04T13:16:26Z</time>
      </trkpt>
      <trkpt lat="44.47189" lon="0.93432">
        <ele>71.76</ele>
        <time>2014-10-04T13:16:38Z</time>
      </trkpt>
      <trkpt lat="44.47188" lon="0.93432">
        <ele>71.76</ele>
        <time>2014-10-04T13:17:09Z</time>
      </trkpt>
      <trkpt lat="44.47187" lon="0.93431">
        <ele>73.2</ele>
        <time>2014-10-04T13:17:30Z</time>
      </trkpt>
      <trkpt lat="44.47188" lon="0.93431">
        <ele>74.16</ele>
        <time>2014-10-04T13:17:53Z</time>
      </trkpt>
      <trkpt lat="44.47188" lon="0.93432">
        <ele>74.16</ele>
        <time>2014-10-04T13:18:15Z</time>
      </trkpt>
      <trkpt lat="44.47187" lon="0.93434">
        <ele>74.16</ele>
        <time>2014-10-04T13:18:20Z</time>
      </trkpt>
      <trkpt lat="44.47192" lon="0.93451">
        <ele>73.2</ele>
        <time>2014-10-04T13:18:30Z</time>
      </trkpt>
      <trkpt lat="44.47191" lon="0.93453">
        <ele>73.2</ele>
        <time>2014-10-04T13:18:31Z</time>
      </trkpt>
      <trkpt lat="44.47189" lon="0.93455">
        <ele>73.2</ele>
        <time>2014-10-04T13:18:32Z</time>
      </trkpt>
      <trkpt lat="44.47187" lon="0.93456">
        <ele>73.2</ele>
        <time>2014-10-04T13:18:33Z</time>
      </trkpt>
      <trkpt lat="44.47185" lon="0.93458">
        <ele>73.2</ele>
        <time>2014-10-04T13:18:34Z</time>
      </trkpt>
      <trkpt lat="44.47153" lon="0.93473">
        <ele>72.24</ele>
        <time>2014-10-04T13:18:47Z</time>
      </trkpt>
      <trkpt lat="44.47112" lon="0.93491">
        <ele>71.76</ele>
        <time>2014-10-04T13:19:02Z</time>
      </trkpt>
      <trkpt lat="44.47108" lon="0.9349">
        <ele>72.72</ele>
        <time>2014-10-04T13:19:11Z</time>
      </trkpt>
      <trkpt lat="44.47095" lon="0.93475">
        <ele>71.76</ele>
        <time>2014-10-04T13:19:17Z</time>
      </trkpt>
      <trkpt lat="44.47091" lon="0.93475">
        <ele>71.76</ele>
        <time>2014-10-04T13:19:18Z</time>
      </trkpt>
      <trkpt lat="44.47088" lon="0.93476">
        <ele>71.76</ele>
        <time>2014-10-04T13:19:19Z</time>
      </trkpt>
      <trkpt lat="44.47084" lon="0.93478">
        <ele>71.27</ele>
        <time>2014-10-04T13:19:20Z</time>
      </trkpt>
      <trkpt lat="44.47081" lon="0.9348">
        <ele>71.27</ele>
        <time>2014-10-04T13:19:21Z</time>
      </trkpt>
      <trkpt lat="44.47078" lon="0.93483">
        <ele>71.76</ele>
        <time>2014-10-04T13:19:22Z</time>
      </trkpt>
      <trkpt lat="44.47075" lon="0.93486">
        <ele>71.76</ele>
        <time>2014-10-04T13:19:23Z</time>
      </trkpt>
      <trkpt lat="44.47057" lon="0.93502">
        <ele>71.27</ele>
        <time>2014-10-04T13:19:28Z</time>
      </trkpt>
      <trkpt lat="44.46979" lon="0.93576">
        <ele>71.76</ele>
        <time>2014-10-04T13:19:48Z</time>
      </trkpt>
      <trkpt lat="44.46959" lon="0.93591">
        <ele>72.72</ele>
        <time>2014-10-04T13:19:53Z</time>
      </trkpt>
      <trkpt lat="44.46955" lon="0.93592">
        <ele>72.72</ele>
        <time>2014-10-04T13:19:54Z</time>
      </trkpt>
      <trkpt lat="44.4695" lon="0.93592">
        <ele>73.2</ele>
        <time>2014-10-04T13:19:55Z</time>
      </trkpt>
      <trkpt lat="44.46945" lon="0.93591">
        <ele>73.2</ele>
        <time>2014-10-04T13:19:56Z</time>
      </trkpt>
      <trkpt lat="44.46941" lon="0.9359">
        <ele>73.68</ele>
        <time>2014-10-04T13:19:57Z</time>
      </trkpt>
      <trkpt lat="44.46906" lon="0.93576">
        <ele>73.2</ele>
        <time>2014-10-04T13:20:05Z</time>
      </trkpt>
      <trkpt lat="44.46827" lon="0.93543">
        <ele>71.27</ele>
        <time>2014-10-04T13:20:22Z</time>
      </trkpt>
      <trkpt lat="44.46807" lon="0.9354">
        <ele>70.79</ele>
        <time>2014-10-04T13:20:27Z</time>
      </trkpt>
      <trkpt lat="44.46804" lon="0.93543">
        <ele>71.27</ele>
        <time>2014-10-04T13:20:28Z</time>
      </trkpt>
      <trkpt lat="44.468" lon="0.93557">
        <ele>71.76</ele>
        <time>2014-10-04T13:20:31Z</time>
      </trkpt>
      <trkpt lat="44.46794" lon="0.9359">
        <ele>75.6</ele>
        <time>2014-10-04T13:20:39Z</time>
      </trkpt>
      <trkpt lat="44.46796" lon="0.93593">
        <ele>76.08</ele>
        <time>2014-10-04T13:20:40Z</time>
      </trkpt>
      <trkpt lat="44.46832" lon="0.93606">
        <ele>77.04</ele>
        <time>2014-10-04T13:20:51Z</time>
      </trkpt>
      <trkpt lat="44.46859" lon="0.93621">
        <ele>79.45</ele>
        <time>2014-10-04T13:21:01Z</time>
      </trkpt>
      <trkpt lat="44.4686" lon="0.93632">
        <ele>80.41</ele>
        <time>2014-10-04T13:21:09Z</time>
      </trkpt>
      <trkpt lat="44.46844" lon="0.93681">
        <ele>80.89</ele>
        <time>2014-10-04T13:21:20Z</time>
      </trkpt>
      <trkpt lat="44.46822" lon="0.93752">
        <ele>81.85</ele>
        <time>2014-10-04T13:21:35Z</time>
      </trkpt>
      <trkpt lat="44.46818" lon="0.93762">
        <ele>82.33</ele>
        <time>2014-10-04T13:21:37Z</time>
      </trkpt>
      <trkpt lat="44.46816" lon="0.93768">
        <ele>82.33</ele>
        <time>2014-10-04T13:21:38Z</time>
      </trkpt>
      <trkpt lat="44.46778" lon="0.93878">
        <ele>82.33</ele>
        <time>2014-10-04T13:21:56Z</time>
      </trkpt>
      <trkpt lat="44.46737" lon="0.93999">
        <ele>82.81</ele>
        <time>2014-10-04T13:22:15Z</time>
      </trkpt>
      <trkpt lat="44.46733" lon="0.94017">
        <ele>82.81</ele>
        <time>2014-10-04T13:22:18Z</time>
      </trkpt>
      <trkpt lat="44.4673" lon="0.94022">
        <ele>82.81</ele>
        <time>2014-10-04T13:22:19Z</time>
      </trkpt>
      <trkpt lat="44.46726" lon="0.94025">
        <ele>82.81</ele>
        <time>2014-10-04T13:22:20Z</time>
      </trkpt>
      <trkpt lat="44.46722" lon="0.94028">
        <ele>82.81</ele>
        <time>2014-10-04T13:22:21Z</time>
      </trkpt>
      <trkpt lat="44.46717" lon="0.94027">
        <ele>82.81</ele>
        <time>2014-10-04T13:22:22Z</time>
      </trkpt>
      <trkpt lat="44.46711" lon="0.94026">
        <ele>82.81</ele>
        <time>2014-10-04T13:22:23Z</time>
      </trkpt>
      <trkpt lat="44.46706" lon="0.94024">
        <ele>82.81</ele>
        <time>2014-10-04T13:22:24Z</time>
      </trkpt>
      <trkpt lat="44.46639" lon="0.94001">
        <ele>82.33</ele>
        <time>2014-10-04T13:22:38Z</time>
      </trkpt>
      <trkpt lat="44.4663" lon="0.94001">
        <ele>82.33</ele>
        <time>2014-10-04T13:22:40Z</time>
      </trkpt>
      <trkpt lat="44.46625" lon="0.94002">
        <ele>82.33</ele>
        <time>2014-10-04T13:22:41Z</time>
      </trkpt>
      <trkpt lat="44.4662" lon="0.94003">
        <ele>82.33</ele>
        <time>2014-10-04T13:22:42Z</time>
      </trkpt>
      <trkpt lat="44.46615" lon="0.94004">
        <ele>82.33</ele>
        <time>2014-10-04T13:22:43Z</time>
      </trkpt>
      <trkpt lat="44.4661" lon="0.94006">
        <ele>82.33</ele>
        <time>2014-10-04T13:22:44Z</time>
      </trkpt>
      <trkpt lat="44.46559" lon="0.94028">
        <ele>83.29</ele>
        <time>2014-10-04T13:22:55Z</time>
      </trkpt>
      <trkpt lat="44.46478" lon="0.94083">
        <ele>83.29</ele>
        <time>2014-10-04T13:23:13Z</time>
      </trkpt>
      <trkpt lat="44.46414" lon="0.94153">
        <ele>84.25</ele>
        <time>2014-10-04T13:23:30Z</time>
      </trkpt>
      <trkpt lat="44.46368" lon="0.94204">
        <ele>84.25</ele>
        <time>2014-10-04T13:23:44Z</time>
      </trkpt>
      <trkpt lat="44.46351" lon="0.94223">
        <ele>83.77</ele>
        <time>2014-10-04T13:23:49Z</time>
      </trkpt>
      <trkpt lat="44.46347" lon="0.94226">
        <ele>83.77</ele>
        <time>2014-10-04T13:23:50Z</time>
      </trkpt>
      <trkpt lat="44.46333" lon="0.94242">
        <ele>83.77</ele>
        <time>2014-10-04T13:23:54Z</time>
      </trkpt>
      <trkpt lat="44.46273" lon="0.94305">
        <ele>84.25</ele>
        <time>2014-10-04T13:24:10Z</time>
      </trkpt>
      <trkpt lat="44.46234" lon="0.94349">
        <ele>85.21</ele>
        <time>2014-10-04T13:24:21Z</time>
      </trkpt>
      <trkpt lat="44.4623" lon="0.94353">
        <ele>85.21</ele>
        <time>2014-10-04T13:24:22Z</time>
      </trkpt>
      <trkpt lat="44.46228" lon="0.94358">
        <ele>85.21</ele>
        <time>2014-10-04T13:24:23Z</time>
      </trkpt>
      <trkpt lat="44.46227" lon="0.94363">
        <ele>85.69</ele>
        <time>2014-10-04T13:24:24Z</time>
      </trkpt>
      <trkpt lat="44.46226" lon="0.94369">
        <ele>85.69</ele>
        <time>2014-10-04T13:24:25Z</time>
      </trkpt>
      <trkpt lat="44.46224" lon="0.94374">
        <ele>86.18</ele>
        <time>2014-10-04T13:24:26Z</time>
      </trkpt>
      <trkpt lat="44.46223" lon="0.94379">
        <ele>86.18</ele>
        <time>2014-10-04T13:24:27Z</time>
      </trkpt>
      <trkpt lat="44.46221" lon="0.94384">
        <ele>86.18</ele>
        <time>2014-10-04T13:24:28Z</time>
      </trkpt>
      <trkpt lat="44.46219" lon="0.94389">
        <ele>86.66</ele>
        <time>2014-10-04T13:24:29Z</time>
      </trkpt>
      <trkpt lat="44.46199" lon="0.94437">
        <ele>87.62</ele>
        <time>2014-10-04T13:24:39Z</time>
      </trkpt>
      <trkpt lat="44.46204" lon="0.94463">
        <ele>88.58</ele>
        <time>2014-10-04T13:24:44Z</time>
      </trkpt>
      <trkpt lat="44.46267" lon="0.94545">
        <ele>88.1</ele>
        <time>2014-10-04T13:25:03Z</time>
      </trkpt>
      <trkpt lat="44.4628" lon="0.94562">
        <ele>88.1</ele>
        <time>2014-10-04T13:25:07Z</time>
      </trkpt>
      <trkpt lat="44.46309" lon="0.94601">
        <ele>88.58</ele>
        <time>2014-10-04T13:25:16Z</time>
      </trkpt>
      <trkpt lat="44.46357" lon="0.94665">
        <ele>90.5</ele>
        <time>2014-10-04T13:25:31Z</time>
      </trkpt>
      <trkpt lat="44.46383" lon="0.94699">
        <ele>90.98</ele>
        <time>2014-10-04T13:25:42Z</time>
      </trkpt>
      <trkpt lat="44.46383" lon="0.94705">
        <ele>91.46</ele>
        <time>2014-10-04T13:25:54Z</time>
      </trkpt>
      <trkpt lat="44.46382" lon="0.94704">
        <ele>92.9</ele>
        <time>2014-10-04T13:26:19Z</time>
      </trkpt>
      <trkpt lat="44.46382" lon="0.94704">
        <ele>93.39</ele>
        <time>2014-10-04T13:26:31Z</time>
      </trkpt>
      <trkpt lat="44.46358" lon="0.94744">
        <ele>93.87</ele>
        <time>2014-10-04T13:26:44Z</time>
      </trkpt>
      <trkpt lat="44.46338" lon="0.94787">
        <ele>94.83</ele>
        <time>2014-10-04T13:26:53Z</time>
      </trkpt>
      <trkpt lat="44.46336" lon="0.94792">
        <ele>94.83</ele>
        <time>2014-10-04T13:26:54Z</time>
      </trkpt>
      <trkpt lat="44.46334" lon="0.94797">
        <ele>94.83</ele>
        <time>2014-10-04T13:26:55Z</time>
      </trkpt>
      <trkpt lat="44.46329" lon="0.94807">
        <ele>95.31</ele>
        <time>2014-10-04T13:26:57Z</time>
      </trkpt>
      <trkpt lat="44.46325" lon="0.94818">
        <ele>95.31</ele>
        <time>2014-10-04T13:26:59Z</time>
      </trkpt>
      <trkpt lat="44.46287" lon="0.9492">
        <ele>91.46</ele>
        <time>2014-10-04T13:27:13Z</time>
      </trkpt>
      <trkpt lat="44.46248" lon="0.95027">
        <ele>90.02</ele>
        <time>2014-10-04T13:27:27Z</time>
      </trkpt>
      <trkpt lat="44.4624" lon="0.95039">
        <ele>89.54</ele>
        <time>2014-10-04T13:27:29Z</time>
      </trkpt>
      <trkpt lat="44.46235" lon="0.95044">
        <ele>89.54</ele>
        <time>2014-10-04T13:27:30Z</time>
      </trkpt>
      <trkpt lat="44.46162" lon="0.95095">
        <ele>90.02</ele>
        <time>2014-10-04T13:27:45Z</time>
      </trkpt>
      <trkpt lat="44.46091" lon="0.95141">
        <ele>91.46</ele>
        <time>2014-10-04T13:28:00Z</time>
      </trkpt>
      <trkpt lat="44.46028" lon="0.95212">
        <ele>91.46</ele>
        <time>2014-10-04T13:28:16Z</time>
      </trkpt>
      <trkpt lat="44.46015" lon="0.95225">
        <ele>91.46</ele>
        <time>2014-10-04T13:28:19Z</time>
      </trkpt>
      <trkpt lat="44.46011" lon="0.9523">
        <ele>91.94</ele>
        <time>2014-10-04T13:28:20Z</time>
      </trkpt>
      <trkpt lat="44.46007" lon="0.95236">
        <ele>91.94</ele>
        <time>2014-10-04T13:28:21Z</time>
      </trkpt>
      <trkpt lat="44.46003" lon="0.9524">
        <ele>91.94</ele>
        <time>2014-10-04T13:28:22Z</time>
      </trkpt>
      <trkpt lat="44.45992" lon="0.95252">
        <ele>92.42</ele>
        <time>2014-10-04T13:28:25Z</time>
      </trkpt>
      <trkpt lat="44.45935" lon="0.95297">
        <ele>93.87</ele>
        <time>2014-10-04T13:28:40Z</time>
      </trkpt>
      <trkpt lat="44.45918" lon="0.95296">
        <ele>94.35</ele>
        <time>2014-10-04T13:28:44Z</time>
      </trkpt>
      <trkpt lat="44.4591" lon="0.95291">
        <ele>94.83</ele>
        <time>2014-10-04T13:28:46Z</time>
      </trkpt>
      <trkpt lat="44.4588" lon="0.95295">
        <ele>95.79</ele>
        <time>2014-10-04T13:28:53Z</time>
      </trkpt>
      <trkpt lat="44.4586" lon="0.95308">
        <ele>96.27</ele>
        <time>2014-10-04T13:28:58Z</time>
      </trkpt>
      <trkpt lat="44.45794" lon="0.95352">
        <ele>98.19</ele>
        <time>2014-10-04T13:29:14Z</time>
      </trkpt>
      <trkpt lat="44.4572" lon="0.95405">
        <ele>99.63</ele>
        <time>2014-10-04T13:29:33Z</time>
      </trkpt>
      <trkpt lat="44.45663" lon="0.95449">
        <ele>99.63</ele>
        <time>2014-10-04T13:29:47Z</time>
      </trkpt>
      <trkpt lat="44.45659" lon="0.95453">
        <ele>99.63</ele>
        <time>2014-10-04T13:29:48Z</time>
      </trkpt>
      <trkpt lat="44.4559" lon="0.95517">
        <ele>100.11</ele>
        <time>2014-10-04T13:30:05Z</time>
      </trkpt>
      <trkpt lat="44.45528" lon="0.95586">
        <ele>100.6</ele>
        <time>2014-10-04T13:30:21Z</time>
      </trkpt>
      <trkpt lat="44.45469" lon="0.95672">
        <ele>102.52</ele>
        <time>2014-10-04T13:30:38Z</time>
      </trkpt>
      <trkpt lat="44.45436" lon="0.95733">
        <ele>103.96</ele>
        <time>2014-10-04T13:30:50Z</time>
      </trkpt>
      <trkpt lat="44.45386" lon="0.95814">
        <ele>103.48</ele>
        <time>2014-10-04T13:31:08Z</time>
      </trkpt>
      <trkpt lat="44.45378" lon="0.95829">
        <ele>104.44</ele>
        <time>2014-10-04T13:31:18Z</time>
      </trkpt>
      <trkpt lat="44.45378" lon="0.9583">
        <ele>103.48</ele>
        <time>2014-10-04T13:31:39Z</time>
      </trkpt>
      <trkpt lat="44.45378" lon="0.9583">
        <ele>103.96</ele>
        <time>2014-10-04T13:31:58Z</time>
      </trkpt>
      <trkpt lat="44.45378" lon="0.95836">
        <ele>103.96</ele>
        <time>2014-10-04T13:32:14Z</time>
      </trkpt>
      <trkpt lat="44.45379" lon="0.95839">
        <ele>103.96</ele>
        <time>2014-10-04T13:32:15Z</time>
      </trkpt>
      <trkpt lat="44.4538" lon="0.95842">
        <ele>103.96</ele>
        <time>2014-10-04T13:32:16Z</time>
      </trkpt>
      <trkpt lat="44.45385" lon="0.95856">
        <ele>103.48</ele>
        <time>2014-10-04T13:32:19Z</time>
      </trkpt>
      <trkpt lat="44.45387" lon="0.95861">
        <ele>103.48</ele>
        <time>2014-10-04T13:32:20Z</time>
      </trkpt>
      <trkpt lat="44.45424" lon="0.95964">
        <ele>99.15</ele>
        <time>2014-10-04T13:32:34Z</time>
      </trkpt>
      <trkpt lat="44.45471" lon="0.96082">
        <ele>97.23</ele>
        <time>2014-10-04T13:32:48Z</time>
      </trkpt>
      <trkpt lat="44.45495" lon="0.96142">
        <ele>97.71</ele>
        <time>2014-10-04T13:32:57Z</time>
      </trkpt>
      <trkpt lat="44.45499" lon="0.96154">
        <ele>98.19</ele>
        <time>2014-10-04T13:32:59Z</time>
      </trkpt>
      <trkpt lat="44.45506" lon="0.96171">
        <ele>98.67</ele>
        <time>2014-10-04T13:33:08Z</time>
      </trkpt>
      <trkpt lat="44.4552" lon="0.96172">
        <ele>98.67</ele>
        <time>2014-10-04T13:33:21Z</time>
      </trkpt>
      <trkpt lat="44.45524" lon="0.96171">
        <ele>98.67</ele>
        <time>2014-10-04T13:33:22Z</time>
      </trkpt>
      <trkpt lat="44.45576" lon="0.9616">
        <ele>100.6</ele>
        <time>2014-10-04T13:33:36Z</time>
      </trkpt>
      <trkpt lat="44.45619" lon="0.9616">
        <ele>107.32</ele>
        <time>2014-10-04T13:33:50Z</time>
      </trkpt>
      <trkpt lat="44.45672" lon="0.96163">
        <ele>114.05</ele>
        <time>2014-10-04T13:34:06Z</time>
      </trkpt>
      <trkpt lat="44.45735" lon="0.96163">
        <ele>120.78</ele>
        <time>2014-10-04T13:34:23Z</time>
      </trkpt>
      <trkpt lat="44.45777" lon="0.96178">
        <ele>126.55</ele>
        <time>2014-10-04T13:34:36Z</time>
      </trkpt>
      <trkpt lat="44.45819" lon="0.96191">
        <ele>132.32</ele>
        <time>2014-10-04T13:34:48Z</time>
      </trkpt>
      <trkpt lat="44.45847" lon="0.9619">
        <ele>137.13</ele>
        <time>2014-10-04T13:34:59Z</time>
      </trkpt>
      <trkpt lat="44.45851" lon="0.9619">
        <ele>137.61</ele>
        <time>2014-10-04T13:35:01Z</time>
      </trkpt>
      <trkpt lat="44.45852" lon="0.96192">
        <ele>137.13</ele>
        <time>2014-10-04T13:35:02Z</time>
      </trkpt>
      <trkpt lat="44.45854" lon="0.96193">
        <ele>137.13</ele>
        <time>2014-10-04T13:35:03Z</time>
      </trkpt>
      <trkpt lat="44.45856" lon="0.96194">
        <ele>137.13</ele>
        <time>2014-10-04T13:35:04Z</time>
      </trkpt>
      <trkpt lat="44.45858" lon="0.96196">
        <ele>137.13</ele>
        <time>2014-10-04T13:35:05Z</time>
      </trkpt>
      <trkpt lat="44.4586" lon="0.96198">
        <ele>137.13</ele>
        <time>2014-10-04T13:35:06Z</time>
      </trkpt>
      <trkpt lat="44.45862" lon="0.962">
        <ele>136.64</ele>
        <time>2014-10-04T13:35:07Z</time>
      </trkpt>
      <trkpt lat="44.45864" lon="0.96203">
        <ele>136.16</ele>
        <time>2014-10-04T13:35:08Z</time>
      </trkpt>
      <trkpt lat="44.45866" lon="0.96206">
        <ele>135.68</ele>
        <time>2014-10-04T13:35:09Z</time>
      </trkpt>
      <trkpt lat="44.45868" lon="0.9621">
        <ele>135.2</ele>
        <time>2014-10-04T13:35:10Z</time>
      </trkpt>
      <trkpt lat="44.45869" lon="0.96214">
        <ele>135.2</ele>
        <time>2014-10-04T13:35:11Z</time>
      </trkpt>
      <trkpt lat="44.45879" lon="0.96244">
        <ele>130.88</ele>
        <time>2014-10-04T13:35:17Z</time>
      </trkpt>
      <trkpt lat="44.45901" lon="0.96322">
        <ele>121.74</ele>
        <time>2014-10-04T13:35:29Z</time>
      </trkpt>
      <trkpt lat="44.45916" lon="0.96353">
        <ele>119.34</ele>
        <time>2014-10-04T13:35:34Z</time>
      </trkpt>
      <trkpt lat="44.4592" lon="0.96358">
        <ele>119.34</ele>
        <time>2014-10-04T13:35:35Z</time>
      </trkpt>
      <trkpt lat="44.45956" lon="0.96391">
        <ele>120.3</ele>
        <time>2014-10-04T13:35:44Z</time>
      </trkpt>
      <trkpt lat="44.4596" lon="0.96393">
        <ele>120.78</ele>
        <time>2014-10-04T13:35:45Z</time>
      </trkpt>
      <trkpt lat="44.45992" lon="0.96391">
        <ele>123.67</ele>
        <time>2014-10-04T13:35:53Z</time>
      </trkpt>
      <trkpt lat="44.46039" lon="0.96362">
        <ele>129.43</ele>
        <time>2014-10-04T13:36:06Z</time>
      </trkpt>
      <trkpt lat="44.46085" lon="0.96358">
        <ele>133.28</ele>
        <time>2014-10-04T13:36:18Z</time>
      </trkpt>
      <trkpt lat="44.4614" lon="0.96362">
        <ele>132.32</ele>
        <time>2014-10-04T13:36:31Z</time>
      </trkpt>
      <trkpt lat="44.46195" lon="0.96365">
        <ele>129.92</ele>
        <time>2014-10-04T13:36:43Z</time>
      </trkpt>
      <trkpt lat="44.46197" lon="0.96366">
        <ele>129.92</ele>
        <time>2014-10-04T13:36:44Z</time>
      </trkpt>
      <trkpt lat="44.46199" lon="0.96371">
        <ele>128.95</ele>
        <time>2014-10-04T13:36:46Z</time>
      </trkpt>
      <trkpt lat="44.46198" lon="0.96375">
        <ele>128.47</ele>
        <time>2014-10-04T13:36:48Z</time>
      </trkpt>
      <trkpt lat="44.46175" lon="0.96414">
        <ele>127.03</ele>
        <time>2014-10-04T13:37:01Z</time>
      </trkpt>
      <trkpt lat="44.46164" lon="0.96447">
        <ele>125.59</ele>
        <time>2014-10-04T13:37:11Z</time>
      </trkpt>
      <trkpt lat="44.46153" lon="0.96487">
        <ele>128.47</ele>
        <time>2014-10-04T13:37:22Z</time>
      </trkpt>
      <trkpt lat="44.46137" lon="0.96526">
        <ele>135.2</ele>
        <time>2014-10-04T13:37:33Z</time>
      </trkpt>
      <trkpt lat="44.46115" lon="0.96574">
        <ele>143.85</ele>
        <time>2014-10-04T13:37:45Z</time>
      </trkpt>
      <trkpt lat="44.46093" lon="0.96635">
        <ele>152.51</ele>
        <time>2014-10-04T13:37:58Z</time>
      </trkpt>
      <trkpt lat="44.46074" lon="0.9669">
        <ele>156.35</ele>
        <time>2014-10-04T13:38:10Z</time>
      </trkpt>
      <trkpt lat="44.46061" lon="0.9674">
        <ele>158.75</ele>
        <time>2014-10-04T13:38:22Z</time>
      </trkpt>
      <trkpt lat="44.46051" lon="0.96778">
        <ele>159.72</ele>
        <time>2014-10-04T13:38:32Z</time>
      </trkpt>
      <trkpt lat="44.46041" lon="0.96817">
        <ele>158.27</ele>
        <time>2014-10-04T13:38:43Z</time>
      </trkpt>
      <trkpt lat="44.46026" lon="0.9685">
        <ele>158.27</ele>
        <time>2014-10-04T13:38:53Z</time>
      </trkpt>
      <trkpt lat="44.46002" lon="0.96902">
        <ele>156.83</ele>
        <time>2014-10-04T13:39:07Z</time>
      </trkpt>
      <trkpt lat="44.45985" lon="0.96933">
        <ele>155.87</ele>
        <time>2014-10-04T13:39:16Z</time>
      </trkpt>
      <trkpt lat="44.45982" lon="0.96947">
        <ele>156.35</ele>
        <time>2014-10-04T13:39:30Z</time>
      </trkpt>
      <trkpt lat="44.45981" lon="0.96949">
        <ele>154.91</ele>
        <time>2014-10-04T13:39:54Z</time>
      </trkpt>
      <trkpt lat="44.45981" lon="0.96949">
        <ele>153.95</ele>
        <time>2014-10-04T13:40:18Z</time>
      </trkpt>
      <trkpt lat="44.45981" lon="0.96949">
        <ele>153.47</ele>
        <time>2014-10-04T13:40:24Z</time>
      </trkpt>
      <trkpt lat="44.45958" lon="0.96982">
        <ele>154.91</ele>
        <time>2014-10-04T13:40:35Z</time>
      </trkpt>
      <trkpt lat="44.45928" lon="0.97017">
        <ele>158.75</ele>
        <time>2014-10-04T13:40:46Z</time>
      </trkpt>
      <trkpt lat="44.459" lon="0.97058">
        <ele>158.75</ele>
        <time>2014-10-04T13:40:57Z</time>
      </trkpt>
      <trkpt lat="44.45874" lon="0.97102">
        <ele>159.72</ele>
        <time>2014-10-04T13:41:08Z</time>
      </trkpt>
      <trkpt lat="44.45849" lon="0.97162">
        <ele>161.16</ele>
        <time>2014-10-04T13:41:21Z</time>
      </trkpt>
      <trkpt lat="44.45822" lon="0.97228">
        <ele>158.75</ele>
        <time>2014-10-04T13:41:34Z</time>
      </trkpt>
      <trkpt lat="44.45797" lon="0.97278">
        <ele>156.83</ele>
        <time>2014-10-04T13:41:44Z</time>
      </trkpt>
      <trkpt lat="44.45797" lon="0.97283">
        <ele>156.35</ele>
        <time>2014-10-04T13:41:45Z</time>
      </trkpt>
      <trkpt lat="44.45799" lon="0.97287">
        <ele>156.35</ele>
        <time>2014-10-04T13:41:46Z</time>
      </trkpt>
      <trkpt lat="44.45802" lon="0.9729">
        <ele>156.35</ele>
        <time>2014-10-04T13:41:47Z</time>
      </trkpt>
      <trkpt lat="44.45806" lon="0.97293">
        <ele>155.87</ele>
        <time>2014-10-04T13:41:48Z</time>
      </trkpt>
      <trkpt lat="44.45811" lon="0.97296">
        <ele>155.39</ele>
        <time>2014-10-04T13:41:49Z</time>
      </trkpt>
      <trkpt lat="44.45884" lon="0.97342">
        <ele>148.18</ele>
        <time>2014-10-04T13:42:00Z</time>
      </trkpt>
      <trkpt lat="44.45938" lon="0.97372">
        <ele>152.03</ele>
        <time>2014-10-04T13:42:11Z</time>
      </trkpt>
      <trkpt lat="44.46002" lon="0.97409">
        <ele>153.95</ele>
        <time>2014-10-04T13:42:27Z</time>
      </trkpt>
      <trkpt lat="44.46054" lon="0.97471">
        <ele>154.43</ele>
        <time>2014-10-04T13:42:38Z</time>
      </trkpt>
      <trkpt lat="44.46096" lon="0.97529">
        <ele>157.31</ele>
        <time>2014-10-04T13:42:49Z</time>
      </trkpt>
      <trkpt lat="44.46112" lon="0.97555">
        <ele>156.83</ele>
        <time>2014-10-04T13:43:01Z</time>
      </trkpt>
      <trkpt lat="44.46113" lon="0.97557">
        <ele>156.35</ele>
        <time>2014-10-04T13:43:02Z</time>
      </trkpt>
      <trkpt lat="44.46125" lon="0.97604">
        <ele>151.06</ele>
        <time>2014-10-04T13:43:12Z</time>
      </trkpt>
      <trkpt lat="44.46126" lon="0.9763">
        <ele>148.18</ele>
        <time>2014-10-04T13:43:15Z</time>
      </trkpt>
      <trkpt lat="44.46128" lon="0.97639">
        <ele>147.22</ele>
        <time>2014-10-04T13:43:16Z</time>
      </trkpt>
      <trkpt lat="44.4613" lon="0.97648">
        <ele>146.26</ele>
        <time>2014-10-04T13:43:17Z</time>
      </trkpt>
      <trkpt lat="44.46138" lon="0.97678">
        <ele>143.37</ele>
        <time>2014-10-04T13:43:20Z</time>
      </trkpt>
      <trkpt lat="44.46143" lon="0.97688">
        <ele>142.41</ele>
        <time>2014-10-04T13:43:21Z</time>
      </trkpt>
      <trkpt lat="44.46148" lon="0.97698">
        <ele>141.93</ele>
        <time>2014-10-04T13:43:22Z</time>
      </trkpt>
      <trkpt lat="44.46153" lon="0.97707">
        <ele>141.45</ele>
        <time>2014-10-04T13:43:23Z</time>
      </trkpt>
      <trkpt lat="44.4616" lon="0.97715">
        <ele>140.97</ele>
        <time>2014-10-04T13:43:24Z</time>
      </trkpt>
      <trkpt lat="44.46166" lon="0.97723">
        <ele>140.97</ele>
        <time>2014-10-04T13:43:25Z</time>
      </trkpt>
      <trkpt lat="44.46181" lon="0.97747">
        <ele>140.97</ele>
        <time>2014-10-04T13:43:28Z</time>
      </trkpt>
      <trkpt lat="44.46184" lon="0.97756">
        <ele>140.97</ele>
        <time>2014-10-04T13:43:29Z</time>
      </trkpt>
      <trkpt lat="44.46187" lon="0.97765">
        <ele>140.97</ele>
        <time>2014-10-04T13:43:30Z</time>
      </trkpt>
      <trkpt lat="44.46207" lon="0.97897">
        <ele>129.43</ele>
        <time>2014-10-04T13:43:41Z</time>
      </trkpt>
      <trkpt lat="44.46209" lon="0.97911">
        <ele>127.99</ele>
        <time>2014-10-04T13:43:42Z</time>
      </trkpt>
      <trkpt lat="44.46212" lon="0.97925">
        <ele>127.03</ele>
        <time>2014-10-04T13:43:43Z</time>
      </trkpt>
      <trkpt lat="44.46216" lon="0.97938">
        <ele>126.55</ele>
        <time>2014-10-04T13:43:44Z</time>
      </trkpt>
      <trkpt lat="44.46221" lon="0.97951">
        <ele>126.07</ele>
        <time>2014-10-04T13:43:45Z</time>
      </trkpt>
      <trkpt lat="44.46227" lon="0.97962">
        <ele>125.59</ele>
        <time>2014-10-04T13:43:46Z</time>
      </trkpt>
      <trkpt lat="44.46233" lon="0.9797">
        <ele>125.11</ele>
        <time>2014-10-04T13:43:47Z</time>
      </trkpt>
      <trkpt lat="44.4624" lon="0.97976">
        <ele>124.63</ele>
        <time>2014-10-04T13:43:48Z</time>
      </trkpt>
      <trkpt lat="44.46248" lon="0.97979">
        <ele>124.63</ele>
        <time>2014-10-04T13:43:49Z</time>
      </trkpt>
      <trkpt lat="44.46255" lon="0.9798">
        <ele>124.63</ele>
        <time>2014-10-04T13:43:50Z</time>
      </trkpt>
      <trkpt lat="44.46263" lon="0.9798">
        <ele>124.15</ele>
        <time>2014-10-04T13:43:51Z</time>
      </trkpt>
      <trkpt lat="44.46271" lon="0.97979">
        <ele>124.63</ele>
        <time>2014-10-04T13:43:52Z</time>
      </trkpt>
      <trkpt lat="44.46344" lon="0.97993">
        <ele>127.03</ele>
        <time>2014-10-04T13:44:04Z</time>
      </trkpt>
      <trkpt lat="44.46353" lon="0.97999">
        <ele>127.99</ele>
        <time>2014-10-04T13:44:06Z</time>
      </trkpt>
      <trkpt lat="44.46362" lon="0.98006">
        <ele>128.47</ele>
        <time>2014-10-04T13:44:08Z</time>
      </trkpt>
      <trkpt lat="44.46377" lon="0.98026">
        <ele>128.95</ele>
        <time>2014-10-04T13:44:12Z</time>
      </trkpt>
      <trkpt lat="44.46415" lon="0.9806">
        <ele>132.32</ele>
        <time>2014-10-04T13:44:23Z</time>
      </trkpt>
      <trkpt lat="44.46442" lon="0.98084">
        <ele>139.05</ele>
        <time>2014-10-04T13:44:38Z</time>
      </trkpt>
      <trkpt lat="44.4647" lon="0.98107">
        <ele>143.85</ele>
        <time>2014-10-04T13:44:53Z</time>
      </trkpt>
      <trkpt lat="44.4648" lon="0.98116">
        <ele>145.3</ele>
        <time>2014-10-04T13:44:59Z</time>
      </trkpt>
      <trkpt lat="44.46475" lon="0.98131">
        <ele>145.3</ele>
        <time>2014-10-04T13:45:09Z</time>
      </trkpt>
      <trkpt lat="44.4647" lon="0.98142">
        <ele>145.78</ele>
        <time>2014-10-04T13:45:16Z</time>
      </trkpt>
      <trkpt lat="44.46467" lon="0.98148">
        <ele>145.78</ele>
        <time>2014-10-04T13:45:20Z</time>
      </trkpt>
      <trkpt lat="44.46454" lon="0.98173">
        <ele>145.78</ele>
        <time>2014-10-04T13:45:35Z</time>
      </trkpt>
      <trkpt lat="44.46441" lon="0.98198">
        <ele>146.26</ele>
        <time>2014-10-04T13:45:49Z</time>
      </trkpt>
      <trkpt lat="44.46437" lon="0.98207">
        <ele>146.26</ele>
        <time>2014-10-04T13:45:54Z</time>
      </trkpt>
      <trkpt lat="44.46421" lon="0.98237">
        <ele>145.78</ele>
        <time>2014-10-04T13:46:10Z</time>
      </trkpt>
      <trkpt lat="44.46405" lon="0.98268">
        <ele>146.74</ele>
        <time>2014-10-04T13:46:26Z</time>
      </trkpt>
      <trkpt lat="44.46387" lon="0.98298">
        <ele>148.18</ele>
        <time>2014-10-04T13:46:42Z</time>
      </trkpt>
      <trkpt lat="44.46366" lon="0.9833">
        <ele>149.62</ele>
        <time>2014-10-04T13:47:00Z</time>
      </trkpt>
      <trkpt lat="44.46341" lon="0.98365">
        <ele>151.54</ele>
        <time>2014-10-04T13:47:17Z</time>
      </trkpt>
      <trkpt lat="44.46316" lon="0.98373">
        <ele>153.47</ele>
        <time>2014-10-04T13:47:30Z</time>
      </trkpt>
      <trkpt lat="44.46287" lon="0.9839">
        <ele>156.35</ele>
        <time>2014-10-04T13:47:45Z</time>
      </trkpt>
      <trkpt lat="44.46257" lon="0.98398">
        <ele>158.75</ele>
        <time>2014-10-04T13:48:00Z</time>
      </trkpt>
      <trkpt lat="44.46235" lon="0.98378">
        <ele>161.64</ele>
        <time>2014-10-04T13:48:14Z</time>
      </trkpt>
      <trkpt lat="44.46214" lon="0.98368">
        <ele>162.6</ele>
        <time>2014-10-04T13:48:27Z</time>
      </trkpt>
      <trkpt lat="44.46212" lon="0.98369">
        <ele>162.6</ele>
        <time>2014-10-04T13:48:28Z</time>
      </trkpt>
      <trkpt lat="44.46191" lon="0.9839">
        <ele>165</ele>
        <time>2014-10-04T13:48:42Z</time>
      </trkpt>
      <trkpt lat="44.46164" lon="0.98416">
        <ele>166.45</ele>
        <time>2014-10-04T13:48:58Z</time>
      </trkpt>
      <trkpt lat="44.46133" lon="0.98451">
        <ele>169.33</ele>
        <time>2014-10-04T13:49:18Z</time>
      </trkpt>
      <trkpt lat="44.46111" lon="0.98483">
        <ele>171.73</ele>
        <time>2014-10-04T13:49:34Z</time>
      </trkpt>
      <trkpt lat="44.46086" lon="0.98521">
        <ele>173.66</ele>
        <time>2014-10-04T13:49:52Z</time>
      </trkpt>
      <trkpt lat="44.46062" lon="0.98562">
        <ele>174.62</ele>
        <time>2014-10-04T13:50:09Z</time>
      </trkpt>
      <trkpt lat="44.46042" lon="0.98594">
        <ele>173.66</ele>
        <time>2014-10-04T13:50:21Z</time>
      </trkpt>
      <trkpt lat="44.46034" lon="0.98606">
        <ele>173.66</ele>
        <time>2014-10-04T13:50:33Z</time>
      </trkpt>
      <trkpt lat="44.46034" lon="0.98606">
        <ele>173.17</ele>
        <time>2014-10-04T13:51:00Z</time>
      </trkpt>
      <trkpt lat="44.46034" lon="0.98606">
        <ele>172.69</ele>
        <time>2014-10-04T13:51:29Z</time>
      </trkpt>
      <trkpt lat="44.46034" lon="0.98606">
        <ele>172.21</ele>
        <time>2014-10-04T13:51:49Z</time>
      </trkpt>
      <trkpt lat="44.46033" lon="0.98606">
        <ele>172.21</ele>
        <time>2014-10-04T13:52:07Z</time>
      </trkpt>
      <trkpt lat="44.46033" lon="0.98608">
        <ele>172.21</ele>
        <time>2014-10-04T13:52:08Z</time>
      </trkpt>
      <trkpt lat="44.46031" lon="0.9861">
        <ele>172.69</ele>
        <time>2014-10-04T13:52:09Z</time>
      </trkpt>
      <trkpt lat="44.46007" lon="0.98654">
        <ele>175.58</ele>
        <time>2014-10-04T13:52:21Z</time>
      </trkpt>
      <trkpt lat="44.45985" lon="0.98698">
        <ele>177.98</ele>
        <time>2014-10-04T13:52:35Z</time>
      </trkpt>
      <trkpt lat="44.45966" lon="0.98739">
        <ele>180.87</ele>
        <time>2014-10-04T13:52:48Z</time>
      </trkpt>
      <trkpt lat="44.45945" lon="0.9878">
        <ele>183.27</ele>
        <time>2014-10-04T13:53:03Z</time>
      </trkpt>
      <trkpt lat="44.45913" lon="0.98819">
        <ele>187.59</ele>
        <time>2014-10-04T13:53:20Z</time>
      </trkpt>
      <trkpt lat="44.45878" lon="0.98862">
        <ele>188.56</ele>
        <time>2014-10-04T13:53:37Z</time>
      </trkpt>
      <trkpt lat="44.45855" lon="0.98931">
        <ele>190</ele>
        <time>2014-10-04T13:53:56Z</time>
      </trkpt>
      <trkpt lat="44.45851" lon="0.99019">
        <ele>193.36</ele>
        <time>2014-10-04T13:54:16Z</time>
      </trkpt>
      <trkpt lat="44.45843" lon="0.99116">
        <ele>192.4</ele>
        <time>2014-10-04T13:54:33Z</time>
      </trkpt>
      <trkpt lat="44.4584" lon="0.99162">
        <ele>191.92</ele>
        <time>2014-10-04T13:54:40Z</time>
      </trkpt>
      <trkpt lat="44.45841" lon="0.99168">
        <ele>191.44</ele>
        <time>2014-10-04T13:54:41Z</time>
      </trkpt>
      <trkpt lat="44.45843" lon="0.99175">
        <ele>191.44</ele>
        <time>2014-10-04T13:54:42Z</time>
      </trkpt>
      <trkpt lat="44.45845" lon="0.99182">
        <ele>191.44</ele>
        <time>2014-10-04T13:54:43Z</time>
      </trkpt>
      <trkpt lat="44.45847" lon="0.99188">
        <ele>191.44</ele>
        <time>2014-10-04T13:54:44Z</time>
      </trkpt>
      <trkpt lat="44.45851" lon="0.99194">
        <ele>190.96</ele>
        <time>2014-10-04T13:54:45Z</time>
      </trkpt>
      <trkpt lat="44.45854" lon="0.99199">
        <ele>190.96</ele>
        <time>2014-10-04T13:54:46Z</time>
      </trkpt>
      <trkpt lat="44.45858" lon="0.99204">
        <ele>190.96</ele>
        <time>2014-10-04T13:54:47Z</time>
      </trkpt>
      <trkpt lat="44.45863" lon="0.99208">
        <ele>190.48</ele>
        <time>2014-10-04T13:54:48Z</time>
      </trkpt>
      <trkpt lat="44.45867" lon="0.99212">
        <ele>190.48</ele>
        <time>2014-10-04T13:54:49Z</time>
      </trkpt>
      <trkpt lat="44.45941" lon="0.99266">
        <ele>189.52</ele>
        <time>2014-10-04T13:55:05Z</time>
      </trkpt>
      <trkpt lat="44.46019" lon="0.99336">
        <ele>187.11</ele>
        <time>2014-10-04T13:55:20Z</time>
      </trkpt>
      <trkpt lat="44.4608" lon="0.99393">
        <ele>186.63</ele>
        <time>2014-10-04T13:55:33Z</time>
      </trkpt>
      <trkpt lat="44.46088" lon="0.99401">
        <ele>186.63</ele>
        <time>2014-10-04T13:55:35Z</time>
      </trkpt>
      <trkpt lat="44.46113" lon="0.99432">
        <ele>187.11</ele>
        <time>2014-10-04T13:55:44Z</time>
      </trkpt>
      <trkpt lat="44.46153" lon="0.99488">
        <ele>188.56</ele>
        <time>2014-10-04T13:56:00Z</time>
      </trkpt>
      <trkpt lat="44.46198" lon="0.99531">
        <ele>190.96</ele>
        <time>2014-10-04T13:56:15Z</time>
      </trkpt>
      <trkpt lat="44.46245" lon="0.99573">
        <ele>194.32</ele>
        <time>2014-10-04T13:56:31Z</time>
      </trkpt>
      <trkpt lat="44.46284" lon="0.99592">
        <ele>195.28</ele>
        <time>2014-10-04T13:56:43Z</time>
      </trkpt>
      <trkpt lat="44.46289" lon="0.99591">
        <ele>194.8</ele>
        <time>2014-10-04T13:56:44Z</time>
      </trkpt>
      <trkpt lat="44.46298" lon="0.99588">
        <ele>194.8</ele>
        <time>2014-10-04T13:56:46Z</time>
      </trkpt>
      <trkpt lat="44.46333" lon="0.99577">
        <ele>193.84</ele>
        <time>2014-10-04T13:56:53Z</time>
      </trkpt>
      <trkpt lat="44.46338" lon="0.99574">
        <ele>193.84</ele>
        <time>2014-10-04T13:56:54Z</time>
      </trkpt>
      <trkpt lat="44.46342" lon="0.99571">
        <ele>193.84</ele>
        <time>2014-10-04T13:56:55Z</time>
      </trkpt>
      <trkpt lat="44.46345" lon="0.99567">
        <ele>193.84</ele>
        <time>2014-10-04T13:56:56Z</time>
      </trkpt>
      <trkpt lat="44.46348" lon="0.99563">
        <ele>193.36</ele>
        <time>2014-10-04T13:56:57Z</time>
      </trkpt>
      <trkpt lat="44.4635" lon="0.99559">
        <ele>193.36</ele>
        <time>2014-10-04T13:56:58Z</time>
      </trkpt>
      <trkpt lat="44.46353" lon="0.99555">
        <ele>193.36</ele>
        <time>2014-10-04T13:56:59Z</time>
      </trkpt>
      <trkpt lat="44.46355" lon="0.99552">
        <ele>193.36</ele>
        <time>2014-10-04T13:57:00Z</time>
      </trkpt>
      <trkpt lat="44.46357" lon="0.99548">
        <ele>193.36</ele>
        <time>2014-10-04T13:57:01Z</time>
      </trkpt>
      <trkpt lat="44.46358" lon="0.99547">
        <ele>193.36</ele>
        <time>2014-10-04T13:57:02Z</time>
      </trkpt>
      <trkpt lat="44.46359" lon="0.99547">
        <ele>192.88</ele>
        <time>2014-10-04T13:57:13Z</time>
      </trkpt>
      <trkpt lat="44.46361" lon="0.99547">
        <ele>192.88</ele>
        <time>2014-10-04T13:57:14Z</time>
      </trkpt>
      <trkpt lat="44.46362" lon="0.99548">
        <ele>192.88</ele>
        <time>2014-10-04T13:57:15Z</time>
      </trkpt>
      <trkpt lat="44.46362" lon="0.99549">
        <ele>192.88</ele>
        <time>2014-10-04T13:57:16Z</time>
      </trkpt>
      <trkpt lat="44.46362" lon="0.99551">
        <ele>193.36</ele>
        <time>2014-10-04T13:57:17Z</time>
      </trkpt>
      <trkpt lat="44.46362" lon="0.99553">
        <ele>193.36</ele>
        <time>2014-10-04T13:57:18Z</time>
      </trkpt>
      <trkpt lat="44.46355" lon="0.99592">
        <ele>194.8</ele>
        <time>2014-10-04T13:57:29Z</time>
      </trkpt>
      <trkpt lat="44.46334" lon="0.99662">
        <ele>197.21</ele>
        <time>2014-10-04T13:57:45Z</time>
      </trkpt>
      <trkpt lat="44.46334" lon="0.99665">
        <ele>197.21</ele>
        <time>2014-10-04T13:57:46Z</time>
      </trkpt>
      <trkpt lat="44.46333" lon="0.99668">
        <ele>197.21</ele>
        <time>2014-10-04T13:57:47Z</time>
      </trkpt>
      <trkpt lat="44.46333" lon="0.99673">
        <ele>197.69</ele>
        <time>2014-10-04T13:57:49Z</time>
      </trkpt>
      <trkpt lat="44.46333" lon="0.99675">
        <ele>197.69</ele>
        <time>2014-10-04T13:57:50Z</time>
      </trkpt>
      <trkpt lat="44.46335" lon="0.99677">
        <ele>197.21</ele>
        <time>2014-10-04T13:57:51Z</time>
      </trkpt>
      <trkpt lat="44.46336" lon="0.99679">
        <ele>197.21</ele>
        <time>2014-10-04T13:57:52Z</time>
      </trkpt>
      <trkpt lat="44.46338" lon="0.99679">
        <ele>197.21</ele>
        <time>2014-10-04T13:57:53Z</time>
      </trkpt>
      <trkpt lat="44.4634" lon="0.99679">
        <ele>197.21</ele>
        <time>2014-10-04T13:57:54Z</time>
      </trkpt>
      <trkpt lat="44.46343" lon="0.99678">
        <ele>196.73</ele>
        <time>2014-10-04T13:57:55Z</time>
      </trkpt>
      <trkpt lat="44.46345" lon="0.99676">
        <ele>196.73</ele>
        <time>2014-10-04T13:57:56Z</time>
      </trkpt>
      <trkpt lat="44.46356" lon="0.99678">
        <ele>196.25</ele>
        <time>2014-10-04T13:58:05Z</time>
      </trkpt>
      <trkpt lat="44.46358" lon="0.9968">
        <ele>195.77</ele>
        <time>2014-10-04T13:58:28Z</time>
      </trkpt>
      <trkpt lat="44.46374" lon="0.99686">
        <ele>191.92</ele>
        <time>2014-10-04T13:58:36Z</time>
      </trkpt>
      <trkpt lat="44.46392" lon="0.99702">
        <ele>187.11</ele>
        <time>2014-10-04T13:58:43Z</time>
      </trkpt>
      <trkpt lat="44.46403" lon="0.99718">
        <ele>184.23</ele>
        <time>2014-10-04T13:58:49Z</time>
      </trkpt>
      <trkpt lat="44.46413" lon="0.99743">
        <ele>181.83</ele>
        <time>2014-10-04T13:58:56Z</time>
      </trkpt>
      <trkpt lat="44.46416" lon="0.99744">
        <ele>180.87</ele>
        <time>2014-10-04T13:58:57Z</time>
      </trkpt>
      <trkpt lat="44.46419" lon="0.99743">
        <ele>180.38</ele>
        <time>2014-10-04T13:58:58Z</time>
      </trkpt>
      <trkpt lat="44.46422" lon="0.99743">
        <ele>179.9</ele>
        <time>2014-10-04T13:58:59Z</time>
      </trkpt>
      <trkpt lat="44.46423" lon="0.99746">
        <ele>179.42</ele>
        <time>2014-10-04T13:59:00Z</time>
      </trkpt>
      <trkpt lat="44.46424" lon="0.9975">
        <ele>179.42</ele>
        <time>2014-10-04T13:59:01Z</time>
      </trkpt>
      <trkpt lat="44.46425" lon="0.99755">
        <ele>178.94</ele>
        <time>2014-10-04T13:59:02Z</time>
      </trkpt>
      <trkpt lat="44.46431" lon="0.99774">
        <ele>177.5</ele>
        <time>2014-10-04T13:59:06Z</time>
      </trkpt>
      <trkpt lat="44.4645" lon="0.99781">
        <ele>174.62</ele>
        <time>2014-10-04T13:59:13Z</time>
      </trkpt>
      <trkpt lat="44.46469" lon="0.9977">
        <ele>171.25</ele>
        <time>2014-10-04T13:59:19Z</time>
      </trkpt>
      <trkpt lat="44.46495" lon="0.99744">
        <ele>168.37</ele>
        <time>2014-10-04T13:59:25Z</time>
      </trkpt>
      <trkpt lat="44.46501" lon="0.99695">
        <ele>167.41</ele>
        <time>2014-10-04T13:59:33Z</time>
      </trkpt>
      <trkpt lat="44.46499" lon="0.99688">
        <ele>166.93</ele>
        <time>2014-10-04T13:59:34Z</time>
      </trkpt>
      <trkpt lat="44.46497" lon="0.9968">
        <ele>166.45</ele>
        <time>2014-10-04T13:59:35Z</time>
      </trkpt>
      <trkpt lat="44.46495" lon="0.99672">
        <ele>165.96</ele>
        <time>2014-10-04T13:59:36Z</time>
      </trkpt>
      <trkpt lat="44.46494" lon="0.99653">
        <ele>164.04</ele>
        <time>2014-10-04T13:59:38Z</time>
      </trkpt>
      <trkpt lat="44.46494" lon="0.99645">
        <ele>163.56</ele>
        <time>2014-10-04T13:59:39Z</time>
      </trkpt>
      <trkpt lat="44.46506" lon="0.9963">
        <ele>160.2</ele>
        <time>2014-10-04T13:59:46Z</time>
      </trkpt>
      <trkpt lat="44.46521" lon="0.99619">
        <ele>158.27</ele>
        <time>2014-10-04T13:59:51Z</time>
      </trkpt>
      <trkpt lat="44.46542" lon="0.99604">
        <ele>156.83</ele>
        <time>2014-10-04T13:59:55Z</time>
      </trkpt>
      <trkpt lat="44.46556" lon="0.99601">
        <ele>156.35</ele>
        <time>2014-10-04T13:59:59Z</time>
      </trkpt>
      <trkpt lat="44.4659" lon="0.99638">
        <ele>153.47</ele>
        <time>2014-10-04T14:00:07Z</time>
      </trkpt>
      <trkpt lat="44.4662" lon="0.9966">
        <ele>152.99</ele>
        <time>2014-10-04T14:00:14Z</time>
      </trkpt>
      <trkpt lat="44.46637" lon="0.9965">
        <ele>152.51</ele>
        <time>2014-10-04T14:00:18Z</time>
      </trkpt>
      <trkpt lat="44.4665" lon="0.99655">
        <ele>152.03</ele>
        <time>2014-10-04T14:00:22Z</time>
      </trkpt>
      <trkpt lat="44.46679" lon="0.99655">
        <ele>149.14</ele>
        <time>2014-10-04T14:00:29Z</time>
      </trkpt>
      <trkpt lat="44.46683" lon="0.99648">
        <ele>148.66</ele>
        <time>2014-10-04T14:00:37Z</time>
      </trkpt>
      <trkpt lat="44.46683" lon="0.99645">
        <ele>147.22</ele>
        <time>2014-10-04T14:00:57Z</time>
      </trkpt>
      <trkpt lat="44.46683" lon="0.99648">
        <ele>148.18</ele>
        <time>2014-10-04T14:01:20Z</time>
      </trkpt>
      <trkpt lat="44.46682" lon="0.99646">
        <ele>148.18</ele>
        <time>2014-10-04T14:01:46Z</time>
      </trkpt>
      <trkpt lat="44.46683" lon="0.99647">
        <ele>147.7</ele>
        <time>2014-10-04T14:02:04Z</time>
      </trkpt>
      <trkpt lat="44.46685" lon="0.99649">
        <ele>146.74</ele>
        <time>2014-10-04T14:02:39Z</time>
      </trkpt>
      <trkpt lat="44.46686" lon="0.99649">
        <ele>146.26</ele>
        <time>2014-10-04T14:03:08Z</time>
      </trkpt>
      <trkpt lat="44.46686" lon="0.99649">
        <ele>146.26</ele>
        <time>2014-10-04T14:03:11Z</time>
      </trkpt>
      <trkpt lat="44.4668" lon="0.99654">
        <ele>146.74</ele>
        <time>2014-10-04T14:03:22Z</time>
      </trkpt>
      <trkpt lat="44.46679" lon="0.99656">
        <ele>146.74</ele>
        <time>2014-10-04T14:03:37Z</time>
      </trkpt>
      <trkpt lat="44.46677" lon="0.99662">
        <ele>147.22</ele>
        <time>2014-10-04T14:03:45Z</time>
      </trkpt>
      <trkpt lat="44.46671" lon="0.99676">
        <ele>148.18</ele>
        <time>2014-10-04T14:03:54Z</time>
      </trkpt>
      <trkpt lat="44.4666" lon="0.99686">
        <ele>149.14</ele>
        <time>2014-10-04T14:04:03Z</time>
      </trkpt>
      <trkpt lat="44.46653" lon="0.99694">
        <ele>149.62</ele>
        <time>2014-10-04T14:04:10Z</time>
      </trkpt>
      <trkpt lat="44.4665" lon="0.99723">
        <ele>152.99</ele>
        <time>2014-10-04T14:04:25Z</time>
      </trkpt>
      <trkpt lat="44.46651" lon="0.9973">
        <ele>153.95</ele>
        <time>2014-10-04T14:04:29Z</time>
      </trkpt>
      <trkpt lat="44.46644" lon="0.99745">
        <ele>155.39</ele>
        <time>2014-10-04T14:04:37Z</time>
      </trkpt>
      <trkpt lat="44.46643" lon="0.99752">
        <ele>156.35</ele>
        <time>2014-10-04T14:04:41Z</time>
      </trkpt>
      <trkpt lat="44.46638" lon="0.99779">
        <ele>159.24</ele>
        <time>2014-10-04T14:04:54Z</time>
      </trkpt>
      <trkpt lat="44.46638" lon="0.99782">
        <ele>159.72</ele>
        <time>2014-10-04T14:04:56Z</time>
      </trkpt>
      <trkpt lat="44.46634" lon="0.99788">
        <ele>160.2</ele>
        <time>2014-10-04T14:05:00Z</time>
      </trkpt>
      <trkpt lat="44.46614" lon="0.9981">
        <ele>160.68</ele>
        <time>2014-10-04T14:05:14Z</time>
      </trkpt>
      <trkpt lat="44.46588" lon="0.99837">
        <ele>162.12</ele>
        <time>2014-10-04T14:05:29Z</time>
      </trkpt>
      <trkpt lat="44.46575" lon="0.99864">
        <ele>162.6</ele>
        <time>2014-10-04T14:05:42Z</time>
      </trkpt>
      <trkpt lat="44.46577" lon="0.99868">
        <ele>162.6</ele>
        <time>2014-10-04T14:05:45Z</time>
      </trkpt>
      <trkpt lat="44.46582" lon="0.99866">
        <ele>162.6</ele>
        <time>2014-10-04T14:05:48Z</time>
      </trkpt>
      <trkpt lat="44.4659" lon="0.99857">
        <ele>164.52</ele>
        <time>2014-10-04T14:05:59Z</time>
      </trkpt>
      <trkpt lat="44.46592" lon="0.99859">
        <ele>166.45</ele>
        <time>2014-10-04T14:06:24Z</time>
      </trkpt>
      <trkpt lat="44.46592" lon="0.99857">
        <ele>166.93</ele>
        <time>2014-10-04T14:06:53Z</time>
      </trkpt>
      <trkpt lat="44.46592" lon="0.99857">
        <ele>167.41</ele>
        <time>2014-10-04T14:07:22Z</time>
      </trkpt>
      <trkpt lat="44.46592" lon="0.99857">
        <ele>167.41</ele>
        <time>2014-10-04T14:07:49Z</time>
      </trkpt>
      <trkpt lat="44.46591" lon="0.99856">
        <ele>167.41</ele>
        <time>2014-10-04T14:08:16Z</time>
      </trkpt>
      <trkpt lat="44.46591" lon="0.99856">
        <ele>167.41</ele>
        <time>2014-10-04T14:08:44Z</time>
      </trkpt>
      <trkpt lat="44.46591" lon="0.99857">
        <ele>167.41</ele>
        <time>2014-10-04T14:09:21Z</time>
      </trkpt>
      <trkpt lat="44.46591" lon="0.99857">
        <ele>167.41</ele>
        <time>2014-10-04T14:09:46Z</time>
      </trkpt>
      <trkpt lat="44.4659" lon="0.99858">
        <ele>167.41</ele>
        <time>2014-10-04T14:10:17Z</time>
      </trkpt>
      <trkpt lat="44.46591" lon="0.99858">
        <ele>168.37</ele>
        <time>2014-10-04T14:10:48Z</time>
      </trkpt>
      <trkpt lat="44.46591" lon="0.99857">
        <ele>168.85</ele>
        <time>2014-10-04T14:11:15Z</time>
      </trkpt>
      <trkpt lat="44.46591" lon="0.99856">
        <ele>168.85</ele>
        <time>2014-10-04T14:11:47Z</time>
      </trkpt>
      <trkpt lat="44.46592" lon="0.99856">
        <ele>168.85</ele>
        <time>2014-10-04T14:11:57Z</time>
      </trkpt>
      <trkpt lat="44.46591" lon="0.99857">
        <ele>168.85</ele>
        <time>2014-10-04T14:12:11Z</time>
      </trkpt>
      <trkpt lat="44.46591" lon="0.99859">
        <ele>168.85</ele>
        <time>2014-10-04T14:12:31Z</time>
      </trkpt>
      <trkpt lat="44.46591" lon="0.99859">
        <ele>168.85</ele>
        <time>2014-10-04T14:12:54Z</time>
      </trkpt>
      <trkpt lat="44.46591" lon="0.99861">
        <ele>168.37</ele>
        <time>2014-10-04T14:13:17Z</time>
      </trkpt>
      <trkpt lat="44.4659" lon="0.99861">
        <ele>168.85</ele>
        <time>2014-10-04T14:13:18Z</time>
      </trkpt>
      <trkpt lat="44.46589" lon="0.99862">
        <ele>168.85</ele>
        <time>2014-10-04T14:13:19Z</time>
      </trkpt>
      <trkpt lat="44.46587" lon="0.99863">
        <ele>168.85</ele>
        <time>2014-10-04T14:13:20Z</time>
      </trkpt>
      <trkpt lat="44.46576" lon="0.99868">
        <ele>169.81</ele>
        <time>2014-10-04T14:13:27Z</time>
      </trkpt>
      <trkpt lat="44.46574" lon="0.99867">
        <ele>170.29</ele>
        <time>2014-10-04T14:13:28Z</time>
      </trkpt>
      <trkpt lat="44.4657" lon="0.99863">
        <ele>170.77</ele>
        <time>2014-10-04T14:13:31Z</time>
      </trkpt>
      <trkpt lat="44.46569" lon="0.99863">
        <ele>170.29</ele>
        <time>2014-10-04T14:13:32Z</time>
      </trkpt>
      <trkpt lat="44.46567" lon="0.99863">
        <ele>170.29</ele>
        <time>2014-10-04T14:13:33Z</time>
      </trkpt>
      <trkpt lat="44.46565" lon="0.99864">
        <ele>170.29</ele>
        <time>2014-10-04T14:13:34Z</time>
      </trkpt>
      <trkpt lat="44.46563" lon="0.99865">
        <ele>169.81</ele>
        <time>2014-10-04T14:13:35Z</time>
      </trkpt>
      <trkpt lat="44.4656" lon="0.99868">
        <ele>169.81</ele>
        <time>2014-10-04T14:13:37Z</time>
      </trkpt>
      <trkpt lat="44.46558" lon="0.9987">
        <ele>169.33</ele>
        <time>2014-10-04T14:13:38Z</time>
      </trkpt>
      <trkpt lat="44.46536" lon="0.99896">
        <ele>167.89</ele>
        <time>2014-10-04T14:13:53Z</time>
      </trkpt>
      <trkpt lat="44.46525" lon="0.99922">
        <ele>170.77</ele>
        <time>2014-10-04T14:14:06Z</time>
      </trkpt>
      <trkpt lat="44.46511" lon="0.99958">
        <ele>173.66</ele>
        <time>2014-10-04T14:14:25Z</time>
      </trkpt>
      <trkpt lat="44.465" lon="0.99985">
        <ele>177.02</ele>
        <time>2014-10-04T14:14:40Z</time>
      </trkpt>
      <trkpt lat="44.46485" lon="1.00017">
        <ele>180.38</ele>
        <time>2014-10-04T14:14:58Z</time>
      </trkpt>
      <trkpt lat="44.46465" lon="1.00033">
        <ele>182.79</ele>
        <time>2014-10-04T14:15:12Z</time>
      </trkpt>
      <trkpt lat="44.46442" lon="1.00045">
        <ele>185.19</ele>
        <time>2014-10-04T14:15:27Z</time>
      </trkpt>
      <trkpt lat="44.46419" lon="1.00057">
        <ele>186.63</ele>
        <time>2014-10-04T14:15:41Z</time>
      </trkpt>
      <trkpt lat="44.46389" lon="1.00078">
        <ele>192.4</ele>
        <time>2014-10-04T14:16:00Z</time>
      </trkpt>
      <trkpt lat="44.46377" lon="1.00091">
        <ele>192.88</ele>
        <time>2014-10-04T14:16:13Z</time>
      </trkpt>
      <trkpt lat="44.46374" lon="1.00093">
        <ele>192.88</ele>
        <time>2014-10-04T14:16:28Z</time>
      </trkpt>
      <trkpt lat="44.46374" lon="1.00095">
        <ele>193.84</ele>
        <time>2014-10-04T14:16:48Z</time>
      </trkpt>
      <trkpt lat="44.46374" lon="1.00095">
        <ele>194.8</ele>
        <time>2014-10-04T14:17:10Z</time>
      </trkpt>
      <trkpt lat="44.4636" lon="1.00107">
        <ele>193.36</ele>
        <time>2014-10-04T14:17:23Z</time>
      </trkpt>
      <trkpt lat="44.46355" lon="1.00111">
        <ele>192.88</ele>
        <time>2014-10-04T14:17:24Z</time>
      </trkpt>
      <trkpt lat="44.4635" lon="1.00116">
        <ele>191.92</ele>
        <time>2014-10-04T14:17:25Z</time>
      </trkpt>
      <trkpt lat="44.46295" lon="1.00185">
        <ele>184.71</ele>
        <time>2014-10-04T14:17:34Z</time>
      </trkpt>
      <trkpt lat="44.46269" lon="1.00221">
        <ele>181.83</ele>
        <time>2014-10-04T14:17:38Z</time>
      </trkpt>
      <trkpt lat="44.46262" lon="1.00227">
        <ele>181.35</ele>
        <time>2014-10-04T14:17:39Z</time>
      </trkpt>
      <trkpt lat="44.46254" lon="1.00231">
        <ele>180.38</ele>
        <time>2014-10-04T14:17:40Z</time>
      </trkpt>
      <trkpt lat="44.46247" lon="1.00234">
        <ele>180.38</ele>
        <time>2014-10-04T14:17:41Z</time>
      </trkpt>
      <trkpt lat="44.46239" lon="1.00235">
        <ele>179.42</ele>
        <time>2014-10-04T14:17:42Z</time>
      </trkpt>
      <trkpt lat="44.46231" lon="1.00235">
        <ele>178.94</ele>
        <time>2014-10-04T14:17:43Z</time>
      </trkpt>
      <trkpt lat="44.46224" lon="1.00235">
        <ele>178.46</ele>
        <time>2014-10-04T14:17:44Z</time>
      </trkpt>
      <trkpt lat="44.46123" lon="1.00231">
        <ele>172.21</ele>
        <time>2014-10-04T14:17:57Z</time>
      </trkpt>
      <trkpt lat="44.46086" lon="1.0024">
        <ele>169.81</ele>
        <time>2014-10-04T14:18:02Z</time>
      </trkpt>
      <trkpt lat="44.46071" lon="1.00239">
        <ele>168.85</ele>
        <time>2014-10-04T14:18:04Z</time>
      </trkpt>
      <trkpt lat="44.45966" lon="1.00223">
        <ele>161.16</ele>
        <time>2014-10-04T14:18:17Z</time>
      </trkpt>
      <trkpt lat="44.45864" lon="1.0025">
        <ele>157.31</ele>
        <time>2014-10-04T14:18:30Z</time>
      </trkpt>
      <trkpt lat="44.45746" lon="1.00312">
        <ele>155.39</ele>
        <time>2014-10-04T14:18:46Z</time>
      </trkpt>
      <trkpt lat="44.45651" lon="1.00392">
        <ele>152.51</ele>
        <time>2014-10-04T14:19:00Z</time>
      </trkpt>
      <trkpt lat="44.45637" lon="1.00405">
        <ele>152.03</ele>
        <time>2014-10-04T14:19:02Z</time>
      </trkpt>
      <trkpt lat="44.45631" lon="1.00408">
        <ele>152.03</ele>
        <time>2014-10-04T14:19:03Z</time>
      </trkpt>
      <trkpt lat="44.45624" lon="1.00408">
        <ele>151.54</ele>
        <time>2014-10-04T14:19:04Z</time>
      </trkpt>
      <trkpt lat="44.45617" lon="1.00407">
        <ele>151.06</ele>
        <time>2014-10-04T14:19:05Z</time>
      </trkpt>
      <trkpt lat="44.4561" lon="1.00407">
        <ele>151.06</ele>
        <time>2014-10-04T14:19:06Z</time>
      </trkpt>
      <trkpt lat="44.45518" lon="1.00438">
        <ele>148.66</ele>
        <time>2014-10-04T14:19:18Z</time>
      </trkpt>
      <trkpt lat="44.45439" lon="1.00494">
        <ele>145.78</ele>
        <time>2014-10-04T14:19:29Z</time>
      </trkpt>
      <trkpt lat="44.45353" lon="1.0057">
        <ele>140.97</ele>
        <time>2014-10-04T14:19:42Z</time>
      </trkpt>
      <trkpt lat="44.4528" lon="1.00602">
        <ele>138.57</ele>
        <time>2014-10-04T14:19:53Z</time>
      </trkpt>
      <trkpt lat="44.45276" lon="1.00602">
        <ele>138.57</ele>
        <time>2014-10-04T14:19:54Z</time>
      </trkpt>
      <trkpt lat="44.45273" lon="1.00603">
        <ele>138.09</ele>
        <time>2014-10-04T14:20:04Z</time>
      </trkpt>
      <trkpt lat="44.45273" lon="1.00603">
        <ele>138.57</ele>
        <time>2014-10-04T14:20:22Z</time>
      </trkpt>
      <trkpt lat="44.45274" lon="1.00603">
        <ele>140.49</ele>
        <time>2014-10-04T14:20:46Z</time>
      </trkpt>
      <trkpt lat="44.45274" lon="1.00603">
        <ele>140.49</ele>
        <time>2014-10-04T14:20:57Z</time>
      </trkpt>
      <trkpt lat="44.45274" lon="1.00605">
        <ele>140.49</ele>
        <time>2014-10-04T14:20:58Z</time>
      </trkpt>
      <trkpt lat="44.45274" lon="1.00608">
        <ele>140.49</ele>
        <time>2014-10-04T14:20:59Z</time>
      </trkpt>
      <trkpt lat="44.45275" lon="1.00611">
        <ele>140.49</ele>
        <time>2014-10-04T14:21:00Z</time>
      </trkpt>
      <trkpt lat="44.45275" lon="1.00614">
        <ele>140.49</ele>
        <time>2014-10-04T14:21:01Z</time>
      </trkpt>
      <trkpt lat="44.45271" lon="1.00675">
        <ele>138.57</ele>
        <time>2014-10-04T14:21:13Z</time>
      </trkpt>
      <trkpt lat="44.45268" lon="1.00761">
        <ele>140.49</ele>
        <time>2014-10-04T14:21:30Z</time>
      </trkpt>
      <trkpt lat="44.45283" lon="1.00842">
        <ele>142.41</ele>
        <time>2014-10-04T14:21:46Z</time>
      </trkpt>
      <trkpt lat="44.45302" lon="1.00927">
        <ele>142.41</ele>
        <time>2014-10-04T14:22:02Z</time>
      </trkpt>
      <trkpt lat="44.45322" lon="1.01003">
        <ele>145.78</ele>
        <time>2014-10-04T14:22:17Z</time>
      </trkpt>
      <trkpt lat="44.45331" lon="1.01072">
        <ele>147.22</ele>
        <time>2014-10-04T14:22:30Z</time>
      </trkpt>
      <trkpt lat="44.45332" lon="1.01078">
        <ele>147.7</ele>
        <time>2014-10-04T14:22:31Z</time>
      </trkpt>
      <trkpt lat="44.45336" lon="1.01103">
        <ele>148.18</ele>
        <time>2014-10-04T14:22:35Z</time>
      </trkpt>
      <trkpt lat="44.45346" lon="1.01137">
        <ele>148.18</ele>
        <time>2014-10-04T14:22:41Z</time>
      </trkpt>
      <trkpt lat="44.45348" lon="1.01143">
        <ele>148.18</ele>
        <time>2014-10-04T14:22:42Z</time>
      </trkpt>
      <trkpt lat="44.4535" lon="1.01148">
        <ele>147.7</ele>
        <time>2014-10-04T14:22:43Z</time>
      </trkpt>
      <trkpt lat="44.45377" lon="1.01212">
        <ele>148.18</ele>
        <time>2014-10-04T14:22:55Z</time>
      </trkpt>
      <trkpt lat="44.45379" lon="1.01218">
        <ele>147.7</ele>
        <time>2014-10-04T14:22:56Z</time>
      </trkpt>
      <trkpt lat="44.45414" lon="1.0132">
        <ele>147.7</ele>
        <time>2014-10-04T14:23:13Z</time>
      </trkpt>
      <trkpt lat="44.45436" lon="1.01415">
        <ele>148.18</ele>
        <time>2014-10-04T14:23:29Z</time>
      </trkpt>
      <trkpt lat="44.4544" lon="1.01468">
        <ele>148.66</ele>
        <time>2014-10-04T14:23:38Z</time>
      </trkpt>
      <trkpt lat="44.45438" lon="1.01499">
        <ele>148.66</ele>
        <time>2014-10-04T14:23:43Z</time>
      </trkpt>
      <trkpt lat="44.45446" lon="1.01603">
        <ele>148.18</ele>
        <time>2014-10-04T14:23:59Z</time>
      </trkpt>
      <trkpt lat="44.45458" lon="1.01644">
        <ele>148.66</ele>
        <time>2014-10-04T14:24:06Z</time>
      </trkpt>
      <trkpt lat="44.45479" lon="1.01752">
        <ele>148.66</ele>
        <time>2014-10-04T14:24:23Z</time>
      </trkpt>
      <trkpt lat="44.45495" lon="1.01797">
        <ele>149.62</ele>
        <time>2014-10-04T14:24:31Z</time>
      </trkpt>
      <trkpt lat="44.45498" lon="1.01802">
        <ele>150.1</ele>
        <time>2014-10-04T14:24:32Z</time>
      </trkpt>
      <trkpt lat="44.45544" lon="1.01879">
        <ele>152.99</ele>
        <time>2014-10-04T14:24:50Z</time>
      </trkpt>
      <trkpt lat="44.45568" lon="1.01932">
        <ele>155.39</ele>
        <time>2014-10-04T14:25:01Z</time>
      </trkpt>
      <trkpt lat="44.45585" lon="1.01967">
        <ele>155.87</ele>
        <time>2014-10-04T14:25:08Z</time>
      </trkpt>
      <trkpt lat="44.4561" lon="1.02055">
        <ele>154.43</ele>
        <time>2014-10-04T14:25:22Z</time>
      </trkpt>
      <trkpt lat="44.45612" lon="1.02068">
        <ele>154.43</ele>
        <time>2014-10-04T14:25:24Z</time>
      </trkpt>
      <trkpt lat="44.45625" lon="1.02118">
        <ele>155.87</ele>
        <time>2014-10-04T14:25:36Z</time>
      </trkpt>
      <trkpt lat="44.45625" lon="1.02128">
        <ele>155.39</ele>
        <time>2014-10-04T14:25:38Z</time>
      </trkpt>
      <trkpt lat="44.45623" lon="1.02134">
        <ele>155.39</ele>
        <time>2014-10-04T14:25:39Z</time>
      </trkpt>
      <trkpt lat="44.4562" lon="1.02139">
        <ele>154.91</ele>
        <time>2014-10-04T14:25:40Z</time>
      </trkpt>
      <trkpt lat="44.45616" lon="1.02143">
        <ele>153.95</ele>
        <time>2014-10-04T14:25:41Z</time>
      </trkpt>
      <trkpt lat="44.45611" lon="1.02145">
        <ele>153.47</ele>
        <time>2014-10-04T14:25:42Z</time>
      </trkpt>
      <trkpt lat="44.45605" lon="1.02145">
        <ele>153.47</ele>
        <time>2014-10-04T14:25:43Z</time>
      </trkpt>
      <trkpt lat="44.45594" lon="1.02141">
        <ele>152.99</ele>
        <time>2014-10-04T14:25:45Z</time>
      </trkpt>
      <trkpt lat="44.45569" lon="1.02144">
        <ele>152.03</ele>
        <time>2014-10-04T14:25:49Z</time>
      </trkpt>
      <trkpt lat="44.45553" lon="1.0215">
        <ele>152.03</ele>
        <time>2014-10-04T14:25:52Z</time>
      </trkpt>
      <trkpt lat="44.45503" lon="1.0217">
        <ele>154.91</ele>
        <time>2014-10-04T14:26:06Z</time>
      </trkpt>
      <trkpt lat="44.45453" lon="1.02204">
        <ele>157.31</ele>
        <time>2014-10-04T14:26:23Z</time>
      </trkpt>
      <trkpt lat="44.45403" lon="1.02247">
        <ele>159.24</ele>
        <time>2014-10-04T14:26:40Z</time>
      </trkpt>
      <trkpt lat="44.45369" lon="1.0228">
        <ele>159.72</ele>
        <time>2014-10-04T14:26:52Z</time>
      </trkpt>
      <trkpt lat="44.45327" lon="1.0231">
        <ele>158.75</ele>
        <time>2014-10-04T14:27:05Z</time>
      </trkpt>
      <trkpt lat="44.45323" lon="1.02312">
        <ele>159.24</ele>
        <time>2014-10-04T14:27:06Z</time>
      </trkpt>
      <trkpt lat="44.45307" lon="1.02318">
        <ele>159.24</ele>
        <time>2014-10-04T14:27:10Z</time>
      </trkpt>
      <trkpt lat="44.45236" lon="1.02351">
        <ele>162.12</ele>
        <time>2014-10-04T14:27:28Z</time>
      </trkpt>
      <trkpt lat="44.45171" lon="1.02373">
        <ele>163.56</ele>
        <time>2014-10-04T14:27:44Z</time>
      </trkpt>
      <trkpt lat="44.45131" lon="1.02419">
        <ele>166.93</ele>
        <time>2014-10-04T14:27:57Z</time>
      </trkpt>
      <trkpt lat="44.45118" lon="1.02442">
        <ele>167.89</ele>
        <time>2014-10-04T14:28:02Z</time>
      </trkpt>
      <trkpt lat="44.451" lon="1.0244">
        <ele>167.89</ele>
        <time>2014-10-04T14:28:07Z</time>
      </trkpt>
      <trkpt lat="44.45085" lon="1.02418">
        <ele>167.89</ele>
        <time>2014-10-04T14:28:12Z</time>
      </trkpt>
      <trkpt lat="44.45043" lon="1.02381">
        <ele>169.81</ele>
        <time>2014-10-04T14:28:25Z</time>
      </trkpt>
      <trkpt lat="44.45007" lon="1.02326">
        <ele>170.77</ele>
        <time>2014-10-04T14:28:38Z</time>
      </trkpt>
      <trkpt lat="44.44968" lon="1.02278">
        <ele>171.25</ele>
        <time>2014-10-04T14:28:51Z</time>
      </trkpt>
      <trkpt lat="44.44943" lon="1.02233">
        <ele>173.17</ele>
        <time>2014-10-04T14:29:02Z</time>
      </trkpt>
      <trkpt lat="44.44926" lon="1.02187">
        <ele>172.21</ele>
        <time>2014-10-04T14:29:12Z</time>
      </trkpt>
      <trkpt lat="44.44876" lon="1.02163">
        <ele>173.17</ele>
        <time>2014-10-04T14:29:26Z</time>
      </trkpt>
      <trkpt lat="44.44825" lon="1.02155">
        <ele>173.66</ele>
        <time>2014-10-04T14:29:40Z</time>
      </trkpt>
      <trkpt lat="44.4477" lon="1.02155">
        <ele>174.62</ele>
        <time>2014-10-04T14:29:55Z</time>
      </trkpt>
      <trkpt lat="44.44726" lon="1.0214">
        <ele>175.58</ele>
        <time>2014-10-04T14:30:08Z</time>
      </trkpt>
      <trkpt lat="44.44689" lon="1.02122">
        <ele>178.46</ele>
        <time>2014-10-04T14:30:20Z</time>
      </trkpt>
      <trkpt lat="44.44678" lon="1.02119">
        <ele>179.42</ele>
        <time>2014-10-04T14:30:23Z</time>
      </trkpt>
      <trkpt lat="44.44622" lon="1.02125">
        <ele>180.87</ele>
        <time>2014-10-04T14:30:37Z</time>
      </trkpt>
      <trkpt lat="44.44585" lon="1.0212">
        <ele>183.75</ele>
        <time>2014-10-04T14:30:47Z</time>
      </trkpt>
      <trkpt lat="44.44544" lon="1.02103">
        <ele>185.19</ele>
        <time>2014-10-04T14:30:58Z</time>
      </trkpt>
      <trkpt lat="44.44521" lon="1.02093">
        <ele>185.67</ele>
        <time>2014-10-04T14:31:04Z</time>
      </trkpt>
      <trkpt lat="44.44513" lon="1.02068">
        <ele>185.67</ele>
        <time>2014-10-04T14:31:09Z</time>
      </trkpt>
      <trkpt lat="44.44505" lon="1.02022">
        <ele>184.71</ele>
        <time>2014-10-04T14:31:20Z</time>
      </trkpt>
      <trkpt lat="44.44491" lon="1.02004">
        <ele>183.75</ele>
        <time>2014-10-04T14:31:31Z</time>
      </trkpt>
      <trkpt lat="44.44487" lon="1.01998">
        <ele>183.27</ele>
        <time>2014-10-04T14:31:34Z</time>
      </trkpt>
      <trkpt lat="44.44469" lon="1.01966">
        <ele>189.04</ele>
        <time>2014-10-04T14:31:49Z</time>
      </trkpt>
      <trkpt lat="44.44453" lon="1.01947">
        <ele>190.96</ele>
        <time>2014-10-04T14:32:00Z</time>
      </trkpt>
      <trkpt lat="44.44442" lon="1.01937">
        <ele>192.4</ele>
        <time>2014-10-04T14:32:06Z</time>
      </trkpt>
      <trkpt lat="44.44411" lon="1.01895">
        <ele>194.8</ele>
        <time>2014-10-04T14:32:17Z</time>
      </trkpt>
      <trkpt lat="44.44395" lon="1.0188">
        <ele>195.28</ele>
        <time>2014-10-04T14:32:21Z</time>
      </trkpt>
      <trkpt lat="44.44368" lon="1.01881">
        <ele>197.69</ele>
        <time>2014-10-04T14:32:29Z</time>
      </trkpt>
      <trkpt lat="44.44352" lon="1.01895">
        <ele>201.53</ele>
        <time>2014-10-04T14:32:40Z</time>
      </trkpt>
      <trkpt lat="44.4433" lon="1.0191">
        <ele>205.38</ele>
        <time>2014-10-04T14:32:53Z</time>
      </trkpt>
      <trkpt lat="44.44327" lon="1.01912">
        <ele>205.86</ele>
        <time>2014-10-04T14:32:55Z</time>
      </trkpt>
      <trkpt lat="44.44312" lon="1.01944">
        <ele>210.19</ele>
        <time>2014-10-04T14:33:09Z</time>
      </trkpt>
      <trkpt lat="44.44308" lon="1.01951">
        <ele>210.67</ele>
        <time>2014-10-04T14:33:15Z</time>
      </trkpt>
      <trkpt lat="44.44305" lon="1.01951">
        <ele>211.15</ele>
        <time>2014-10-04T14:33:18Z</time>
      </trkpt>
      <trkpt lat="44.443" lon="1.01954">
        <ele>211.63</ele>
        <time>2014-10-04T14:33:23Z</time>
      </trkpt>
      <trkpt lat="44.4429" lon="1.01954">
        <ele>212.11</ele>
        <time>2014-10-04T14:33:31Z</time>
      </trkpt>
      <trkpt lat="44.44266" lon="1.0195">
        <ele>212.59</ele>
        <time>2014-10-04T14:33:46Z</time>
      </trkpt>
      <trkpt lat="44.44244" lon="1.01944">
        <ele>214.51</ele>
        <time>2014-10-04T14:34:00Z</time>
      </trkpt>
      <trkpt lat="44.44241" lon="1.01942">
        <ele>214.51</ele>
        <time>2014-10-04T14:34:02Z</time>
      </trkpt>
      <trkpt lat="44.44241" lon="1.01935">
        <ele>214.03</ele>
        <time>2014-10-04T14:34:07Z</time>
      </trkpt>
      <trkpt lat="44.44236" lon="1.01913">
        <ele>212.11</ele>
        <time>2014-10-04T14:34:24Z</time>
      </trkpt>
      <trkpt lat="44.44236" lon="1.0191">
        <ele>212.11</ele>
        <time>2014-10-04T14:34:26Z</time>
      </trkpt>
      <trkpt lat="44.44226" lon="1.01882">
        <ele>212.59</ele>
        <time>2014-10-04T14:34:43Z</time>
      </trkpt>
      <trkpt lat="44.44222" lon="1.01872">
        <ele>212.59</ele>
        <time>2014-10-04T14:34:49Z</time>
      </trkpt>
      <trkpt lat="44.44218" lon="1.01866">
        <ele>212.59</ele>
        <time>2014-10-04T14:34:53Z</time>
      </trkpt>
      <trkpt lat="44.44213" lon="1.01857">
        <ele>212.11</ele>
        <time>2014-10-04T14:35:06Z</time>
      </trkpt>
      <trkpt lat="44.44212" lon="1.01856">
        <ele>212.11</ele>
        <time>2014-10-04T14:35:22Z</time>
      </trkpt>
      <trkpt lat="44.44211" lon="1.01856">
        <ele>212.11</ele>
        <time>2014-10-04T14:35:40Z</time>
      </trkpt>
      <trkpt lat="44.44211" lon="1.01856">
        <ele>211.63</ele>
        <time>2014-10-04T14:35:56Z</time>
      </trkpt>
      <trkpt lat="44.44211" lon="1.01855">
        <ele>211.15</ele>
        <time>2014-10-04T14:36:23Z</time>
      </trkpt>
      <trkpt lat="44.44211" lon="1.01856">
        <ele>210.67</ele>
        <time>2014-10-04T14:36:44Z</time>
      </trkpt>
      <trkpt lat="44.44211" lon="1.01855">
        <ele>209.7</ele>
        <time>2014-10-04T14:37:08Z</time>
      </trkpt>
      <trkpt lat="44.44212" lon="1.01856">
        <ele>209.7</ele>
        <time>2014-10-04T14:37:30Z</time>
      </trkpt>
      <trkpt lat="44.44212" lon="1.01856">
        <ele>210.19</ele>
        <time>2014-10-04T14:37:52Z</time>
      </trkpt>
      <trkpt lat="44.44213" lon="1.01855">
        <ele>210.67</ele>
        <time>2014-10-04T14:38:20Z</time>
      </trkpt>
      <trkpt lat="44.44213" lon="1.01855">
        <ele>210.67</ele>
        <time>2014-10-04T14:38:39Z</time>
      </trkpt>
      <trkpt lat="44.44202" lon="1.01834">
        <ele>211.15</ele>
        <time>2014-10-04T14:38:50Z</time>
      </trkpt>
      <trkpt lat="44.442" lon="1.01829">
        <ele>210.67</ele>
        <time>2014-10-04T14:38:51Z</time>
      </trkpt>
      <trkpt lat="44.44198" lon="1.01823">
        <ele>210.67</ele>
        <time>2014-10-04T14:38:52Z</time>
      </trkpt>
      <trkpt lat="44.44196" lon="1.01817">
        <ele>210.67</ele>
        <time>2014-10-04T14:38:53Z</time>
      </trkpt>
      <trkpt lat="44.44194" lon="1.0181">
        <ele>210.19</ele>
        <time>2014-10-04T14:38:54Z</time>
      </trkpt>
      <trkpt lat="44.44193" lon="1.01803">
        <ele>210.19</ele>
        <time>2014-10-04T14:38:55Z</time>
      </trkpt>
      <trkpt lat="44.44192" lon="1.01796">
        <ele>209.7</ele>
        <time>2014-10-04T14:38:56Z</time>
      </trkpt>
      <trkpt lat="44.44192" lon="1.01789">
        <ele>209.7</ele>
        <time>2014-10-04T14:38:57Z</time>
      </trkpt>
      <trkpt lat="44.44192" lon="1.01783">
        <ele>209.7</ele>
        <time>2014-10-04T14:38:58Z</time>
      </trkpt>
      <trkpt lat="44.4419" lon="1.01708">
        <ele>211.63</ele>
        <time>2014-10-04T14:39:12Z</time>
      </trkpt>
      <trkpt lat="44.44185" lon="1.01625">
        <ele>215.47</ele>
        <time>2014-10-04T14:39:28Z</time>
      </trkpt>
      <trkpt lat="44.44161" lon="1.01577">
        <ele>217.88</ele>
        <time>2014-10-04T14:39:40Z</time>
      </trkpt>
      <trkpt lat="44.44158" lon="1.01578">
        <ele>217.88</ele>
        <time>2014-10-04T14:39:41Z</time>
      </trkpt>
      <trkpt lat="44.44156" lon="1.01579">
        <ele>218.36</ele>
        <time>2014-10-04T14:39:42Z</time>
      </trkpt>
      <trkpt lat="44.44155" lon="1.01581">
        <ele>218.36</ele>
        <time>2014-10-04T14:39:43Z</time>
      </trkpt>
      <trkpt lat="44.44153" lon="1.01581">
        <ele>217.88</ele>
        <time>2014-10-04T14:39:44Z</time>
      </trkpt>
      <trkpt lat="44.44153" lon="1.01583">
        <ele>217.88</ele>
        <time>2014-10-04T14:39:45Z</time>
      </trkpt>
      <trkpt lat="44.44152" lon="1.01584">
        <ele>217.88</ele>
        <time>2014-10-04T14:39:46Z</time>
      </trkpt>
      <trkpt lat="44.44151" lon="1.01585">
        <ele>218.36</ele>
        <time>2014-10-04T14:39:47Z</time>
      </trkpt>
      <trkpt lat="44.44149" lon="1.01585">
        <ele>218.36</ele>
        <time>2014-10-04T14:39:48Z</time>
      </trkpt>
      <trkpt lat="44.44145" lon="1.01588">
        <ele>218.36</ele>
        <time>2014-10-04T14:39:51Z</time>
      </trkpt>
      <trkpt lat="44.44144" lon="1.01589">
        <ele>218.36</ele>
        <time>2014-10-04T14:39:52Z</time>
      </trkpt>
      <trkpt lat="44.44142" lon="1.0159">
        <ele>218.36</ele>
        <time>2014-10-04T14:39:53Z</time>
      </trkpt>
      <trkpt lat="44.4414" lon="1.01592">
        <ele>218.36</ele>
        <time>2014-10-04T14:39:54Z</time>
      </trkpt>
      <trkpt lat="44.44138" lon="1.01593">
        <ele>218.36</ele>
        <time>2014-10-04T14:39:55Z</time>
      </trkpt>
      <trkpt lat="44.44137" lon="1.01595">
        <ele>218.36</ele>
        <time>2014-10-04T14:39:56Z</time>
      </trkpt>
      <trkpt lat="44.44135" lon="1.01597">
        <ele>218.84</ele>
        <time>2014-10-04T14:39:57Z</time>
      </trkpt>
      <trkpt lat="44.44108" lon="1.0162">
        <ele>220.28</ele>
        <time>2014-10-04T14:40:11Z</time>
      </trkpt>
      <trkpt lat="44.44078" lon="1.01655">
        <ele>221.72</ele>
        <time>2014-10-04T14:40:28Z</time>
      </trkpt>
      <trkpt lat="44.44053" lon="1.01699">
        <ele>223.64</ele>
        <time>2014-10-04T14:40:44Z</time>
      </trkpt>
      <trkpt lat="44.44014" lon="1.01762">
        <ele>224.61</ele>
        <time>2014-10-04T14:41:03Z</time>
      </trkpt>
      <trkpt lat="44.43965" lon="1.01824">
        <ele>226.53</ele>
        <time>2014-10-04T14:41:23Z</time>
      </trkpt>
      <trkpt lat="44.43937" lon="1.01864">
        <ele>227.01</ele>
        <time>2014-10-04T14:41:35Z</time>
      </trkpt>
      <trkpt lat="44.43899" lon="1.01915">
        <ele>227.01</ele>
        <time>2014-10-04T14:41:48Z</time>
      </trkpt>
      <trkpt lat="44.43832" lon="1.0198">
        <ele>225.09</ele>
        <time>2014-10-04T14:42:06Z</time>
      </trkpt>
      <trkpt lat="44.43778" lon="1.02052">
        <ele>224.61</ele>
        <time>2014-10-04T14:42:22Z</time>
      </trkpt>
      <trkpt lat="44.43724" lon="1.02127">
        <ele>226.05</ele>
        <time>2014-10-04T14:42:40Z</time>
      </trkpt>
      <trkpt lat="44.4369" lon="1.02144">
        <ele>224.61</ele>
        <time>2014-10-04T14:42:53Z</time>
      </trkpt>
      <trkpt lat="44.43688" lon="1.02144">
        <ele>224.61</ele>
        <time>2014-10-04T14:42:54Z</time>
      </trkpt>
      <trkpt lat="44.43689" lon="1.02146">
        <ele>224.61</ele>
        <time>2014-10-04T14:43:01Z</time>
      </trkpt>
      <trkpt lat="44.4369" lon="1.02145">
        <ele>224.61</ele>
        <time>2014-10-04T14:43:02Z</time>
      </trkpt>
      <trkpt lat="44.43692" lon="1.02145">
        <ele>225.09</ele>
        <time>2014-10-04T14:43:03Z</time>
      </trkpt>
      <trkpt lat="44.43694" lon="1.02144">
        <ele>225.09</ele>
        <time>2014-10-04T14:43:04Z</time>
      </trkpt>
      <trkpt lat="44.43696" lon="1.02143">
        <ele>225.09</ele>
        <time>2014-10-04T14:43:05Z</time>
      </trkpt>
      <trkpt lat="44.43706" lon="1.02141">
        <ele>226.05</ele>
        <time>2014-10-04T14:43:09Z</time>
      </trkpt>
      <trkpt lat="44.43708" lon="1.02144">
        <ele>226.53</ele>
        <time>2014-10-04T14:43:10Z</time>
      </trkpt>
      <trkpt lat="44.43709" lon="1.02147">
        <ele>227.01</ele>
        <time>2014-10-04T14:43:11Z</time>
      </trkpt>
      <trkpt lat="44.43708" lon="1.02151">
        <ele>227.49</ele>
        <time>2014-10-04T14:43:12Z</time>
      </trkpt>
      <trkpt lat="44.43707" lon="1.02154">
        <ele>227.49</ele>
        <time>2014-10-04T14:43:13Z</time>
      </trkpt>
      <trkpt lat="44.43689" lon="1.02213">
        <ele>229.89</ele>
        <time>2014-10-04T14:43:28Z</time>
      </trkpt>
      <trkpt lat="44.4367" lon="1.02283">
        <ele>234.22</ele>
        <time>2014-10-04T14:43:43Z</time>
      </trkpt>
      <trkpt lat="44.43646" lon="1.02368">
        <ele>237.1</ele>
        <time>2014-10-04T14:44:01Z</time>
      </trkpt>
      <trkpt lat="44.43621" lon="1.0242">
        <ele>239.02</ele>
        <time>2014-10-04T14:44:14Z</time>
      </trkpt>
      <trkpt lat="44.43618" lon="1.0242">
        <ele>239.51</ele>
        <time>2014-10-04T14:44:15Z</time>
      </trkpt>
      <trkpt lat="44.43615" lon="1.02419">
        <ele>239.51</ele>
        <time>2014-10-04T14:44:16Z</time>
      </trkpt>
      <trkpt lat="44.43613" lon="1.02418">
        <ele>239.99</ele>
        <time>2014-10-04T14:44:17Z</time>
      </trkpt>
      <trkpt lat="44.4361" lon="1.02417">
        <ele>239.99</ele>
        <time>2014-10-04T14:44:18Z</time>
      </trkpt>
      <trkpt lat="44.43607" lon="1.02415">
        <ele>239.99</ele>
        <time>2014-10-04T14:44:19Z</time>
      </trkpt>
      <trkpt lat="44.43581" lon="1.0241">
        <ele>240.95</ele>
        <time>2014-10-04T14:44:29Z</time>
      </trkpt>
      <trkpt lat="44.43555" lon="1.02453">
        <ele>243.35</ele>
        <time>2014-10-04T14:44:42Z</time>
      </trkpt>
      <trkpt lat="44.43527" lon="1.025">
        <ele>244.79</ele>
        <time>2014-10-04T14:44:53Z</time>
      </trkpt>
      <trkpt lat="44.43516" lon="1.02512">
        <ele>244.79</ele>
        <time>2014-10-04T14:44:56Z</time>
      </trkpt>
      <trkpt lat="44.43513" lon="1.02515">
        <ele>244.79</ele>
        <time>2014-10-04T14:44:57Z</time>
      </trkpt>
      <trkpt lat="44.43497" lon="1.02527">
        <ele>244.31</ele>
        <time>2014-10-04T14:45:01Z</time>
      </trkpt>
      <trkpt lat="44.43454" lon="1.02552">
        <ele>242.39</ele>
        <time>2014-10-04T14:45:11Z</time>
      </trkpt>
      <trkpt lat="44.43447" lon="1.02561">
        <ele>242.39</ele>
        <time>2014-10-04T14:45:13Z</time>
      </trkpt>
      <trkpt lat="44.43387" lon="1.02621">
        <ele>239.99</ele>
        <time>2014-10-04T14:45:28Z</time>
      </trkpt>
      <trkpt lat="44.43366" lon="1.02637">
        <ele>239.02</ele>
        <time>2014-10-04T14:45:33Z</time>
      </trkpt>
      <trkpt lat="44.4332" lon="1.02678">
        <ele>237.1</ele>
        <time>2014-10-04T14:45:47Z</time>
      </trkpt>
      <trkpt lat="44.43315" lon="1.02677">
        <ele>236.62</ele>
        <time>2014-10-04T14:45:49Z</time>
      </trkpt>
      <trkpt lat="44.43313" lon="1.02675">
        <ele>236.62</ele>
        <time>2014-10-04T14:45:50Z</time>
      </trkpt>
      <trkpt lat="44.43312" lon="1.02672">
        <ele>236.62</ele>
        <time>2014-10-04T14:45:51Z</time>
      </trkpt>
      <trkpt lat="44.43281" lon="1.02663">
        <ele>236.62</ele>
        <time>2014-10-04T14:46:03Z</time>
      </trkpt>
      <trkpt lat="44.43258" lon="1.02659">
        <ele>236.62</ele>
        <time>2014-10-04T14:46:09Z</time>
      </trkpt>
      <trkpt lat="44.43245" lon="1.02659">
        <ele>236.62</ele>
        <time>2014-10-04T14:46:12Z</time>
      </trkpt>
      <trkpt lat="44.43241" lon="1.0266">
        <ele>236.14</ele>
        <time>2014-10-04T14:46:13Z</time>
      </trkpt>
      <trkpt lat="44.43236" lon="1.02661">
        <ele>236.14</ele>
        <time>2014-10-04T14:46:14Z</time>
      </trkpt>
      <trkpt lat="44.43232" lon="1.02664">
        <ele>236.14</ele>
        <time>2014-10-04T14:46:15Z</time>
      </trkpt>
      <trkpt lat="44.43227" lon="1.02668">
        <ele>236.14</ele>
        <time>2014-10-04T14:46:16Z</time>
      </trkpt>
      <trkpt lat="44.43223" lon="1.02672">
        <ele>236.14</ele>
        <time>2014-10-04T14:46:17Z</time>
      </trkpt>
      <trkpt lat="44.43175" lon="1.02714">
        <ele>238.06</ele>
        <time>2014-10-04T14:46:31Z</time>
      </trkpt>
      <trkpt lat="44.43125" lon="1.02731">
        <ele>240.47</ele>
        <time>2014-10-04T14:46:45Z</time>
      </trkpt>
      <trkpt lat="44.43117" lon="1.02732">
        <ele>240.47</ele>
        <time>2014-10-04T14:46:47Z</time>
      </trkpt>
      <trkpt lat="44.43113" lon="1.02732">
        <ele>240.47</ele>
        <time>2014-10-04T14:46:48Z</time>
      </trkpt>
      <trkpt lat="44.43089" lon="1.02734">
        <ele>240.47</ele>
        <time>2014-10-04T14:46:54Z</time>
      </trkpt>
      <trkpt lat="44.43077" lon="1.02735">
        <ele>240.95</ele>
        <time>2014-10-04T14:46:57Z</time>
      </trkpt>
      <trkpt lat="44.43073" lon="1.02736">
        <ele>240.95</ele>
        <time>2014-10-04T14:46:58Z</time>
      </trkpt>
      <trkpt lat="44.43018" lon="1.02739">
        <ele>242.87</ele>
        <time>2014-10-04T14:47:11Z</time>
      </trkpt>
      <trkpt lat="44.42953" lon="1.02744">
        <ele>244.31</ele>
        <time>2014-10-04T14:47:26Z</time>
      </trkpt>
      <trkpt lat="44.42898" lon="1.02773">
        <ele>246.23</ele>
        <time>2014-10-04T14:47:41Z</time>
      </trkpt>
      <trkpt lat="44.42859" lon="1.02795">
        <ele>246.72</ele>
        <time>2014-10-04T14:47:53Z</time>
      </trkpt>
      <trkpt lat="44.42854" lon="1.02795">
        <ele>246.23</ele>
        <time>2014-10-04T14:47:54Z</time>
      </trkpt>
      <trkpt lat="44.4285" lon="1.02792">
        <ele>246.23</ele>
        <time>2014-10-04T14:47:55Z</time>
      </trkpt>
      <trkpt lat="44.42847" lon="1.02788">
        <ele>245.75</ele>
        <time>2014-10-04T14:47:56Z</time>
      </trkpt>
      <trkpt lat="44.42844" lon="1.02783">
        <ele>245.27</ele>
        <time>2014-10-04T14:47:57Z</time>
      </trkpt>
      <trkpt lat="44.42842" lon="1.02779">
        <ele>244.79</ele>
        <time>2014-10-04T14:47:58Z</time>
      </trkpt>
      <trkpt lat="44.42839" lon="1.02775">
        <ele>244.31</ele>
        <time>2014-10-04T14:47:59Z</time>
      </trkpt>
      <trkpt lat="44.42835" lon="1.02772">
        <ele>243.83</ele>
        <time>2014-10-04T14:48:00Z</time>
      </trkpt>
      <trkpt lat="44.42832" lon="1.02772">
        <ele>243.35</ele>
        <time>2014-10-04T14:48:01Z</time>
      </trkpt>
      <trkpt lat="44.42828" lon="1.02774">
        <ele>242.87</ele>
        <time>2014-10-04T14:48:02Z</time>
      </trkpt>
      <trkpt lat="44.42826" lon="1.02779">
        <ele>242.39</ele>
        <time>2014-10-04T14:48:03Z</time>
      </trkpt>
      <trkpt lat="44.42824" lon="1.02783">
        <ele>242.39</ele>
        <time>2014-10-04T14:48:04Z</time>
      </trkpt>
      <trkpt lat="44.42823" lon="1.02788">
        <ele>241.91</ele>
        <time>2014-10-04T14:48:05Z</time>
      </trkpt>
      <trkpt lat="44.42822" lon="1.02792">
        <ele>241.91</ele>
        <time>2014-10-04T14:48:06Z</time>
      </trkpt>
      <trkpt lat="44.4282" lon="1.02796">
        <ele>241.91</ele>
        <time>2014-10-04T14:48:07Z</time>
      </trkpt>
      <trkpt lat="44.42819" lon="1.02801">
        <ele>241.43</ele>
        <time>2014-10-04T14:48:08Z</time>
      </trkpt>
      <trkpt lat="44.42786" lon="1.02874">
        <ele>239.99</ele>
        <time>2014-10-04T14:48:24Z</time>
      </trkpt>
      <trkpt lat="44.42736" lon="1.02967">
        <ele>238.54</ele>
        <time>2014-10-04T14:48:42Z</time>
      </trkpt>
      <trkpt lat="44.42686" lon="1.03061">
        <ele>237.1</ele>
        <time>2014-10-04T14:48:58Z</time>
      </trkpt>
      <trkpt lat="44.42632" lon="1.03161">
        <ele>239.99</ele>
        <time>2014-10-04T14:49:16Z</time>
      </trkpt>
      <trkpt lat="44.42574" lon="1.03272">
        <ele>241.91</ele>
        <time>2014-10-04T14:49:37Z</time>
      </trkpt>
      <trkpt lat="44.42518" lon="1.03376">
        <ele>244.31</ele>
        <time>2014-10-04T14:49:56Z</time>
      </trkpt>
      <trkpt lat="44.42506" lon="1.03398">
        <ele>244.31</ele>
        <time>2014-10-04T14:50:00Z</time>
      </trkpt>
      <trkpt lat="44.42465" lon="1.03476">
        <ele>244.31</ele>
        <time>2014-10-04T14:50:14Z</time>
      </trkpt>
      <trkpt lat="44.42462" lon="1.03481">
        <ele>244.31</ele>
        <time>2014-10-04T14:50:15Z</time>
      </trkpt>
      <trkpt lat="44.42422" lon="1.03555">
        <ele>243.83</ele>
        <time>2014-10-04T14:50:27Z</time>
      </trkpt>
      <trkpt lat="44.42412" lon="1.03565">
        <ele>243.35</ele>
        <time>2014-10-04T14:50:29Z</time>
      </trkpt>
      <trkpt lat="44.42407" lon="1.0357">
        <ele>242.87</ele>
        <time>2014-10-04T14:50:30Z</time>
      </trkpt>
      <trkpt lat="44.42389" lon="1.03578">
        <ele>242.39</ele>
        <time>2014-10-04T14:50:33Z</time>
      </trkpt>
      <trkpt lat="44.42383" lon="1.0358">
        <ele>242.39</ele>
        <time>2014-10-04T14:50:34Z</time>
      </trkpt>
      <trkpt lat="44.42377" lon="1.0358">
        <ele>241.91</ele>
        <time>2014-10-04T14:50:35Z</time>
      </trkpt>
      <trkpt lat="44.42285" lon="1.03579">
        <ele>239.99</ele>
        <time>2014-10-04T14:50:50Z</time>
      </trkpt>
      <trkpt lat="44.4223" lon="1.03582">
        <ele>242.39</ele>
        <time>2014-10-04T14:51:01Z</time>
      </trkpt>
      <trkpt lat="44.42166" lon="1.03625">
        <ele>245.27</ele>
        <time>2014-10-04T14:51:16Z</time>
      </trkpt>
      <trkpt lat="44.42142" lon="1.03657">
        <ele>246.72</ele>
        <time>2014-10-04T14:51:23Z</time>
      </trkpt>
      <trkpt lat="44.42139" lon="1.03661">
        <ele>246.72</ele>
        <time>2014-10-04T14:51:24Z</time>
      </trkpt>
      <trkpt lat="44.42118" lon="1.03685">
        <ele>245.27</ele>
        <time>2014-10-04T14:51:35Z</time>
      </trkpt>
      <trkpt lat="44.42116" lon="1.03685">
        <ele>244.79</ele>
        <time>2014-10-04T14:51:49Z</time>
      </trkpt>
      <trkpt lat="44.42116" lon="1.03682">
        <ele>243.35</ele>
        <time>2014-10-04T14:52:08Z</time>
      </trkpt>
      <trkpt lat="44.42116" lon="1.03679">
        <ele>243.83</ele>
        <time>2014-10-04T14:52:43Z</time>
      </trkpt>
      <trkpt lat="44.42116" lon="1.03677">
        <ele>245.27</ele>
        <time>2014-10-04T14:53:22Z</time>
      </trkpt>
      <trkpt lat="44.42114" lon="1.03678">
        <ele>244.31</ele>
        <time>2014-10-04T14:53:53Z</time>
      </trkpt>
      <trkpt lat="44.42114" lon="1.03679">
        <ele>244.31</ele>
        <time>2014-10-04T14:54:31Z</time>
      </trkpt>
      <trkpt lat="44.42115" lon="1.03678">
        <ele>244.31</ele>
        <time>2014-10-04T14:54:53Z</time>
      </trkpt>
      <trkpt lat="44.42115" lon="1.03678">
        <ele>242.87</ele>
        <time>2014-10-04T14:55:24Z</time>
      </trkpt>
      <trkpt lat="44.42115" lon="1.03679">
        <ele>240.95</ele>
        <time>2014-10-04T14:55:53Z</time>
      </trkpt>
      <trkpt lat="44.42114" lon="1.03679">
        <ele>239.51</ele>
        <time>2014-10-04T14:56:32Z</time>
      </trkpt>
      <trkpt lat="44.42114" lon="1.03679">
        <ele>239.99</ele>
        <time>2014-10-04T14:57:05Z</time>
      </trkpt>
      <trkpt lat="44.42113" lon="1.03679">
        <ele>239.99</ele>
        <time>2014-10-04T14:57:33Z</time>
      </trkpt>
      <trkpt lat="44.42113" lon="1.03678">
        <ele>239.51</ele>
        <time>2014-10-04T14:58:04Z</time>
      </trkpt>
      <trkpt lat="44.42113" lon="1.03678">
        <ele>239.02</ele>
        <time>2014-10-04T14:58:34Z</time>
      </trkpt>
      <trkpt lat="44.42113" lon="1.03679">
        <ele>238.06</ele>
        <time>2014-10-04T14:59:02Z</time>
      </trkpt>
      <trkpt lat="44.42113" lon="1.0368">
        <ele>238.06</ele>
        <time>2014-10-04T14:59:31Z</time>
      </trkpt>
      <trkpt lat="44.42113" lon="1.0368">
        <ele>237.58</ele>
        <time>2014-10-04T15:00:07Z</time>
      </trkpt>
      <trkpt lat="44.42114" lon="1.03678">
        <ele>237.58</ele>
        <time>2014-10-04T15:00:28Z</time>
      </trkpt>
      <trkpt lat="44.42113" lon="1.03678">
        <ele>238.06</ele>
        <time>2014-10-04T15:00:53Z</time>
      </trkpt>
      <trkpt lat="44.42113" lon="1.03679">
        <ele>239.02</ele>
        <time>2014-10-04T15:01:25Z</time>
      </trkpt>
      <trkpt lat="44.42113" lon="1.0368">
        <ele>238.54</ele>
        <time>2014-10-04T15:01:52Z</time>
      </trkpt>
      <trkpt lat="44.42114" lon="1.03682">
        <ele>237.58</ele>
        <time>2014-10-04T15:02:25Z</time>
      </trkpt>
      <trkpt lat="44.42115" lon="1.03681">
        <ele>238.06</ele>
        <time>2014-10-04T15:02:59Z</time>
      </trkpt>
      <trkpt lat="44.42112" lon="1.03678">
        <ele>239.51</ele>
        <time>2014-10-04T15:03:35Z</time>
      </trkpt>
      <trkpt lat="44.42113" lon="1.03676">
        <ele>239.51</ele>
        <time>2014-10-04T15:04:14Z</time>
      </trkpt>
      <trkpt lat="44.42113" lon="1.03676">
        <ele>241.43</ele>
        <time>2014-10-04T15:04:46Z</time>
      </trkpt>
      <trkpt lat="44.42113" lon="1.03679">
        <ele>242.87</ele>
        <time>2014-10-04T15:05:14Z</time>
      </trkpt>
      <trkpt lat="44.42112" lon="1.03683">
        <ele>242.87</ele>
        <time>2014-10-04T15:05:29Z</time>
      </trkpt>
      <trkpt lat="44.4211" lon="1.03688">
        <ele>243.83</ele>
        <time>2014-10-04T15:05:43Z</time>
      </trkpt>
      <trkpt lat="44.4211" lon="1.0369">
        <ele>245.27</ele>
        <time>2014-10-04T15:06:06Z</time>
      </trkpt>
      <trkpt lat="44.42094" lon="1.03708">
        <ele>246.72</ele>
        <time>2014-10-04T15:06:16Z</time>
      </trkpt>
      <trkpt lat="44.42064" lon="1.03744">
        <ele>250.08</ele>
        <time>2014-10-04T15:06:28Z</time>
      </trkpt>
      <trkpt lat="44.42034" lon="1.03784">
        <ele>251.52</ele>
        <time>2014-10-04T15:06:39Z</time>
      </trkpt>
      <trkpt lat="44.42026" lon="1.03796">
        <ele>251.04</ele>
        <time>2014-10-04T15:06:42Z</time>
      </trkpt>
      <trkpt lat="44.41993" lon="1.03838">
        <ele>250.08</ele>
        <time>2014-10-04T15:06:54Z</time>
      </trkpt>
      <trkpt lat="44.41991" lon="1.03838">
        <ele>249.6</ele>
        <time>2014-10-04T15:06:55Z</time>
      </trkpt>
      <trkpt lat="44.41989" lon="1.03839">
        <ele>249.6</ele>
        <time>2014-10-04T15:06:56Z</time>
      </trkpt>
      <trkpt lat="44.41986" lon="1.03839">
        <ele>249.6</ele>
        <time>2014-10-04T15:06:57Z</time>
      </trkpt>
      <trkpt lat="44.41954" lon="1.03828">
        <ele>246.23</ele>
        <time>2014-10-04T15:07:09Z</time>
      </trkpt>
      <trkpt lat="44.4195" lon="1.03824">
        <ele>246.23</ele>
        <time>2014-10-04T15:07:10Z</time>
      </trkpt>
      <trkpt lat="44.41929" lon="1.03802">
        <ele>243.35</ele>
        <time>2014-10-04T15:07:15Z</time>
      </trkpt>
      <trkpt lat="44.41916" lon="1.03787">
        <ele>241.43</ele>
        <time>2014-10-04T15:07:18Z</time>
      </trkpt>
      <trkpt lat="44.41907" lon="1.03781">
        <ele>239.99</ele>
        <time>2014-10-04T15:07:20Z</time>
      </trkpt>
      <trkpt lat="44.4189" lon="1.03752">
        <ele>237.1</ele>
        <time>2014-10-04T15:07:25Z</time>
      </trkpt>
      <trkpt lat="44.41881" lon="1.0373">
        <ele>235.18</ele>
        <time>2014-10-04T15:07:28Z</time>
      </trkpt>
      <trkpt lat="44.41857" lon="1.03709">
        <ele>232.3</ele>
        <time>2014-10-04T15:07:33Z</time>
      </trkpt>
      <trkpt lat="44.41847" lon="1.03701">
        <ele>230.85</ele>
        <time>2014-10-04T15:07:35Z</time>
      </trkpt>
      <trkpt lat="44.41832" lon="1.03679">
        <ele>228.45</ele>
        <time>2014-10-04T15:07:39Z</time>
      </trkpt>
      <trkpt lat="44.41811" lon="1.03623">
        <ele>223.16</ele>
        <time>2014-10-04T15:07:48Z</time>
      </trkpt>
      <trkpt lat="44.41787" lon="1.03587">
        <ele>218.84</ele>
        <time>2014-10-04T15:07:55Z</time>
      </trkpt>
      <trkpt lat="44.41759" lon="1.03577">
        <ele>215.95</ele>
        <time>2014-10-04T15:08:00Z</time>
      </trkpt>
      <trkpt lat="44.41721" lon="1.03568">
        <ele>213.55</ele>
        <time>2014-10-04T15:08:06Z</time>
      </trkpt>
      <trkpt lat="44.41704" lon="1.03556">
        <ele>211.63</ele>
        <time>2014-10-04T15:08:09Z</time>
      </trkpt>
      <trkpt lat="44.41692" lon="1.03546">
        <ele>210.67</ele>
        <time>2014-10-04T15:08:11Z</time>
      </trkpt>
      <trkpt lat="44.41676" lon="1.03535">
        <ele>209.22</ele>
        <time>2014-10-04T15:08:14Z</time>
      </trkpt>
      <trkpt lat="44.41659" lon="1.03529">
        <ele>208.74</ele>
        <time>2014-10-04T15:08:17Z</time>
      </trkpt>
      <trkpt lat="44.41596" lon="1.03521">
        <ele>207.3</ele>
        <time>2014-10-04T15:08:26Z</time>
      </trkpt>
      <trkpt lat="44.41559" lon="1.03485">
        <ele>202.49</ele>
        <time>2014-10-04T15:08:33Z</time>
      </trkpt>
      <trkpt lat="44.41554" lon="1.03467">
        <ele>200.09</ele>
        <time>2014-10-04T15:08:36Z</time>
      </trkpt>
      <trkpt lat="44.41545" lon="1.03464">
        <ele>193.36</ele>
        <time>2014-10-04T15:08:49Z</time>
      </trkpt>
      <trkpt lat="44.41543" lon="1.03465">
        <ele>191.44</ele>
        <time>2014-10-04T15:09:07Z</time>
      </trkpt>
      <trkpt lat="44.41543" lon="1.03465">
        <ele>190.96</ele>
        <time>2014-10-04T15:09:11Z</time>
      </trkpt>
      <trkpt lat="44.41536" lon="1.03463">
        <ele>190.96</ele>
        <time>2014-10-04T15:09:16Z</time>
      </trkpt>
      <trkpt lat="44.4151" lon="1.0346">
        <ele>193.84</ele>
        <time>2014-10-04T15:09:25Z</time>
      </trkpt>
      <trkpt lat="44.41475" lon="1.03465">
        <ele>197.21</ele>
        <time>2014-10-04T15:09:38Z</time>
      </trkpt>
      <trkpt lat="44.4145" lon="1.03469">
        <ele>197.69</ele>
        <time>2014-10-04T15:09:49Z</time>
      </trkpt>
      <trkpt lat="44.41423" lon="1.03494">
        <ele>198.17</ele>
        <time>2014-10-04T15:10:02Z</time>
      </trkpt>
      <trkpt lat="44.41398" lon="1.03507">
        <ele>199.61</ele>
        <time>2014-10-04T15:10:14Z</time>
      </trkpt>
      <trkpt lat="44.41377" lon="1.03522">
        <ele>202.49</ele>
        <time>2014-10-04T15:10:25Z</time>
      </trkpt>
      <trkpt lat="44.41356" lon="1.03538">
        <ele>204.42</ele>
        <time>2014-10-04T15:10:39Z</time>
      </trkpt>
      <trkpt lat="44.41338" lon="1.03548">
        <ele>206.34</ele>
        <time>2014-10-04T15:10:53Z</time>
      </trkpt>
      <trkpt lat="44.41336" lon="1.03548">
        <ele>206.34</ele>
        <time>2014-10-04T15:10:54Z</time>
      </trkpt>
      <trkpt lat="44.41333" lon="1.03548">
        <ele>206.34</ele>
        <time>2014-10-04T15:10:57Z</time>
      </trkpt>
      <trkpt lat="44.4133" lon="1.03549">
        <ele>206.34</ele>
        <time>2014-10-04T15:10:59Z</time>
      </trkpt>
      <trkpt lat="44.41329" lon="1.0355">
        <ele>206.82</ele>
        <time>2014-10-04T15:11:00Z</time>
      </trkpt>
      <trkpt lat="44.41328" lon="1.03551">
        <ele>206.34</ele>
        <time>2014-10-04T15:11:01Z</time>
      </trkpt>
      <trkpt lat="44.41311" lon="1.03557">
        <ele>207.78</ele>
        <time>2014-10-04T15:11:15Z</time>
      </trkpt>
      <trkpt lat="44.41293" lon="1.03563">
        <ele>209.7</ele>
        <time>2014-10-04T15:11:30Z</time>
      </trkpt>
      <trkpt lat="44.41287" lon="1.03566">
        <ele>211.15</ele>
        <time>2014-10-04T15:11:35Z</time>
      </trkpt>
      <trkpt lat="44.41285" lon="1.03567">
        <ele>211.63</ele>
        <time>2014-10-04T15:11:37Z</time>
      </trkpt>
      <trkpt lat="44.41283" lon="1.03569">
        <ele>211.63</ele>
        <time>2014-10-04T15:11:39Z</time>
      </trkpt>
      <trkpt lat="44.41283" lon="1.0357">
        <ele>212.11</ele>
        <time>2014-10-04T15:11:40Z</time>
      </trkpt>
      <trkpt lat="44.41282" lon="1.03571">
        <ele>212.59</ele>
        <time>2014-10-04T15:11:41Z</time>
      </trkpt>
      <trkpt lat="44.41281" lon="1.03573">
        <ele>213.07</ele>
        <time>2014-10-04T15:11:42Z</time>
      </trkpt>
      <trkpt lat="44.41278" lon="1.03576">
        <ele>214.03</ele>
        <time>2014-10-04T15:11:45Z</time>
      </trkpt>
      <trkpt lat="44.41277" lon="1.03577">
        <ele>214.03</ele>
        <time>2014-10-04T15:11:46Z</time>
      </trkpt>
      <trkpt lat="44.41275" lon="1.03577">
        <ele>214.03</ele>
        <time>2014-10-04T15:11:47Z</time>
      </trkpt>
      <trkpt lat="44.41273" lon="1.03578">
        <ele>214.03</ele>
        <time>2014-10-04T15:11:48Z</time>
      </trkpt>
      <trkpt lat="44.41272" lon="1.03579">
        <ele>214.03</ele>
        <time>2014-10-04T15:11:49Z</time>
      </trkpt>
      <trkpt lat="44.4127" lon="1.0358">
        <ele>213.55</ele>
        <time>2014-10-04T15:11:50Z</time>
      </trkpt>
      <trkpt lat="44.41261" lon="1.03585">
        <ele>214.51</ele>
        <time>2014-10-04T15:11:57Z</time>
      </trkpt>
      <trkpt lat="44.41246" lon="1.03591">
        <ele>216.43</ele>
        <time>2014-10-04T15:12:10Z</time>
      </trkpt>
      <trkpt lat="44.41226" lon="1.03601">
        <ele>218.36</ele>
        <time>2014-10-04T15:12:23Z</time>
      </trkpt>
      <trkpt lat="44.41197" lon="1.03616">
        <ele>219.8</ele>
        <time>2014-10-04T15:12:38Z</time>
      </trkpt>
      <trkpt lat="44.41171" lon="1.0364">
        <ele>223.64</ele>
        <time>2014-10-04T15:12:53Z</time>
      </trkpt>
      <trkpt lat="44.41153" lon="1.03656">
        <ele>225.57</ele>
        <time>2014-10-04T15:13:06Z</time>
      </trkpt>
      <trkpt lat="44.41146" lon="1.03662">
        <ele>225.09</ele>
        <time>2014-10-04T15:13:20Z</time>
      </trkpt>
      <trkpt lat="44.41144" lon="1.03662">
        <ele>223.16</ele>
        <time>2014-10-04T15:13:38Z</time>
      </trkpt>
      <trkpt lat="44.41137" lon="1.03663">
        <ele>220.28</ele>
        <time>2014-10-04T15:13:54Z</time>
      </trkpt>
      <trkpt lat="44.41136" lon="1.03663">
        <ele>220.28</ele>
        <time>2014-10-04T15:13:55Z</time>
      </trkpt>
      <trkpt lat="44.41112" lon="1.03664">
        <ele>221.72</ele>
        <time>2014-10-04T15:14:04Z</time>
      </trkpt>
      <trkpt lat="44.41107" lon="1.03665">
        <ele>222.2</ele>
        <time>2014-10-04T15:14:05Z</time>
      </trkpt>
      <trkpt lat="44.41102" lon="1.03667">
        <ele>222.68</ele>
        <time>2014-10-04T15:14:06Z</time>
      </trkpt>
      <trkpt lat="44.41052" lon="1.03682">
        <ele>223.64</ele>
        <time>2014-10-04T15:14:17Z</time>
      </trkpt>
      <trkpt lat="44.41048" lon="1.03685">
        <ele>224.12</ele>
        <time>2014-10-04T15:14:18Z</time>
      </trkpt>
      <trkpt lat="44.41032" lon="1.03697">
        <ele>223.16</ele>
        <time>2014-10-04T15:14:21Z</time>
      </trkpt>
      <trkpt lat="44.4102" lon="1.03704">
        <ele>222.2</ele>
        <time>2014-10-04T15:14:23Z</time>
      </trkpt>
      <trkpt lat="44.40996" lon="1.03722">
        <ele>220.28</ele>
        <time>2014-10-04T15:14:27Z</time>
      </trkpt>
      <trkpt lat="44.40992" lon="1.03727">
        <ele>219.8</ele>
        <time>2014-10-04T15:14:28Z</time>
      </trkpt>
      <trkpt lat="44.40987" lon="1.03732">
        <ele>218.36</ele>
        <time>2014-10-04T15:14:30Z</time>
      </trkpt>
      <trkpt lat="44.40984" lon="1.03733">
        <ele>216.91</ele>
        <time>2014-10-04T15:14:31Z</time>
      </trkpt>
      <trkpt lat="44.40982" lon="1.03732">
        <ele>215.95</ele>
        <time>2014-10-04T15:14:32Z</time>
      </trkpt>
      <trkpt lat="44.40957" lon="1.03708">
        <ele>209.7</ele>
        <time>2014-10-04T15:14:45Z</time>
      </trkpt>
      <trkpt lat="44.40949" lon="1.03683">
        <ele>213.55</ele>
        <time>2014-10-04T15:14:58Z</time>
      </trkpt>
      <trkpt lat="44.40935" lon="1.03646">
        <ele>212.59</ele>
        <time>2014-10-04T15:15:12Z</time>
      </trkpt>
      <trkpt lat="44.40907" lon="1.03617">
        <ele>212.59</ele>
        <time>2014-10-04T15:15:26Z</time>
      </trkpt>
      <trkpt lat="44.40878" lon="1.03588">
        <ele>213.55</ele>
        <time>2014-10-04T15:15:41Z</time>
      </trkpt>
      <trkpt lat="44.40848" lon="1.0356">
        <ele>213.07</ele>
        <time>2014-10-04T15:15:56Z</time>
      </trkpt>
      <trkpt lat="44.40804" lon="1.03536">
        <ele>207.78</ele>
        <time>2014-10-04T15:16:07Z</time>
      </trkpt>
      <trkpt lat="44.40752" lon="1.03502">
        <ele>206.34</ele>
        <time>2014-10-04T15:16:20Z</time>
      </trkpt>
      <trkpt lat="44.40727" lon="1.03485">
        <ele>207.78</ele>
        <time>2014-10-04T15:16:31Z</time>
      </trkpt>
      <trkpt lat="44.40727" lon="1.03482">
        <ele>207.78</ele>
        <time>2014-10-04T15:16:32Z</time>
      </trkpt>
      <trkpt lat="44.40728" lon="1.0348">
        <ele>207.78</ele>
        <time>2014-10-04T15:16:33Z</time>
      </trkpt>
      <trkpt lat="44.40728" lon="1.03477">
        <ele>207.78</ele>
        <time>2014-10-04T15:16:34Z</time>
      </trkpt>
      <trkpt lat="44.40728" lon="1.03473">
        <ele>207.78</ele>
        <time>2014-10-04T15:16:35Z</time>
      </trkpt>
      <trkpt lat="44.40727" lon="1.03405">
        <ele>204.9</ele>
        <time>2014-10-04T15:16:49Z</time>
      </trkpt>
      <trkpt lat="44.40728" lon="1.03299">
        <ele>200.57</ele>
        <time>2014-10-04T15:17:01Z</time>
      </trkpt>
      <trkpt lat="44.40721" lon="1.03223">
        <ele>202.49</ele>
        <time>2014-10-04T15:17:13Z</time>
      </trkpt>
      <trkpt lat="44.40712" lon="1.03102">
        <ele>201.05</ele>
        <time>2014-10-04T15:17:29Z</time>
      </trkpt>
      <trkpt lat="44.40716" lon="1.0301">
        <ele>203.94</ele>
        <time>2014-10-04T15:17:44Z</time>
      </trkpt>
      <trkpt lat="44.40716" lon="1.02994">
        <ele>204.9</ele>
        <time>2014-10-04T15:17:54Z</time>
      </trkpt>
      <trkpt lat="44.40715" lon="1.02992">
        <ele>204.42</ele>
        <time>2014-10-04T15:17:55Z</time>
      </trkpt>
      <trkpt lat="44.40714" lon="1.02988">
        <ele>204.42</ele>
        <time>2014-10-04T15:17:58Z</time>
      </trkpt>
      <trkpt lat="44.40713" lon="1.02986">
        <ele>204.42</ele>
        <time>2014-10-04T15:17:59Z</time>
      </trkpt>
      <trkpt lat="44.40712" lon="1.02985">
        <ele>204.42</ele>
        <time>2014-10-04T15:18:00Z</time>
      </trkpt>
      <trkpt lat="44.40711" lon="1.02983">
        <ele>204.42</ele>
        <time>2014-10-04T15:18:01Z</time>
      </trkpt>
      <trkpt lat="44.40711" lon="1.02981">
        <ele>204.42</ele>
        <time>2014-10-04T15:18:02Z</time>
      </trkpt>
      <trkpt lat="44.4071" lon="1.02979">
        <ele>204.42</ele>
        <time>2014-10-04T15:18:03Z</time>
      </trkpt>
      <trkpt lat="44.40703" lon="1.0295">
        <ele>201.05</ele>
        <time>2014-10-04T15:18:12Z</time>
      </trkpt>
      <trkpt lat="44.40701" lon="1.02945">
        <ele>200.57</ele>
        <time>2014-10-04T15:18:13Z</time>
      </trkpt>
      <trkpt lat="44.407" lon="1.02941">
        <ele>200.09</ele>
        <time>2014-10-04T15:18:14Z</time>
      </trkpt>
      <trkpt lat="44.40675" lon="1.02866">
        <ele>193.84</ele>
        <time>2014-10-04T15:18:24Z</time>
      </trkpt>
      <trkpt lat="44.40629" lon="1.02689">
        <ele>188.08</ele>
        <time>2014-10-04T15:18:42Z</time>
      </trkpt>
      <trkpt lat="44.40596" lon="1.02553">
        <ele>186.63</ele>
        <time>2014-10-04T15:18:59Z</time>
      </trkpt>
      <trkpt lat="44.40587" lon="1.02518">
        <ele>187.59</ele>
        <time>2014-10-04T15:19:10Z</time>
      </trkpt>
      <trkpt lat="44.40587" lon="1.02515">
        <ele>188.08</ele>
        <time>2014-10-04T15:19:12Z</time>
      </trkpt>
      <trkpt lat="44.40588" lon="1.02514">
        <ele>188.56</ele>
        <time>2014-10-04T15:19:13Z</time>
      </trkpt>
      <trkpt lat="44.40588" lon="1.02513">
        <ele>188.08</ele>
        <time>2014-10-04T15:19:27Z</time>
      </trkpt>
      <trkpt lat="44.40587" lon="1.02515">
        <ele>188.08</ele>
        <time>2014-10-04T15:19:29Z</time>
      </trkpt>
      <trkpt lat="44.40586" lon="1.02516">
        <ele>188.56</ele>
        <time>2014-10-04T15:19:30Z</time>
      </trkpt>
      <trkpt lat="44.40585" lon="1.02517">
        <ele>188.56</ele>
        <time>2014-10-04T15:19:31Z</time>
      </trkpt>
      <trkpt lat="44.40583" lon="1.02518">
        <ele>188.56</ele>
        <time>2014-10-04T15:19:32Z</time>
      </trkpt>
      <trkpt lat="44.40581" lon="1.02519">
        <ele>188.56</ele>
        <time>2014-10-04T15:19:33Z</time>
      </trkpt>
      <trkpt lat="44.40579" lon="1.02519">
        <ele>188.08</ele>
        <time>2014-10-04T15:19:34Z</time>
      </trkpt>
      <trkpt lat="44.40578" lon="1.02519">
        <ele>188.08</ele>
        <time>2014-10-04T15:19:35Z</time>
      </trkpt>
      <trkpt lat="44.40576" lon="1.0252">
        <ele>188.08</ele>
        <time>2014-10-04T15:19:36Z</time>
      </trkpt>
      <trkpt lat="44.40575" lon="1.0252">
        <ele>188.08</ele>
        <time>2014-10-04T15:19:37Z</time>
      </trkpt>
      <trkpt lat="44.40573" lon="1.02519">
        <ele>188.08</ele>
        <time>2014-10-04T15:19:38Z</time>
      </trkpt>
      <trkpt lat="44.40572" lon="1.02519">
        <ele>188.08</ele>
        <time>2014-10-04T15:19:39Z</time>
      </trkpt>
      <trkpt lat="44.40571" lon="1.02519">
        <ele>188.56</ele>
        <time>2014-10-04T15:19:40Z</time>
      </trkpt>
      <trkpt lat="44.40569" lon="1.02519">
        <ele>188.56</ele>
        <time>2014-10-04T15:19:41Z</time>
      </trkpt>
      <trkpt lat="44.40568" lon="1.02518">
        <ele>188.08</ele>
        <time>2014-10-04T15:19:42Z</time>
      </trkpt>
      <trkpt lat="44.40565" lon="1.02517">
        <ele>188.08</ele>
        <time>2014-10-04T15:19:43Z</time>
      </trkpt>
      <trkpt lat="44.40563" lon="1.02517">
        <ele>188.08</ele>
        <time>2014-10-04T15:19:44Z</time>
      </trkpt>
      <trkpt lat="44.4056" lon="1.02516">
        <ele>187.59</ele>
        <time>2014-10-04T15:19:45Z</time>
      </trkpt>
      <trkpt lat="44.40515" lon="1.02528">
        <ele>188.56</ele>
        <time>2014-10-04T15:19:55Z</time>
      </trkpt>
      <trkpt lat="44.40487" lon="1.02534">
        <ele>189.04</ele>
        <time>2014-10-04T15:20:00Z</time>
      </trkpt>
      <trkpt lat="44.40482" lon="1.02533">
        <ele>188.56</ele>
        <time>2014-10-04T15:20:01Z</time>
      </trkpt>
      <trkpt lat="44.40478" lon="1.0253">
        <ele>188.08</ele>
        <time>2014-10-04T15:20:02Z</time>
      </trkpt>
      <trkpt lat="44.40475" lon="1.02525">
        <ele>187.11</ele>
        <time>2014-10-04T15:20:03Z</time>
      </trkpt>
      <trkpt lat="44.40473" lon="1.02518">
        <ele>186.63</ele>
        <time>2014-10-04T15:20:04Z</time>
      </trkpt>
      <trkpt lat="44.40473" lon="1.02511">
        <ele>186.15</ele>
        <time>2014-10-04T15:20:05Z</time>
      </trkpt>
      <trkpt lat="44.40473" lon="1.02504">
        <ele>185.67</ele>
        <time>2014-10-04T15:20:06Z</time>
      </trkpt>
      <trkpt lat="44.40475" lon="1.02459">
        <ele>184.23</ele>
        <time>2014-10-04T15:20:10Z</time>
      </trkpt>
      <trkpt lat="44.40474" lon="1.02447">
        <ele>183.75</ele>
        <time>2014-10-04T15:20:11Z</time>
      </trkpt>
      <trkpt lat="44.40473" lon="1.02434">
        <ele>183.75</ele>
        <time>2014-10-04T15:20:12Z</time>
      </trkpt>
      <trkpt lat="44.4047" lon="1.02422">
        <ele>182.79</ele>
        <time>2014-10-04T15:20:13Z</time>
      </trkpt>
      <trkpt lat="44.40465" lon="1.02408">
        <ele>181.83</ele>
        <time>2014-10-04T15:20:14Z</time>
      </trkpt>
      <trkpt lat="44.40459" lon="1.02395">
        <ele>180.87</ele>
        <time>2014-10-04T15:20:15Z</time>
      </trkpt>
      <trkpt lat="44.40453" lon="1.02382">
        <ele>179.9</ele>
        <time>2014-10-04T15:20:16Z</time>
      </trkpt>
      <trkpt lat="44.40403" lon="1.02302">
        <ele>177.02</ele>
        <time>2014-10-04T15:20:26Z</time>
      </trkpt>
      <trkpt lat="44.4037" lon="1.0226">
        <ele>180.38</ele>
        <time>2014-10-04T15:20:39Z</time>
      </trkpt>
      <trkpt lat="44.40343" lon="1.02226">
        <ele>183.75</ele>
        <time>2014-10-04T15:20:55Z</time>
      </trkpt>
      <trkpt lat="44.40343" lon="1.02226">
        <ele>182.79</ele>
        <time>2014-10-04T15:21:05Z</time>
      </trkpt>
      <trkpt lat="44.40345" lon="1.0223">
        <ele>182.31</ele>
        <time>2014-10-04T15:21:07Z</time>
      </trkpt>
      <trkpt lat="44.40347" lon="1.02232">
        <ele>181.83</ele>
        <time>2014-10-04T15:21:08Z</time>
      </trkpt>
      <trkpt lat="44.40349" lon="1.02233">
        <ele>181.83</ele>
        <time>2014-10-04T15:21:09Z</time>
      </trkpt>
      <trkpt lat="44.4035" lon="1.02234">
        <ele>181.35</ele>
        <time>2014-10-04T15:21:10Z</time>
      </trkpt>
      <trkpt lat="44.40351" lon="1.02236">
        <ele>180.87</ele>
        <time>2014-10-04T15:21:11Z</time>
      </trkpt>
      <trkpt lat="44.40352" lon="1.02239">
        <ele>179.42</ele>
        <time>2014-10-04T15:21:21Z</time>
      </trkpt>
      <trkpt lat="44.4035" lon="1.02237">
        <ele>179.42</ele>
        <time>2014-10-04T15:21:23Z</time>
      </trkpt>
      <trkpt lat="44.40331" lon="1.02212">
        <ele>183.27</ele>
        <time>2014-10-04T15:21:36Z</time>
      </trkpt>
      <trkpt lat="44.40321" lon="1.02179">
        <ele>186.63</ele>
        <time>2014-10-04T15:21:49Z</time>
      </trkpt>
      <trkpt lat="44.40336" lon="1.02148">
        <ele>187.11</ele>
        <time>2014-10-04T15:22:01Z</time>
      </trkpt>
      <trkpt lat="44.40345" lon="1.0212">
        <ele>189.04</ele>
        <time>2014-10-04T15:22:13Z</time>
      </trkpt>
      <trkpt lat="44.40345" lon="1.02118">
        <ele>189.52</ele>
        <time>2014-10-04T15:22:14Z</time>
      </trkpt>
      <trkpt lat="44.40345" lon="1.02116">
        <ele>189.52</ele>
        <time>2014-10-04T15:22:15Z</time>
      </trkpt>
      <trkpt lat="44.40344" lon="1.02115">
        <ele>189.52</ele>
        <time>2014-10-04T15:22:16Z</time>
      </trkpt>
      <trkpt lat="44.40343" lon="1.02114">
        <ele>189.52</ele>
        <time>2014-10-04T15:22:17Z</time>
      </trkpt>
      <trkpt lat="44.40343" lon="1.02112">
        <ele>189.52</ele>
        <time>2014-10-04T15:22:18Z</time>
      </trkpt>
      <trkpt lat="44.40342" lon="1.02109">
        <ele>189.52</ele>
        <time>2014-10-04T15:22:19Z</time>
      </trkpt>
      <trkpt lat="44.40341" lon="1.02106">
        <ele>190</ele>
        <time>2014-10-04T15:22:20Z</time>
      </trkpt>
      <trkpt lat="44.40338" lon="1.02096">
        <ele>189.04</ele>
        <time>2014-10-04T15:22:22Z</time>
      </trkpt>
      <trkpt lat="44.40335" lon="1.0209">
        <ele>188.56</ele>
        <time>2014-10-04T15:22:23Z</time>
      </trkpt>
      <trkpt lat="44.40333" lon="1.02083">
        <ele>188.08</ele>
        <time>2014-10-04T15:22:24Z</time>
      </trkpt>
      <trkpt lat="44.40297" lon="1.01985">
        <ele>179.42</ele>
        <time>2014-10-04T15:22:33Z</time>
      </trkpt>
      <trkpt lat="44.40256" lon="1.0188">
        <ele>177.02</ele>
        <time>2014-10-04T15:22:43Z</time>
      </trkpt>
      <trkpt lat="44.40255" lon="1.01871">
        <ele>177.02</ele>
        <time>2014-10-04T15:22:44Z</time>
      </trkpt>
      <trkpt lat="44.40256" lon="1.01753">
        <ele>171.25</ele>
        <time>2014-10-04T15:22:55Z</time>
      </trkpt>
      <trkpt lat="44.40254" lon="1.0174">
        <ele>170.29</ele>
        <time>2014-10-04T15:22:56Z</time>
      </trkpt>
      <trkpt lat="44.40251" lon="1.01726">
        <ele>169.33</ele>
        <time>2014-10-04T15:22:57Z</time>
      </trkpt>
      <trkpt lat="44.40247" lon="1.01714">
        <ele>168.37</ele>
        <time>2014-10-04T15:22:58Z</time>
      </trkpt>
      <trkpt lat="44.40242" lon="1.01701">
        <ele>167.89</ele>
        <time>2014-10-04T15:22:59Z</time>
      </trkpt>
      <trkpt lat="44.4023" lon="1.01665">
        <ele>166.45</ele>
        <time>2014-10-04T15:23:02Z</time>
      </trkpt>
      <trkpt lat="44.40228" lon="1.01653">
        <ele>166.45</ele>
        <time>2014-10-04T15:23:03Z</time>
      </trkpt>
      <trkpt lat="44.40208" lon="1.01583">
        <ele>171.25</ele>
        <time>2014-10-04T15:23:12Z</time>
      </trkpt>
      <trkpt lat="44.40206" lon="1.01573">
        <ele>172.69</ele>
        <time>2014-10-04T15:23:14Z</time>
      </trkpt>
      <trkpt lat="44.40207" lon="1.0157">
        <ele>173.17</ele>
        <time>2014-10-04T15:23:15Z</time>
      </trkpt>
      <trkpt lat="44.40209" lon="1.01568">
        <ele>173.66</ele>
        <time>2014-10-04T15:23:16Z</time>
      </trkpt>
      <trkpt lat="44.40212" lon="1.01569">
        <ele>174.14</ele>
        <time>2014-10-04T15:23:17Z</time>
      </trkpt>
      <trkpt lat="44.40215" lon="1.0157">
        <ele>174.62</ele>
        <time>2014-10-04T15:23:18Z</time>
      </trkpt>
      <trkpt lat="44.40218" lon="1.0157">
        <ele>174.62</ele>
        <time>2014-10-04T15:23:19Z</time>
      </trkpt>
      <trkpt lat="44.40222" lon="1.0157">
        <ele>174.62</ele>
        <time>2014-10-04T15:23:20Z</time>
      </trkpt>
      <trkpt lat="44.40226" lon="1.01569">
        <ele>174.62</ele>
        <time>2014-10-04T15:23:21Z</time>
      </trkpt>
      <trkpt lat="44.4023" lon="1.01568">
        <ele>174.14</ele>
        <time>2014-10-04T15:23:22Z</time>
      </trkpt>
      <trkpt lat="44.40235" lon="1.01566">
        <ele>174.14</ele>
        <time>2014-10-04T15:23:23Z</time>
      </trkpt>
      <trkpt lat="44.40239" lon="1.01564">
        <ele>173.66</ele>
        <time>2014-10-04T15:23:24Z</time>
      </trkpt>
      <trkpt lat="44.4031" lon="1.01531">
        <ele>168.85</ele>
        <time>2014-10-04T15:23:35Z</time>
      </trkpt>
      <trkpt lat="44.40352" lon="1.01516">
        <ele>168.37</ele>
        <time>2014-10-04T15:23:41Z</time>
      </trkpt>
      <trkpt lat="44.40418" lon="1.01478">
        <ele>168.37</ele>
        <time>2014-10-04T15:23:54Z</time>
      </trkpt>
      <trkpt lat="44.40439" lon="1.01466">
        <ele>168.37</ele>
        <time>2014-10-04T15:23:58Z</time>
      </trkpt>
      <trkpt lat="44.40449" lon="1.01461">
        <ele>168.37</ele>
        <time>2014-10-04T15:24:00Z</time>
      </trkpt>
      <trkpt lat="44.40454" lon="1.01459">
        <ele>167.89</ele>
        <time>2014-10-04T15:24:01Z</time>
      </trkpt>
      <trkpt lat="44.40464" lon="1.01454">
        <ele>167.89</ele>
        <time>2014-10-04T15:24:03Z</time>
      </trkpt>
      <trkpt lat="44.40483" lon="1.01445">
        <ele>167.89</ele>
        <time>2014-10-04T15:24:07Z</time>
      </trkpt>
      <trkpt lat="44.405" lon="1.01438">
        <ele>166.93</ele>
        <time>2014-10-04T15:24:11Z</time>
      </trkpt>
      <trkpt lat="44.40518" lon="1.01431">
        <ele>165.96</ele>
        <time>2014-10-04T15:24:15Z</time>
      </trkpt>
      <trkpt lat="44.40555" lon="1.01419">
        <ele>162.12</ele>
        <time>2014-10-04T15:24:24Z</time>
      </trkpt>
      <trkpt lat="44.40574" lon="1.01438">
        <ele>159.24</ele>
        <time>2014-10-04T15:24:32Z</time>
      </trkpt>
      <trkpt lat="44.40584" lon="1.01451">
        <ele>157.79</ele>
        <time>2014-10-04T15:24:36Z</time>
      </trkpt>
      <trkpt lat="44.40644" lon="1.01501">
        <ele>152.03</ele>
        <time>2014-10-04T15:24:49Z</time>
      </trkpt>
      <trkpt lat="44.40677" lon="1.01525">
        <ele>151.54</ele>
        <time>2014-10-04T15:24:57Z</time>
      </trkpt>
      <trkpt lat="44.40709" lon="1.01496">
        <ele>154.43</ele>
        <time>2014-10-04T15:25:11Z</time>
      </trkpt>
      <trkpt lat="44.40749" lon="1.0147">
        <ele>156.83</ele>
        <time>2014-10-04T15:25:26Z</time>
      </trkpt>
      <trkpt lat="44.40751" lon="1.0147">
        <ele>156.83</ele>
        <time>2014-10-04T15:25:27Z</time>
      </trkpt>
      <trkpt lat="44.40759" lon="1.01472">
        <ele>156.83</ele>
        <time>2014-10-04T15:25:30Z</time>
      </trkpt>
      <trkpt lat="44.40767" lon="1.0146">
        <ele>157.79</ele>
        <time>2014-10-04T15:25:36Z</time>
      </trkpt>
      <trkpt lat="44.40778" lon="1.01423">
        <ele>154.91</ele>
        <time>2014-10-04T15:25:46Z</time>
      </trkpt>
      <trkpt lat="44.4077" lon="1.01353">
        <ele>150.1</ele>
        <time>2014-10-04T15:25:55Z</time>
      </trkpt>
      <trkpt lat="44.40768" lon="1.01339">
        <ele>150.1</ele>
        <time>2014-10-04T15:25:57Z</time>
      </trkpt>
      <trkpt lat="44.40753" lon="1.01252">
        <ele>148.66</ele>
        <time>2014-10-04T15:26:12Z</time>
      </trkpt>
      <trkpt lat="44.40732" lon="1.01184">
        <ele>150.1</ele>
        <time>2014-10-04T15:26:27Z</time>
      </trkpt>
      <trkpt lat="44.40712" lon="1.0112">
        <ele>151.06</ele>
        <time>2014-10-04T15:26:41Z</time>
      </trkpt>
      <trkpt lat="44.40692" lon="1.01067">
        <ele>152.03</ele>
        <time>2014-10-04T15:26:54Z</time>
      </trkpt>
      <trkpt lat="44.40678" lon="1.00999">
        <ele>153.47</ele>
        <time>2014-10-04T15:27:07Z</time>
      </trkpt>
      <trkpt lat="44.40682" lon="1.00977">
        <ele>153.95</ele>
        <time>2014-10-04T15:27:11Z</time>
      </trkpt>
      <trkpt lat="44.40684" lon="1.00958">
        <ele>153.95</ele>
        <time>2014-10-04T15:27:14Z</time>
      </trkpt>
      <trkpt lat="44.40687" lon="1.00932">
        <ele>153.47</ele>
        <time>2014-10-04T15:27:18Z</time>
      </trkpt>
      <trkpt lat="44.40688" lon="1.00911">
        <ele>152.99</ele>
        <time>2014-10-04T15:27:21Z</time>
      </trkpt>
      <trkpt lat="44.40684" lon="1.00859">
        <ele>154.91</ele>
        <time>2014-10-04T15:27:33Z</time>
      </trkpt>
      <trkpt lat="44.40682" lon="1.00857">
        <ele>154.43</ele>
        <time>2014-10-04T15:27:50Z</time>
      </trkpt>
      <trkpt lat="44.40683" lon="1.00856">
        <ele>153.47</ele>
        <time>2014-10-04T15:28:11Z</time>
      </trkpt>
      <trkpt lat="44.40684" lon="1.00853">
        <ele>153.95</ele>
        <time>2014-10-04T15:28:14Z</time>
      </trkpt>
      <trkpt lat="44.40682" lon="1.00847">
        <ele>154.43</ele>
        <time>2014-10-04T15:28:16Z</time>
      </trkpt>
      <trkpt lat="44.40676" lon="1.00829">
        <ele>153.95</ele>
        <time>2014-10-04T15:28:20Z</time>
      </trkpt>
      <trkpt lat="44.40676" lon="1.00825">
        <ele>153.47</ele>
        <time>2014-10-04T15:28:21Z</time>
      </trkpt>
      <trkpt lat="44.40679" lon="1.00783">
        <ele>152.03</ele>
        <time>2014-10-04T15:28:30Z</time>
      </trkpt>
      <trkpt lat="44.40701" lon="1.00731">
        <ele>150.1</ele>
        <time>2014-10-04T15:28:38Z</time>
      </trkpt>
      <trkpt lat="44.40702" lon="1.00724">
        <ele>150.1</ele>
        <time>2014-10-04T15:28:39Z</time>
      </trkpt>
      <trkpt lat="44.40701" lon="1.00718">
        <ele>149.62</ele>
        <time>2014-10-04T15:28:40Z</time>
      </trkpt>
      <trkpt lat="44.40699" lon="1.00714">
        <ele>149.62</ele>
        <time>2014-10-04T15:28:41Z</time>
      </trkpt>
      <trkpt lat="44.40696" lon="1.0071">
        <ele>149.62</ele>
        <time>2014-10-04T15:28:42Z</time>
      </trkpt>
      <trkpt lat="44.40693" lon="1.00705">
        <ele>149.14</ele>
        <time>2014-10-04T15:28:43Z</time>
      </trkpt>
      <trkpt lat="44.40687" lon="1.00693">
        <ele>148.66</ele>
        <time>2014-10-04T15:28:45Z</time>
      </trkpt>
      <trkpt lat="44.40684" lon="1.00687">
        <ele>148.18</ele>
        <time>2014-10-04T15:28:46Z</time>
      </trkpt>
      <trkpt lat="44.4068" lon="1.00676">
        <ele>148.18</ele>
        <time>2014-10-04T15:28:48Z</time>
      </trkpt>
      <trkpt lat="44.40679" lon="1.00669">
        <ele>148.18</ele>
        <time>2014-10-04T15:28:49Z</time>
      </trkpt>
      <trkpt lat="44.40678" lon="1.00663">
        <ele>148.18</ele>
        <time>2014-10-04T15:28:50Z</time>
      </trkpt>
      <trkpt lat="44.40677" lon="1.00657">
        <ele>148.18</ele>
        <time>2014-10-04T15:28:51Z</time>
      </trkpt>
      <trkpt lat="44.40677" lon="1.00651">
        <ele>147.7</ele>
        <time>2014-10-04T15:28:52Z</time>
      </trkpt>
      <trkpt lat="44.40676" lon="1.00598">
        <ele>151.54</ele>
        <time>2014-10-04T15:29:04Z</time>
      </trkpt>
      <trkpt lat="44.40677" lon="1.00534">
        <ele>155.87</ele>
        <time>2014-10-04T15:29:17Z</time>
      </trkpt>
      <trkpt lat="44.40675" lon="1.0046">
        <ele>154.43</ele>
        <time>2014-10-04T15:29:30Z</time>
      </trkpt>
      <trkpt lat="44.40674" lon="1.00454">
        <ele>154.43</ele>
        <time>2014-10-04T15:29:31Z</time>
      </trkpt>
      <trkpt lat="44.40672" lon="1.00449">
        <ele>154.43</ele>
        <time>2014-10-04T15:29:32Z</time>
      </trkpt>
      <trkpt lat="44.40643" lon="1.00388">
        <ele>153.95</ele>
        <time>2014-10-04T15:29:44Z</time>
      </trkpt>
      <trkpt lat="44.4064" lon="1.00384">
        <ele>153.95</ele>
        <time>2014-10-04T15:29:45Z</time>
      </trkpt>
      <trkpt lat="44.40638" lon="1.00378">
        <ele>153.47</ele>
        <time>2014-10-04T15:29:46Z</time>
      </trkpt>
      <trkpt lat="44.40636" lon="1.00373">
        <ele>153.47</ele>
        <time>2014-10-04T15:29:47Z</time>
      </trkpt>
      <trkpt lat="44.40634" lon="1.00367">
        <ele>153.47</ele>
        <time>2014-10-04T15:29:48Z</time>
      </trkpt>
      <trkpt lat="44.40608" lon="1.00304">
        <ele>152.99</ele>
        <time>2014-10-04T15:29:59Z</time>
      </trkpt>
      <trkpt lat="44.40606" lon="1.00299">
        <ele>153.47</ele>
        <time>2014-10-04T15:30:00Z</time>
      </trkpt>
      <trkpt lat="44.40584" lon="1.00262">
        <ele>156.35</ele>
        <time>2014-10-04T15:30:11Z</time>
      </trkpt>
      <trkpt lat="44.40554" lon="1.00216">
        <ele>154.43</ele>
        <time>2014-10-04T15:30:22Z</time>
      </trkpt>
      <trkpt lat="44.40546" lon="1.00205">
        <ele>154.43</ele>
        <time>2014-10-04T15:30:24Z</time>
      </trkpt>
      <trkpt lat="44.40496" lon="1.00164">
        <ele>155.87</ele>
        <time>2014-10-04T15:30:36Z</time>
      </trkpt>
      <trkpt lat="44.40492" lon="1.00161">
        <ele>156.35</ele>
        <time>2014-10-04T15:30:37Z</time>
      </trkpt>
      <trkpt lat="44.40488" lon="1.00159">
        <ele>156.35</ele>
        <time>2014-10-04T15:30:38Z</time>
      </trkpt>
      <trkpt lat="44.40414" lon="1.00125">
        <ele>161.16</ele>
        <time>2014-10-04T15:30:57Z</time>
      </trkpt>
      <trkpt lat="44.40359" lon="1.00087">
        <ele>165.48</ele>
        <time>2014-10-04T15:31:13Z</time>
      </trkpt>
      <trkpt lat="44.40306" lon="1.00039">
        <ele>167.89</ele>
        <time>2014-10-04T15:31:29Z</time>
      </trkpt>
      <trkpt lat="44.40286" lon="1.00024">
        <ele>167.89</ele>
        <time>2014-10-04T15:31:34Z</time>
      </trkpt>
      <trkpt lat="44.40283" lon="1.0002">
        <ele>167.89</ele>
        <time>2014-10-04T15:31:35Z</time>
      </trkpt>
      <trkpt lat="44.40248" lon="0.99986">
        <ele>167.41</ele>
        <time>2014-10-04T15:31:44Z</time>
      </trkpt>
      <trkpt lat="44.40218" lon="0.99951">
        <ele>168.37</ele>
        <time>2014-10-04T15:31:56Z</time>
      </trkpt>
      <trkpt lat="44.40199" lon="0.99911">
        <ele>168.37</ele>
        <time>2014-10-04T15:32:09Z</time>
      </trkpt>
      <trkpt lat="44.40186" lon="0.99906">
        <ele>168.37</ele>
        <time>2014-10-04T15:32:18Z</time>
      </trkpt>
      <trkpt lat="44.40186" lon="0.99906">
        <ele>168.37</ele>
        <time>2014-10-04T15:32:36Z</time>
      </trkpt>
      <trkpt lat="44.40175" lon="0.99877">
        <ele>167.89</ele>
        <time>2014-10-04T15:32:44Z</time>
      </trkpt>
      <trkpt lat="44.40173" lon="0.99871">
        <ele>167.89</ele>
        <time>2014-10-04T15:32:45Z</time>
      </trkpt>
      <trkpt lat="44.40153" lon="0.99804">
        <ele>167.89</ele>
        <time>2014-10-04T15:32:56Z</time>
      </trkpt>
      <trkpt lat="44.40149" lon="0.99781">
        <ele>168.37</ele>
        <time>2014-10-04T15:33:00Z</time>
      </trkpt>
      <trkpt lat="44.40148" lon="0.99775">
        <ele>168.37</ele>
        <time>2014-10-04T15:33:01Z</time>
      </trkpt>
      <trkpt lat="44.40149" lon="0.99769">
        <ele>168.37</ele>
        <time>2014-10-04T15:33:02Z</time>
      </trkpt>
      <trkpt lat="44.4015" lon="0.99763">
        <ele>168.85</ele>
        <time>2014-10-04T15:33:03Z</time>
      </trkpt>
      <trkpt lat="44.40152" lon="0.99758">
        <ele>168.85</ele>
        <time>2014-10-04T15:33:04Z</time>
      </trkpt>
      <trkpt lat="44.40155" lon="0.99752">
        <ele>168.85</ele>
        <time>2014-10-04T15:33:05Z</time>
      </trkpt>
      <trkpt lat="44.4016" lon="0.9974">
        <ele>168.85</ele>
        <time>2014-10-04T15:33:07Z</time>
      </trkpt>
      <trkpt lat="44.40162" lon="0.99733">
        <ele>168.37</ele>
        <time>2014-10-04T15:33:08Z</time>
      </trkpt>
      <trkpt lat="44.40162" lon="0.99725">
        <ele>168.37</ele>
        <time>2014-10-04T15:33:09Z</time>
      </trkpt>
      <trkpt lat="44.40161" lon="0.99717">
        <ele>168.37</ele>
        <time>2014-10-04T15:33:10Z</time>
      </trkpt>
      <trkpt lat="44.40159" lon="0.9971">
        <ele>168.37</ele>
        <time>2014-10-04T15:33:11Z</time>
      </trkpt>
      <trkpt lat="44.40156" lon="0.99704">
        <ele>168.85</ele>
        <time>2014-10-04T15:33:12Z</time>
      </trkpt>
      <trkpt lat="44.40152" lon="0.99699">
        <ele>168.85</ele>
        <time>2014-10-04T15:33:13Z</time>
      </trkpt>
      <trkpt lat="44.40148" lon="0.99695">
        <ele>168.85</ele>
        <time>2014-10-04T15:33:14Z</time>
      </trkpt>
      <trkpt lat="44.40144" lon="0.99692">
        <ele>169.33</ele>
        <time>2014-10-04T15:33:15Z</time>
      </trkpt>
      <trkpt lat="44.4013" lon="0.9968">
        <ele>170.77</ele>
        <time>2014-10-04T15:33:20Z</time>
      </trkpt>
      <trkpt lat="44.40128" lon="0.99679">
        <ele>170.77</ele>
        <time>2014-10-04T15:33:21Z</time>
      </trkpt>
      <trkpt lat="44.40127" lon="0.9968">
        <ele>170.77</ele>
        <time>2014-10-04T15:33:22Z</time>
      </trkpt>
      <trkpt lat="44.40125" lon="0.9968">
        <ele>170.77</ele>
        <time>2014-10-04T15:33:23Z</time>
      </trkpt>
      <trkpt lat="44.40124" lon="0.99679">
        <ele>170.77</ele>
        <time>2014-10-04T15:33:24Z</time>
      </trkpt>
      <trkpt lat="44.40122" lon="0.99679">
        <ele>171.25</ele>
        <time>2014-10-04T15:33:25Z</time>
      </trkpt>
      <trkpt lat="44.40121" lon="0.99679">
        <ele>171.25</ele>
        <time>2014-10-04T15:33:26Z</time>
      </trkpt>
      <trkpt lat="44.40119" lon="0.9968">
        <ele>171.73</ele>
        <time>2014-10-04T15:33:27Z</time>
      </trkpt>
      <trkpt lat="44.40117" lon="0.9968">
        <ele>171.73</ele>
        <time>2014-10-04T15:33:28Z</time>
      </trkpt>
      <trkpt lat="44.40116" lon="0.99681">
        <ele>171.73</ele>
        <time>2014-10-04T15:33:29Z</time>
      </trkpt>
      <trkpt lat="44.40114" lon="0.99681">
        <ele>171.73</ele>
        <time>2014-10-04T15:33:30Z</time>
      </trkpt>
      <trkpt lat="44.40107" lon="0.99683">
        <ele>172.21</ele>
        <time>2014-10-04T15:33:39Z</time>
      </trkpt>
      <trkpt lat="44.40108" lon="0.99681">
        <ele>173.17</ele>
        <time>2014-10-04T15:34:04Z</time>
      </trkpt>
      <trkpt lat="44.40109" lon="0.99683">
        <ele>174.62</ele>
        <time>2014-10-04T15:34:30Z</time>
      </trkpt>
      <trkpt lat="44.40109" lon="0.99683">
        <ele>174.14</ele>
        <time>2014-10-04T15:34:58Z</time>
      </trkpt>
      <trkpt lat="44.40109" lon="0.99682">
        <ele>174.14</ele>
        <time>2014-10-04T15:35:22Z</time>
      </trkpt>
      <trkpt lat="44.40109" lon="0.99682">
        <ele>174.14</ele>
        <time>2014-10-04T15:35:46Z</time>
      </trkpt>
      <trkpt lat="44.40109" lon="0.99683">
        <ele>174.62</ele>
        <time>2014-10-04T15:36:18Z</time>
      </trkpt>
      <trkpt lat="44.40111" lon="0.99684">
        <ele>176.54</ele>
        <time>2014-10-04T15:36:49Z</time>
      </trkpt>
      <trkpt lat="44.4011" lon="0.99683">
        <ele>177.02</ele>
        <time>2014-10-04T15:37:13Z</time>
      </trkpt>
      <trkpt lat="44.40109" lon="0.99683">
        <ele>177.02</ele>
        <time>2014-10-04T15:37:36Z</time>
      </trkpt>
      <trkpt lat="44.40112" lon="0.99681">
        <ele>176.06</ele>
        <time>2014-10-04T15:37:48Z</time>
      </trkpt>
      <trkpt lat="44.40112" lon="0.99683">
        <ele>176.06</ele>
        <time>2014-10-04T15:38:02Z</time>
      </trkpt>
      <trkpt lat="44.40107" lon="0.99697">
        <ele>174.62</ele>
        <time>2014-10-04T15:38:12Z</time>
      </trkpt>
      <trkpt lat="44.40107" lon="0.99698">
        <ele>175.1</ele>
        <time>2014-10-04T15:38:29Z</time>
      </trkpt>
      <trkpt lat="44.40107" lon="0.99697">
        <ele>174.14</ele>
        <time>2014-10-04T15:38:55Z</time>
      </trkpt>
      <trkpt lat="44.40107" lon="0.99697">
        <ele>174.62</ele>
        <time>2014-10-04T15:39:21Z</time>
      </trkpt>
      <trkpt lat="44.40107" lon="0.99698">
        <ele>174.62</ele>
        <time>2014-10-04T15:39:49Z</time>
      </trkpt>
      <trkpt lat="44.40105" lon="0.99698">
        <ele>174.14</ele>
        <time>2014-10-04T15:40:01Z</time>
      </trkpt>
      <trkpt lat="44.40103" lon="0.99698">
        <ele>173.17</ele>
        <time>2014-10-04T15:40:16Z</time>
      </trkpt>
      <trkpt lat="44.40102" lon="0.99697">
        <ele>172.69</ele>
        <time>2014-10-04T15:40:42Z</time>
      </trkpt>
      <trkpt lat="44.40103" lon="0.99696">
        <ele>172.21</ele>
        <time>2014-10-04T15:41:02Z</time>
      </trkpt>
      <trkpt lat="44.40103" lon="0.99697">
        <ele>172.21</ele>
        <time>2014-10-04T15:41:24Z</time>
      </trkpt>
      <trkpt lat="44.40105" lon="0.99698">
        <ele>170.77</ele>
        <time>2014-10-04T15:41:59Z</time>
      </trkpt>
      <trkpt lat="44.40106" lon="0.99697">
        <ele>169.33</ele>
        <time>2014-10-04T15:42:32Z</time>
      </trkpt>
      <trkpt lat="44.40106" lon="0.99697">
        <ele>169.33</ele>
        <time>2014-10-04T15:42:53Z</time>
      </trkpt>
      <trkpt lat="44.40106" lon="0.99697">
        <ele>169.33</ele>
        <time>2014-10-04T15:43:29Z</time>
      </trkpt>
      <trkpt lat="44.40107" lon="0.99699">
        <ele>169.81</ele>
        <time>2014-10-04T15:43:51Z</time>
      </trkpt>
      <trkpt lat="44.40107" lon="0.99698">
        <ele>170.29</ele>
        <time>2014-10-04T15:44:15Z</time>
      </trkpt>
      <trkpt lat="44.40107" lon="0.99698">
        <ele>170.77</ele>
        <time>2014-10-04T15:44:18Z</time>
      </trkpt>
      <trkpt lat="44.40109" lon="0.99694">
        <ele>171.25</ele>
        <time>2014-10-04T15:44:32Z</time>
      </trkpt>
      <trkpt lat="44.4011" lon="0.99692">
        <ele>172.21</ele>
        <time>2014-10-04T15:44:45Z</time>
      </trkpt>
      <trkpt lat="44.40113" lon="0.99687">
        <ele>172.69</ele>
        <time>2014-10-04T15:44:49Z</time>
      </trkpt>
      <trkpt lat="44.40125" lon="0.99668">
        <ele>174.14</ele>
        <time>2014-10-04T15:45:02Z</time>
      </trkpt>
      <trkpt lat="44.40126" lon="0.99669">
        <ele>174.62</ele>
        <time>2014-10-04T15:45:23Z</time>
      </trkpt>
      <trkpt lat="44.40129" lon="0.99664">
        <ele>175.1</ele>
        <time>2014-10-04T15:45:26Z</time>
      </trkpt>
      <trkpt lat="44.4013" lon="0.99661">
        <ele>175.1</ele>
        <time>2014-10-04T15:45:27Z</time>
      </trkpt>
      <trkpt lat="44.4013" lon="0.99657">
        <ele>175.1</ele>
        <time>2014-10-04T15:45:28Z</time>
      </trkpt>
      <trkpt lat="44.4013" lon="0.99653">
        <ele>175.1</ele>
        <time>2014-10-04T15:45:29Z</time>
      </trkpt>
      <trkpt lat="44.4013" lon="0.99649">
        <ele>175.1</ele>
        <time>2014-10-04T15:45:30Z</time>
      </trkpt>
      <trkpt lat="44.40132" lon="0.99592">
        <ele>177.02</ele>
        <time>2014-10-04T15:45:43Z</time>
      </trkpt>
      <trkpt lat="44.40154" lon="0.99521">
        <ele>178.46</ele>
        <time>2014-10-04T15:45:58Z</time>
      </trkpt>
      <trkpt lat="44.40188" lon="0.99463">
        <ele>177.02</ele>
        <time>2014-10-04T15:46:11Z</time>
      </trkpt>
      <trkpt lat="44.40225" lon="0.9938">
        <ele>173.17</ele>
        <time>2014-10-04T15:46:23Z</time>
      </trkpt>
      <trkpt lat="44.40228" lon="0.99364">
        <ele>172.69</ele>
        <time>2014-10-04T15:46:25Z</time>
      </trkpt>
      <trkpt lat="44.40229" lon="0.99355">
        <ele>172.21</ele>
        <time>2014-10-04T15:46:26Z</time>
      </trkpt>
      <trkpt lat="44.40229" lon="0.99346">
        <ele>171.73</ele>
        <time>2014-10-04T15:46:27Z</time>
      </trkpt>
      <trkpt lat="44.40227" lon="0.99319">
        <ele>170.77</ele>
        <time>2014-10-04T15:46:30Z</time>
      </trkpt>
      <trkpt lat="44.40225" lon="0.9931">
        <ele>170.29</ele>
        <time>2014-10-04T15:46:31Z</time>
      </trkpt>
      <trkpt lat="44.40223" lon="0.99301">
        <ele>170.29</ele>
        <time>2014-10-04T15:46:32Z</time>
      </trkpt>
      <trkpt lat="44.4022" lon="0.99293">
        <ele>170.29</ele>
        <time>2014-10-04T15:46:33Z</time>
      </trkpt>
      <trkpt lat="44.40217" lon="0.99285">
        <ele>169.81</ele>
        <time>2014-10-04T15:46:34Z</time>
      </trkpt>
      <trkpt lat="44.40213" lon="0.99277">
        <ele>169.33</ele>
        <time>2014-10-04T15:46:35Z</time>
      </trkpt>
      <trkpt lat="44.40209" lon="0.99269">
        <ele>169.33</ele>
        <time>2014-10-04T15:46:36Z</time>
      </trkpt>
      <trkpt lat="44.40204" lon="0.99262">
        <ele>168.85</ele>
        <time>2014-10-04T15:46:37Z</time>
      </trkpt>
      <trkpt lat="44.402" lon="0.99256">
        <ele>168.85</ele>
        <time>2014-10-04T15:46:38Z</time>
      </trkpt>
      <trkpt lat="44.40194" lon="0.9925">
        <ele>168.37</ele>
        <time>2014-10-04T15:46:39Z</time>
      </trkpt>
      <trkpt lat="44.40189" lon="0.99245">
        <ele>167.89</ele>
        <time>2014-10-04T15:46:40Z</time>
      </trkpt>
      <trkpt lat="44.40095" lon="0.99177">
        <ele>163.08</ele>
        <time>2014-10-04T15:46:55Z</time>
      </trkpt>
      <trkpt lat="44.4009" lon="0.9917">
        <ele>163.08</ele>
        <time>2014-10-04T15:46:56Z</time>
      </trkpt>
      <trkpt lat="44.40088" lon="0.99161">
        <ele>163.08</ele>
        <time>2014-10-04T15:46:57Z</time>
      </trkpt>
      <trkpt lat="44.40087" lon="0.99152">
        <ele>163.08</ele>
        <time>2014-10-04T15:46:58Z</time>
      </trkpt>
      <trkpt lat="44.40088" lon="0.99144">
        <ele>163.56</ele>
        <time>2014-10-04T15:46:59Z</time>
      </trkpt>
      <trkpt lat="44.40088" lon="0.99136">
        <ele>164.04</ele>
        <time>2014-10-04T15:47:00Z</time>
      </trkpt>
      <trkpt lat="44.4009" lon="0.99071">
        <ele>163.56</ele>
        <time>2014-10-04T15:47:09Z</time>
      </trkpt>
      <trkpt lat="44.40091" lon="0.99065">
        <ele>163.56</ele>
        <time>2014-10-04T15:47:10Z</time>
      </trkpt>
      <trkpt lat="44.40098" lon="0.99034">
        <ele>164.52</ele>
        <time>2014-10-04T15:47:15Z</time>
      </trkpt>
      <trkpt lat="44.4013" lon="0.9893">
        <ele>164.04</ele>
        <time>2014-10-04T15:47:32Z</time>
      </trkpt>
      <trkpt lat="44.40159" lon="0.9881">
        <ele>163.08</ele>
        <time>2014-10-04T15:47:49Z</time>
      </trkpt>
      <trkpt lat="44.40164" lon="0.98791">
        <ele>162.6</ele>
        <time>2014-10-04T15:47:52Z</time>
      </trkpt>
      <trkpt lat="44.40166" lon="0.98784">
        <ele>162.6</ele>
        <time>2014-10-04T15:47:53Z</time>
      </trkpt>
      <trkpt lat="44.40198" lon="0.98681">
        <ele>162.6</ele>
        <time>2014-10-04T15:48:09Z</time>
      </trkpt>
      <trkpt lat="44.40226" lon="0.98557">
        <ele>163.08</ele>
        <time>2014-10-04T15:48:27Z</time>
      </trkpt>
      <trkpt lat="44.40239" lon="0.98446">
        <ele>162.12</ele>
        <time>2014-10-04T15:48:42Z</time>
      </trkpt>
      <trkpt lat="44.40241" lon="0.98332">
        <ele>162.6</ele>
        <time>2014-10-04T15:48:56Z</time>
      </trkpt>
      <trkpt lat="44.40252" lon="0.9821">
        <ele>164.04</ele>
        <time>2014-10-04T15:49:12Z</time>
      </trkpt>
      <trkpt lat="44.40257" lon="0.98162">
        <ele>165</ele>
        <time>2014-10-04T15:49:19Z</time>
      </trkpt>
      <trkpt lat="44.40258" lon="0.98155">
        <ele>165</ele>
        <time>2014-10-04T15:49:20Z</time>
      </trkpt>
      <trkpt lat="44.40259" lon="0.98141">
        <ele>165</ele>
        <time>2014-10-04T15:49:22Z</time>
      </trkpt>
      <trkpt lat="44.40266" lon="0.98046">
        <ele>166.45</ele>
        <time>2014-10-04T15:49:37Z</time>
      </trkpt>
      <trkpt lat="44.40268" lon="0.98011">
        <ele>166.45</ele>
        <time>2014-10-04T15:49:42Z</time>
      </trkpt>
      <trkpt lat="44.40268" lon="0.98003">
        <ele>166.45</ele>
        <time>2014-10-04T15:49:43Z</time>
      </trkpt>
      <trkpt lat="44.40277" lon="0.9792">
        <ele>166.45</ele>
        <time>2014-10-04T15:49:55Z</time>
      </trkpt>
      <trkpt lat="44.40308" lon="0.97848">
        <ele>168.85</ele>
        <time>2014-10-04T15:50:07Z</time>
      </trkpt>
      <trkpt lat="44.40311" lon="0.97841">
        <ele>168.85</ele>
        <time>2014-10-04T15:50:08Z</time>
      </trkpt>
      <trkpt lat="44.40321" lon="0.97811">
        <ele>169.81</ele>
        <time>2014-10-04T15:50:12Z</time>
      </trkpt>
      <trkpt lat="44.40323" lon="0.97803">
        <ele>170.29</ele>
        <time>2014-10-04T15:50:13Z</time>
      </trkpt>
      <trkpt lat="44.40324" lon="0.97795">
        <ele>170.29</ele>
        <time>2014-10-04T15:50:14Z</time>
      </trkpt>
      <trkpt lat="44.40339" lon="0.97689">
        <ele>168.37</ele>
        <time>2014-10-04T15:50:25Z</time>
      </trkpt>
      <trkpt lat="44.40341" lon="0.97678">
        <ele>167.89</ele>
        <time>2014-10-04T15:50:26Z</time>
      </trkpt>
      <trkpt lat="44.40342" lon="0.97667">
        <ele>166.93</ele>
        <time>2014-10-04T15:50:27Z</time>
      </trkpt>
      <trkpt lat="44.40342" lon="0.97655">
        <ele>165.96</ele>
        <time>2014-10-04T15:50:28Z</time>
      </trkpt>
      <trkpt lat="44.4034" lon="0.97642">
        <ele>165</ele>
        <time>2014-10-04T15:50:29Z</time>
      </trkpt>
      <trkpt lat="44.40339" lon="0.97629">
        <ele>164.04</ele>
        <time>2014-10-04T15:50:30Z</time>
      </trkpt>
      <trkpt lat="44.40309" lon="0.97449">
        <ele>151.06</ele>
        <time>2014-10-04T15:50:43Z</time>
      </trkpt>
      <trkpt lat="44.40298" lon="0.97377">
        <ele>145.3</ele>
        <time>2014-10-04T15:50:51Z</time>
      </trkpt>
      <trkpt lat="44.40299" lon="0.97368">
        <ele>144.34</ele>
        <time>2014-10-04T15:50:55Z</time>
      </trkpt>
      <trkpt lat="44.40301" lon="0.97367">
        <ele>144.34</ele>
        <time>2014-10-04T15:50:56Z</time>
      </trkpt>
      <trkpt lat="44.40303" lon="0.97363">
        <ele>143.37</ele>
        <time>2014-10-04T15:51:08Z</time>
      </trkpt>
      <trkpt lat="44.40303" lon="0.97362">
        <ele>143.85</ele>
        <time>2014-10-04T15:51:32Z</time>
      </trkpt>
      <trkpt lat="44.40302" lon="0.97362">
        <ele>142.89</ele>
        <time>2014-10-04T15:51:49Z</time>
      </trkpt>
      <trkpt lat="44.40302" lon="0.97362">
        <ele>142.41</ele>
        <time>2014-10-04T15:52:12Z</time>
      </trkpt>
      <trkpt lat="44.40302" lon="0.97362">
        <ele>142.41</ele>
        <time>2014-10-04T15:52:39Z</time>
      </trkpt>
      <trkpt lat="44.40307" lon="0.97362">
        <ele>142.41</ele>
        <time>2014-10-04T15:53:00Z</time>
      </trkpt>
      <trkpt lat="44.40346" lon="0.97351">
        <ele>142.89</ele>
        <time>2014-10-04T15:53:11Z</time>
      </trkpt>
      <trkpt lat="44.40361" lon="0.97351">
        <ele>142.89</ele>
        <time>2014-10-04T15:53:15Z</time>
      </trkpt>
      <trkpt lat="44.40366" lon="0.9735">
        <ele>142.41</ele>
        <time>2014-10-04T15:53:16Z</time>
      </trkpt>
      <trkpt lat="44.40371" lon="0.97348">
        <ele>142.41</ele>
        <time>2014-10-04T15:53:17Z</time>
      </trkpt>
      <trkpt lat="44.40377" lon="0.97343">
        <ele>141.93</ele>
        <time>2014-10-04T15:53:18Z</time>
      </trkpt>
      <trkpt lat="44.40383" lon="0.97336">
        <ele>141.45</ele>
        <time>2014-10-04T15:53:19Z</time>
      </trkpt>
      <trkpt lat="44.40388" lon="0.97327">
        <ele>140.49</ele>
        <time>2014-10-04T15:53:20Z</time>
      </trkpt>
      <trkpt lat="44.40393" lon="0.97317">
        <ele>140.01</ele>
        <time>2014-10-04T15:53:21Z</time>
      </trkpt>
      <trkpt lat="44.40399" lon="0.97307">
        <ele>139.53</ele>
        <time>2014-10-04T15:53:22Z</time>
      </trkpt>
      <trkpt lat="44.40476" lon="0.97166">
        <ele>131.36</ele>
        <time>2014-10-04T15:53:35Z</time>
      </trkpt>
      <trkpt lat="44.40482" lon="0.97148">
        <ele>129.92</ele>
        <time>2014-10-04T15:53:37Z</time>
      </trkpt>
      <trkpt lat="44.40482" lon="0.97141">
        <ele>129.43</ele>
        <time>2014-10-04T15:53:38Z</time>
      </trkpt>
      <trkpt lat="44.40481" lon="0.97133">
        <ele>128.95</ele>
        <time>2014-10-04T15:53:39Z</time>
      </trkpt>
      <trkpt lat="44.40476" lon="0.97075">
        <ele>126.07</ele>
        <time>2014-10-04T15:53:46Z</time>
      </trkpt>
      <trkpt lat="44.405" lon="0.97048">
        <ele>122.22</ele>
        <time>2014-10-04T15:53:51Z</time>
      </trkpt>
      <trkpt lat="44.40512" lon="0.97017">
        <ele>121.26</ele>
        <time>2014-10-04T15:53:57Z</time>
      </trkpt>
      <trkpt lat="44.4051" lon="0.96946">
        <ele>125.11</ele>
        <time>2014-10-04T15:54:11Z</time>
      </trkpt>
      <trkpt lat="44.40522" lon="0.96892">
        <ele>128.95</ele>
        <time>2014-10-04T15:54:25Z</time>
      </trkpt>
      <trkpt lat="44.40534" lon="0.96843">
        <ele>133.28</ele>
        <time>2014-10-04T15:54:39Z</time>
      </trkpt>
      <trkpt lat="44.40542" lon="0.96809">
        <ele>137.13</ele>
        <time>2014-10-04T15:54:53Z</time>
      </trkpt>
      <trkpt lat="44.40548" lon="0.96775">
        <ele>140.97</ele>
        <time>2014-10-04T15:55:07Z</time>
      </trkpt>
      <trkpt lat="44.40548" lon="0.96762">
        <ele>142.41</ele>
        <time>2014-10-04T15:55:12Z</time>
      </trkpt>
      <trkpt lat="44.40547" lon="0.96751">
        <ele>142.89</ele>
        <time>2014-10-04T15:55:16Z</time>
      </trkpt>
      <trkpt lat="44.40548" lon="0.967">
        <ele>147.22</ele>
        <time>2014-10-04T15:55:31Z</time>
      </trkpt>
      <trkpt lat="44.40547" lon="0.96645">
        <ele>149.14</ele>
        <time>2014-10-04T15:55:46Z</time>
      </trkpt>
      <trkpt lat="44.40557" lon="0.966">
        <ele>152.51</ele>
        <time>2014-10-04T15:55:57Z</time>
      </trkpt>
      <trkpt lat="44.4058" lon="0.96536">
        <ele>153.47</ele>
        <time>2014-10-04T15:56:12Z</time>
      </trkpt>
      <trkpt lat="44.40594" lon="0.96501">
        <ele>149.62</ele>
        <time>2014-10-04T15:56:24Z</time>
      </trkpt>
      <trkpt lat="44.40594" lon="0.96499">
        <ele>147.22</ele>
        <time>2014-10-04T15:56:40Z</time>
      </trkpt>
      <trkpt lat="44.40594" lon="0.96498">
        <ele>146.74</ele>
        <time>2014-10-04T15:56:57Z</time>
      </trkpt>
      <trkpt lat="44.40595" lon="0.96498">
        <ele>145.78</ele>
        <time>2014-10-04T15:57:15Z</time>
      </trkpt>
      <trkpt lat="44.40594" lon="0.96498">
        <ele>145.3</ele>
        <time>2014-10-04T15:57:36Z</time>
      </trkpt>
      <trkpt lat="44.40598" lon="0.96488">
        <ele>145.78</ele>
        <time>2014-10-04T15:57:53Z</time>
      </trkpt>
      <trkpt lat="44.40614" lon="0.96425">
        <ele>146.26</ele>
        <time>2014-10-04T15:58:06Z</time>
      </trkpt>
      <trkpt lat="44.40626" lon="0.96342">
        <ele>150.58</ele>
        <time>2014-10-04T15:58:23Z</time>
      </trkpt>
      <trkpt lat="44.40628" lon="0.96291">
        <ele>151.54</ele>
        <time>2014-10-04T15:58:33Z</time>
      </trkpt>
      <trkpt lat="44.40635" lon="0.96193">
        <ele>150.1</ele>
        <time>2014-10-04T15:58:48Z</time>
      </trkpt>
      <trkpt lat="44.40646" lon="0.96058">
        <ele>148.18</ele>
        <time>2014-10-04T15:59:05Z</time>
      </trkpt>
      <trkpt lat="44.40668" lon="0.95961">
        <ele>150.1</ele>
        <time>2014-10-04T15:59:19Z</time>
      </trkpt>
      <trkpt lat="44.40675" lon="0.95942">
        <ele>149.62</ele>
        <time>2014-10-04T15:59:22Z</time>
      </trkpt>
      <trkpt lat="44.40704" lon="0.9582">
        <ele>148.18</ele>
        <time>2014-10-04T15:59:37Z</time>
      </trkpt>
      <trkpt lat="44.40754" lon="0.95719">
        <ele>151.06</ele>
        <time>2014-10-04T15:59:53Z</time>
      </trkpt>
      <trkpt lat="44.40773" lon="0.95672">
        <ele>151.54</ele>
        <time>2014-10-04T16:00:01Z</time>
      </trkpt>
      <trkpt lat="44.40775" lon="0.95667">
        <ele>152.03</ele>
        <time>2014-10-04T16:00:02Z</time>
      </trkpt>
      <trkpt lat="44.40778" lon="0.95663">
        <ele>152.03</ele>
        <time>2014-10-04T16:00:03Z</time>
      </trkpt>
      <trkpt lat="44.40808" lon="0.95626">
        <ele>155.39</ele>
        <time>2014-10-04T16:00:16Z</time>
      </trkpt>
      <trkpt lat="44.40841" lon="0.95582">
        <ele>159.72</ele>
        <time>2014-10-04T16:00:31Z</time>
      </trkpt>
      <trkpt lat="44.40871" lon="0.95546">
        <ele>164.04</ele>
        <time>2014-10-04T16:00:46Z</time>
      </trkpt>
      <trkpt lat="44.40892" lon="0.95528">
        <ele>166.45</ele>
        <time>2014-10-04T16:00:59Z</time>
      </trkpt>
      <trkpt lat="44.4091" lon="0.9551">
        <ele>167.41</ele>
        <time>2014-10-04T16:01:13Z</time>
      </trkpt>
      <trkpt lat="44.40935" lon="0.95487">
        <ele>165.48</ele>
        <time>2014-10-04T16:01:26Z</time>
      </trkpt>
      <trkpt lat="44.40968" lon="0.9547">
        <ele>164.52</ele>
        <time>2014-10-04T16:01:35Z</time>
      </trkpt>
      <trkpt lat="44.40988" lon="0.95463">
        <ele>163.56</ele>
        <time>2014-10-04T16:01:39Z</time>
      </trkpt>
      <trkpt lat="44.41042" lon="0.95455">
        <ele>164.04</ele>
        <time>2014-10-04T16:01:53Z</time>
      </trkpt>
      <trkpt lat="44.41085" lon="0.95436">
        <ele>165.96</ele>
        <time>2014-10-04T16:02:06Z</time>
      </trkpt>
      <trkpt lat="44.41127" lon="0.95419">
        <ele>166.93</ele>
        <time>2014-10-04T16:02:18Z</time>
      </trkpt>
      <trkpt lat="44.41165" lon="0.95385">
        <ele>167.41</ele>
        <time>2014-10-04T16:02:30Z</time>
      </trkpt>
      <trkpt lat="44.41191" lon="0.9535">
        <ele>166.45</ele>
        <time>2014-10-04T16:02:39Z</time>
      </trkpt>
      <trkpt lat="44.41226" lon="0.95305">
        <ele>161.16</ele>
        <time>2014-10-04T16:02:48Z</time>
      </trkpt>
      <trkpt lat="44.41236" lon="0.9529">
        <ele>160.2</ele>
        <time>2014-10-04T16:02:50Z</time>
      </trkpt>
      <trkpt lat="44.41272" lon="0.95217">
        <ele>157.31</ele>
        <time>2014-10-04T16:02:59Z</time>
      </trkpt>
      <trkpt lat="44.41276" lon="0.95202">
        <ele>157.31</ele>
        <time>2014-10-04T16:03:01Z</time>
      </trkpt>
      <trkpt lat="44.41295" lon="0.9515">
        <ele>156.83</ele>
        <time>2014-10-04T16:03:13Z</time>
      </trkpt>
      <trkpt lat="44.413" lon="0.95131">
        <ele>156.35</ele>
        <time>2014-10-04T16:03:24Z</time>
      </trkpt>
      <trkpt lat="44.413" lon="0.95131">
        <ele>156.35</ele>
        <time>2014-10-04T16:03:45Z</time>
      </trkpt>
      <trkpt lat="44.41302" lon="0.9513">
        <ele>156.83</ele>
        <time>2014-10-04T16:04:10Z</time>
      </trkpt>
      <trkpt lat="44.41322" lon="0.95089">
        <ele>155.87</ele>
        <time>2014-10-04T16:04:21Z</time>
      </trkpt>
      <trkpt lat="44.41325" lon="0.95084">
        <ele>155.39</ele>
        <time>2014-10-04T16:04:22Z</time>
      </trkpt>
      <trkpt lat="44.41369" lon="0.95037">
        <ele>150.58</ele>
        <time>2014-10-04T16:04:32Z</time>
      </trkpt>
      <trkpt lat="44.41379" lon="0.95028">
        <ele>149.14</ele>
        <time>2014-10-04T16:04:34Z</time>
      </trkpt>
      <trkpt lat="44.41405" lon="0.95001">
        <ele>147.22</ele>
        <time>2014-10-04T16:04:39Z</time>
      </trkpt>
      <trkpt lat="44.41423" lon="0.94975">
        <ele>144.82</ele>
        <time>2014-10-04T16:04:43Z</time>
      </trkpt>
      <trkpt lat="44.41468" lon="0.94856">
        <ele>139.05</ele>
        <time>2014-10-04T16:04:56Z</time>
      </trkpt>
      <trkpt lat="44.41487" lon="0.94807">
        <ele>138.09</ele>
        <time>2014-10-04T16:05:04Z</time>
      </trkpt>
      <trkpt lat="44.41492" lon="0.94788">
        <ele>140.01</ele>
        <time>2014-10-04T16:05:15Z</time>
      </trkpt>
      <trkpt lat="44.41494" lon="0.94787">
        <ele>140.49</ele>
        <time>2014-10-04T16:05:34Z</time>
      </trkpt>
      <trkpt lat="44.41495" lon="0.94787">
        <ele>140.49</ele>
        <time>2014-10-04T16:05:48Z</time>
      </trkpt>
      <trkpt lat="44.41499" lon="0.94772">
        <ele>140.97</ele>
        <time>2014-10-04T16:05:54Z</time>
      </trkpt>
      <trkpt lat="44.41519" lon="0.94726">
        <ele>140.49</ele>
        <time>2014-10-04T16:06:04Z</time>
      </trkpt>
      <trkpt lat="44.41551" lon="0.94644">
        <ele>142.41</ele>
        <time>2014-10-04T16:06:19Z</time>
      </trkpt>
      <trkpt lat="44.4156" lon="0.94604">
        <ele>142.41</ele>
        <time>2014-10-04T16:06:25Z</time>
      </trkpt>
      <trkpt lat="44.41592" lon="0.94481">
        <ele>139.53</ele>
        <time>2014-10-04T16:06:41Z</time>
      </trkpt>
      <trkpt lat="44.41634" lon="0.94372">
        <ele>136.64</ele>
        <time>2014-10-04T16:06:55Z</time>
      </trkpt>
      <trkpt lat="44.41647" lon="0.94346">
        <ele>134.24</ele>
        <time>2014-10-04T16:06:58Z</time>
      </trkpt>
      <trkpt lat="44.41729" lon="0.94197">
        <ele>120.3</ele>
        <time>2014-10-04T16:07:14Z</time>
      </trkpt>
      <trkpt lat="44.41759" lon="0.94135">
        <ele>120.78</ele>
        <time>2014-10-04T16:07:24Z</time>
      </trkpt>
      <trkpt lat="44.41788" lon="0.94078">
        <ele>122.71</ele>
        <time>2014-10-04T16:07:37Z</time>
      </trkpt>
      <trkpt lat="44.41808" lon="0.9404">
        <ele>122.22</ele>
        <time>2014-10-04T16:07:48Z</time>
      </trkpt>
      <trkpt lat="44.41841" lon="0.93994">
        <ele>118.86</ele>
        <time>2014-10-04T16:08:02Z</time>
      </trkpt>
      <trkpt lat="44.41864" lon="0.93958">
        <ele>118.38</ele>
        <time>2014-10-04T16:08:12Z</time>
      </trkpt>
      <trkpt lat="44.41869" lon="0.93936">
        <ele>117.9</ele>
        <time>2014-10-04T16:08:16Z</time>
      </trkpt>
      <trkpt lat="44.41871" lon="0.93923">
        <ele>117.9</ele>
        <time>2014-10-04T16:08:18Z</time>
      </trkpt>
      <trkpt lat="44.41878" lon="0.93896">
        <ele>117.42</ele>
        <time>2014-10-04T16:08:22Z</time>
      </trkpt>
      <trkpt lat="44.41896" lon="0.93846">
        <ele>116.46</ele>
        <time>2014-10-04T16:08:30Z</time>
      </trkpt>
      <trkpt lat="44.4192" lon="0.93743">
        <ele>116.46</ele>
        <time>2014-10-04T16:08:44Z</time>
      </trkpt>
      <trkpt lat="44.41925" lon="0.93693">
        <ele>116.46</ele>
        <time>2014-10-04T16:08:50Z</time>
      </trkpt>
      <trkpt lat="44.41925" lon="0.93658">
        <ele>116.46</ele>
        <time>2014-10-04T16:08:54Z</time>
      </trkpt>
      <trkpt lat="44.41929" lon="0.93612">
        <ele>116.46</ele>
        <time>2014-10-04T16:08:59Z</time>
      </trkpt>
      <trkpt lat="44.41938" lon="0.9358">
        <ele>116.46</ele>
        <time>2014-10-04T16:09:03Z</time>
      </trkpt>
      <trkpt lat="44.41953" lon="0.93544">
        <ele>116.46</ele>
        <time>2014-10-04T16:09:08Z</time>
      </trkpt>
      <trkpt lat="44.42009" lon="0.93439">
        <ele>113.09</ele>
        <time>2014-10-04T16:09:22Z</time>
      </trkpt>
      <trkpt lat="44.42016" lon="0.93424">
        <ele>114.05</ele>
        <time>2014-10-04T16:09:24Z</time>
      </trkpt>
      <trkpt lat="44.42047" lon="0.93358">
        <ele>119.34</ele>
        <time>2014-10-04T16:09:39Z</time>
      </trkpt>
      <trkpt lat="44.42064" lon="0.9332">
        <ele>119.82</ele>
        <time>2014-10-04T16:09:47Z</time>
      </trkpt>
      <trkpt lat="44.421" lon="0.93237">
        <ele>122.71</ele>
        <time>2014-10-04T16:10:04Z</time>
      </trkpt>
      <trkpt lat="44.42133" lon="0.93199">
        <ele>121.26</ele>
        <time>2014-10-04T16:10:15Z</time>
      </trkpt>
      <trkpt lat="44.42162" lon="0.93162">
        <ele>122.71</ele>
        <time>2014-10-04T16:10:25Z</time>
      </trkpt>
      <trkpt lat="44.422" lon="0.93118">
        <ele>126.55</ele>
        <time>2014-10-04T16:10:38Z</time>
      </trkpt>
      <trkpt lat="44.42243" lon="0.93085">
        <ele>129.43</ele>
        <time>2014-10-04T16:10:51Z</time>
      </trkpt>
      <trkpt lat="44.4226" lon="0.93072">
        <ele>129.43</ele>
        <time>2014-10-04T16:10:56Z</time>
      </trkpt>
      <trkpt lat="44.42278" lon="0.93045">
        <ele>128.95</ele>
        <time>2014-10-04T16:11:02Z</time>
      </trkpt>
      <trkpt lat="44.42288" lon="0.93021">
        <ele>127.99</ele>
        <time>2014-10-04T16:11:06Z</time>
      </trkpt>
      <trkpt lat="44.42308" lon="0.92983">
        <ele>127.51</ele>
        <time>2014-10-04T16:11:12Z</time>
      </trkpt>
      <trkpt lat="44.4237" lon="0.9292">
        <ele>124.63</ele>
        <time>2014-10-04T16:11:25Z</time>
      </trkpt>
      <trkpt lat="44.42429" lon="0.9285">
        <ele>123.67</ele>
        <time>2014-10-04T16:11:37Z</time>
      </trkpt>
      <trkpt lat="44.4245" lon="0.9282">
        <ele>121.74</ele>
        <time>2014-10-04T16:11:41Z</time>
      </trkpt>
      <trkpt lat="44.42519" lon="0.92654">
        <ele>119.34</ele>
        <time>2014-10-04T16:11:59Z</time>
      </trkpt>
      <trkpt lat="44.42535" lon="0.92617">
        <ele>118.86</ele>
        <time>2014-10-04T16:12:07Z</time>
      </trkpt>
      <trkpt lat="44.42535" lon="0.92616">
        <ele>118.86</ele>
        <time>2014-10-04T16:12:26Z</time>
      </trkpt>
      <trkpt lat="44.42535" lon="0.92616">
        <ele>118.38</ele>
        <time>2014-10-04T16:12:40Z</time>
      </trkpt>
      <trkpt lat="44.42535" lon="0.92616">
        <ele>118.86</ele>
        <time>2014-10-04T16:13:04Z</time>
      </trkpt>
      <trkpt lat="44.42535" lon="0.92617">
        <ele>118.38</ele>
        <time>2014-10-04T16:13:20Z</time>
      </trkpt>
      <trkpt lat="44.42538" lon="0.92615">
        <ele>118.38</ele>
        <time>2014-10-04T16:13:22Z</time>
      </trkpt>
      <trkpt lat="44.4254" lon="0.92616">
        <ele>118.38</ele>
        <time>2014-10-04T16:13:23Z</time>
      </trkpt>
      <trkpt lat="44.42543" lon="0.92617">
        <ele>118.38</ele>
        <time>2014-10-04T16:13:24Z</time>
      </trkpt>
      <trkpt lat="44.42547" lon="0.92618">
        <ele>118.38</ele>
        <time>2014-10-04T16:13:25Z</time>
      </trkpt>
      <trkpt lat="44.4255" lon="0.9262">
        <ele>118.38</ele>
        <time>2014-10-04T16:13:26Z</time>
      </trkpt>
      <trkpt lat="44.42554" lon="0.9262">
        <ele>118.38</ele>
        <time>2014-10-04T16:13:27Z</time>
      </trkpt>
      <trkpt lat="44.42559" lon="0.9262">
        <ele>117.9</ele>
        <time>2014-10-04T16:13:28Z</time>
      </trkpt>
      <trkpt lat="44.42563" lon="0.9262">
        <ele>117.9</ele>
        <time>2014-10-04T16:13:29Z</time>
      </trkpt>
      <trkpt lat="44.42568" lon="0.9262">
        <ele>117.9</ele>
        <time>2014-10-04T16:13:30Z</time>
      </trkpt>
      <trkpt lat="44.42621" lon="0.92618">
        <ele>115.98</ele>
        <time>2014-10-04T16:13:40Z</time>
      </trkpt>
      <trkpt lat="44.42625" lon="0.92614">
        <ele>115.98</ele>
        <time>2014-10-04T16:13:41Z</time>
      </trkpt>
      <trkpt lat="44.42629" lon="0.92608">
        <ele>115.5</ele>
        <time>2014-10-04T16:13:42Z</time>
      </trkpt>
      <trkpt lat="44.42632" lon="0.92601">
        <ele>115.5</ele>
        <time>2014-10-04T16:13:43Z</time>
      </trkpt>
      <trkpt lat="44.42634" lon="0.92594">
        <ele>115.01</ele>
        <time>2014-10-04T16:13:44Z</time>
      </trkpt>
      <trkpt lat="44.42637" lon="0.92587">
        <ele>115.01</ele>
        <time>2014-10-04T16:13:45Z</time>
      </trkpt>
      <trkpt lat="44.4264" lon="0.9258">
        <ele>114.53</ele>
        <time>2014-10-04T16:13:46Z</time>
      </trkpt>
      <trkpt lat="44.42676" lon="0.92456">
        <ele>113.09</ele>
        <time>2014-10-04T16:14:02Z</time>
      </trkpt>
      <trkpt lat="44.42691" lon="0.9232">
        <ele>109.25</ele>
        <time>2014-10-04T16:14:18Z</time>
      </trkpt>
      <trkpt lat="44.42695" lon="0.92304">
        <ele>108.77</ele>
        <time>2014-10-04T16:14:20Z</time>
      </trkpt>
      <trkpt lat="44.42699" lon="0.92296">
        <ele>108.77</ele>
        <time>2014-10-04T16:14:21Z</time>
      </trkpt>
      <trkpt lat="44.4271" lon="0.92273">
        <ele>108.29</ele>
        <time>2014-10-04T16:14:24Z</time>
      </trkpt>
      <trkpt lat="44.42712" lon="0.92265">
        <ele>108.29</ele>
        <time>2014-10-04T16:14:25Z</time>
      </trkpt>
      <trkpt lat="44.42715" lon="0.92256">
        <ele>108.29</ele>
        <time>2014-10-04T16:14:26Z</time>
      </trkpt>
      <trkpt lat="44.42724" lon="0.92214">
        <ele>107.81</ele>
        <time>2014-10-04T16:14:31Z</time>
      </trkpt>
      <trkpt lat="44.42727" lon="0.92206">
        <ele>108.29</ele>
        <time>2014-10-04T16:14:32Z</time>
      </trkpt>
      <trkpt lat="44.4273" lon="0.92198">
        <ele>108.29</ele>
        <time>2014-10-04T16:14:33Z</time>
      </trkpt>
      <trkpt lat="44.42785" lon="0.92077">
        <ele>109.25</ele>
        <time>2014-10-04T16:14:51Z</time>
      </trkpt>
      <trkpt lat="44.42814" lon="0.92017">
        <ele>110.21</ele>
        <time>2014-10-04T16:15:00Z</time>
      </trkpt>
      <trkpt lat="44.42818" lon="0.92011">
        <ele>110.21</ele>
        <time>2014-10-04T16:15:01Z</time>
      </trkpt>
      <trkpt lat="44.42823" lon="0.92007">
        <ele>110.21</ele>
        <time>2014-10-04T16:15:02Z</time>
      </trkpt>
      <trkpt lat="44.42877" lon="0.91961">
        <ele>111.17</ele>
        <time>2014-10-04T16:15:13Z</time>
      </trkpt>
      <trkpt lat="44.42881" lon="0.91957">
        <ele>111.17</ele>
        <time>2014-10-04T16:15:14Z</time>
      </trkpt>
      <trkpt lat="44.42971" lon="0.91877">
        <ele>111.65</ele>
        <time>2014-10-04T16:15:33Z</time>
      </trkpt>
      <trkpt lat="44.43044" lon="0.91831">
        <ele>114.53</ele>
        <time>2014-10-04T16:15:48Z</time>
      </trkpt>
      <trkpt lat="44.43118" lon="0.91777">
        <ele>115.01</ele>
        <time>2014-10-04T16:16:04Z</time>
      </trkpt>
      <trkpt lat="44.43131" lon="0.91762">
        <ele>114.53</ele>
        <time>2014-10-04T16:16:07Z</time>
      </trkpt>
      <trkpt lat="44.43206" lon="0.91726">
        <ele>113.09</ele>
        <time>2014-10-04T16:16:20Z</time>
      </trkpt>
      <trkpt lat="44.43211" lon="0.91723">
        <ele>113.09</ele>
        <time>2014-10-04T16:16:21Z</time>
      </trkpt>
      <trkpt lat="44.43269" lon="0.91675">
        <ele>114.53</ele>
        <time>2014-10-04T16:16:34Z</time>
      </trkpt>
      <trkpt lat="44.43287" lon="0.91662">
        <ele>113.57</ele>
        <time>2014-10-04T16:16:38Z</time>
      </trkpt>
      <trkpt lat="44.43292" lon="0.9166">
        <ele>113.57</ele>
        <time>2014-10-04T16:16:39Z</time>
      </trkpt>
      <trkpt lat="44.43304" lon="0.91656">
        <ele>112.61</ele>
        <time>2014-10-04T16:16:41Z</time>
      </trkpt>
      <trkpt lat="44.43391" lon="0.91617">
        <ele>108.77</ele>
        <time>2014-10-04T16:16:55Z</time>
      </trkpt>
      <trkpt lat="44.43457" lon="0.91563">
        <ele>108.29</ele>
        <time>2014-10-04T16:17:09Z</time>
      </trkpt>
      <trkpt lat="44.43475" lon="0.91553">
        <ele>109.25</ele>
        <time>2014-10-04T16:17:15Z</time>
      </trkpt>
      <trkpt lat="44.43477" lon="0.91554">
        <ele>109.25</ele>
        <time>2014-10-04T16:17:16Z</time>
      </trkpt>
      <trkpt lat="44.43478" lon="0.91556">
        <ele>109.73</ele>
        <time>2014-10-04T16:17:17Z</time>
      </trkpt>
      <trkpt lat="44.43479" lon="0.91558">
        <ele>109.73</ele>
        <time>2014-10-04T16:17:18Z</time>
      </trkpt>
      <trkpt lat="44.43479" lon="0.9156">
        <ele>109.73</ele>
        <time>2014-10-04T16:17:19Z</time>
      </trkpt>
      <trkpt lat="44.4348" lon="0.91563">
        <ele>109.73</ele>
        <time>2014-10-04T16:17:20Z</time>
      </trkpt>
      <trkpt lat="44.43481" lon="0.91565">
        <ele>109.73</ele>
        <time>2014-10-04T16:17:21Z</time>
      </trkpt>
      <trkpt lat="44.43482" lon="0.91568">
        <ele>109.73</ele>
        <time>2014-10-04T16:17:22Z</time>
      </trkpt>
      <trkpt lat="44.43492" lon="0.91609">
        <ele>110.21</ele>
        <time>2014-10-04T16:17:35Z</time>
      </trkpt>
      <trkpt lat="44.43502" lon="0.91641">
        <ele>110.69</ele>
        <time>2014-10-04T16:17:45Z</time>
      </trkpt>
      <trkpt lat="44.43516" lon="0.91685">
        <ele>112.13</ele>
        <time>2014-10-04T16:17:58Z</time>
      </trkpt>
      <trkpt lat="44.43534" lon="0.9173">
        <ele>113.57</ele>
        <time>2014-10-04T16:18:12Z</time>
      </trkpt>
      <trkpt lat="44.43553" lon="0.91768">
        <ele>115.01</ele>
        <time>2014-10-04T16:18:26Z</time>
      </trkpt>
      <trkpt lat="44.43569" lon="0.91797">
        <ele>116.94</ele>
        <time>2014-10-04T16:18:37Z</time>
      </trkpt>
      <trkpt lat="44.43588" lon="0.91831">
        <ele>118.86</ele>
        <time>2014-10-04T16:18:50Z</time>
      </trkpt>
      <trkpt lat="44.43613" lon="0.9187">
        <ele>120.3</ele>
        <time>2014-10-04T16:19:04Z</time>
      </trkpt>
      <trkpt lat="44.43639" lon="0.9191">
        <ele>119.34</ele>
        <time>2014-10-04T16:19:15Z</time>
      </trkpt>
      <trkpt lat="44.43642" lon="0.91916">
        <ele>118.86</ele>
        <time>2014-10-04T16:19:16Z</time>
      </trkpt>
      <trkpt lat="44.43644" lon="0.91922">
        <ele>118.86</ele>
        <time>2014-10-04T16:19:17Z</time>
      </trkpt>
      <trkpt lat="44.43658" lon="0.91944">
        <ele>119.34</ele>
        <time>2014-10-04T16:19:21Z</time>
      </trkpt>
      <trkpt lat="44.43686" lon="0.91977">
        <ele>123.67</ele>
        <time>2014-10-04T16:19:32Z</time>
      </trkpt>
      <trkpt lat="44.43707" lon="0.91998">
        <ele>130.88</ele>
        <time>2014-10-04T16:19:44Z</time>
      </trkpt>
      <trkpt lat="44.43732" lon="0.92025">
        <ele>133.76</ele>
        <time>2014-10-04T16:19:56Z</time>
      </trkpt>
      <trkpt lat="44.43767" lon="0.92059">
        <ele>133.28</ele>
        <time>2014-10-04T16:20:08Z</time>
      </trkpt>
      <trkpt lat="44.4381" lon="0.92089">
        <ele>130.88</ele>
        <time>2014-10-04T16:20:22Z</time>
      </trkpt>
      <trkpt lat="44.43843" lon="0.92131">
        <ele>128.95</ele>
        <time>2014-10-04T16:20:35Z</time>
      </trkpt>
      <trkpt lat="44.43858" lon="0.92147">
        <ele>127.99</ele>
        <time>2014-10-04T16:20:45Z</time>
      </trkpt>
      <trkpt lat="44.43858" lon="0.92148">
        <ele>127.51</ele>
        <time>2014-10-04T16:21:00Z</time>
      </trkpt>
      <trkpt lat="44.43858" lon="0.92147">
        <ele>127.03</ele>
        <time>2014-10-04T16:21:21Z</time>
      </trkpt>
      <trkpt lat="44.43858" lon="0.92147">
        <ele>127.03</ele>
        <time>2014-10-04T16:21:41Z</time>
      </trkpt>
      <trkpt lat="44.43858" lon="0.92147">
        <ele>127.03</ele>
        <time>2014-10-04T16:21:52Z</time>
      </trkpt>
      <trkpt lat="44.4386" lon="0.92147">
        <ele>127.03</ele>
        <time>2014-10-04T16:21:53Z</time>
      </trkpt>
      <trkpt lat="44.43861" lon="0.92146">
        <ele>127.03</ele>
        <time>2014-10-04T16:21:54Z</time>
      </trkpt>
      <trkpt lat="44.43863" lon="0.92144">
        <ele>127.03</ele>
        <time>2014-10-04T16:21:55Z</time>
      </trkpt>
      <trkpt lat="44.43865" lon="0.92141">
        <ele>127.03</ele>
        <time>2014-10-04T16:21:56Z</time>
      </trkpt>
      <trkpt lat="44.43867" lon="0.92137">
        <ele>127.03</ele>
        <time>2014-10-04T16:21:57Z</time>
      </trkpt>
      <trkpt lat="44.43872" lon="0.92129">
        <ele>126.55</ele>
        <time>2014-10-04T16:21:59Z</time>
      </trkpt>
      <trkpt lat="44.43875" lon="0.92125">
        <ele>126.55</ele>
        <time>2014-10-04T16:22:00Z</time>
      </trkpt>
      <trkpt lat="44.43882" lon="0.92116">
        <ele>126.55</ele>
        <time>2014-10-04T16:22:02Z</time>
      </trkpt>
      <trkpt lat="44.43942" lon="0.92022">
        <ele>123.19</ele>
        <time>2014-10-04T16:22:16Z</time>
      </trkpt>
      <trkpt lat="44.44042" lon="0.9189">
        <ele>116.46</ele>
        <time>2014-10-04T16:22:33Z</time>
      </trkpt>
      <trkpt lat="44.4414" lon="0.91812">
        <ele>113.09</ele>
        <time>2014-10-04T16:22:47Z</time>
      </trkpt>
      <trkpt lat="44.44161" lon="0.91798">
        <ele>112.61</ele>
        <time>2014-10-04T16:22:50Z</time>
      </trkpt>
      <trkpt lat="44.44168" lon="0.91796">
        <ele>112.61</ele>
        <time>2014-10-04T16:22:51Z</time>
      </trkpt>
      <trkpt lat="44.44174" lon="0.91796">
        <ele>112.13</ele>
        <time>2014-10-04T16:22:52Z</time>
      </trkpt>
      <trkpt lat="44.4418" lon="0.91799">
        <ele>112.13</ele>
        <time>2014-10-04T16:22:53Z</time>
      </trkpt>
      <trkpt lat="44.44185" lon="0.91805">
        <ele>111.65</ele>
        <time>2014-10-04T16:22:54Z</time>
      </trkpt>
      <trkpt lat="44.4419" lon="0.91811">
        <ele>111.65</ele>
        <time>2014-10-04T16:22:55Z</time>
      </trkpt>
      <trkpt lat="44.44215" lon="0.91842">
        <ele>111.17</ele>
        <time>2014-10-04T16:23:00Z</time>
      </trkpt>
      <trkpt lat="44.44221" lon="0.91846">
        <ele>111.17</ele>
        <time>2014-10-04T16:23:01Z</time>
      </trkpt>
      <trkpt lat="44.44227" lon="0.91849">
        <ele>111.17</ele>
        <time>2014-10-04T16:23:02Z</time>
      </trkpt>
      <trkpt lat="44.44234" lon="0.91852">
        <ele>111.17</ele>
        <time>2014-10-04T16:23:03Z</time>
      </trkpt>
      <trkpt lat="44.44241" lon="0.91854">
        <ele>111.17</ele>
        <time>2014-10-04T16:23:04Z</time>
      </trkpt>
      <trkpt lat="44.44248" lon="0.91856">
        <ele>111.17</ele>
        <time>2014-10-04T16:23:05Z</time>
      </trkpt>
      <trkpt lat="44.44255" lon="0.91857">
        <ele>111.65</ele>
        <time>2014-10-04T16:23:06Z</time>
      </trkpt>
      <trkpt lat="44.44262" lon="0.91858">
        <ele>111.65</ele>
        <time>2014-10-04T16:23:07Z</time>
      </trkpt>
      <trkpt lat="44.44268" lon="0.91857">
        <ele>111.65</ele>
        <time>2014-10-04T16:23:08Z</time>
      </trkpt>
      <trkpt lat="44.44351" lon="0.91834">
        <ele>110.69</ele>
        <time>2014-10-04T16:23:20Z</time>
      </trkpt>
      <trkpt lat="44.44393" lon="0.91815">
        <ele>110.69</ele>
        <time>2014-10-04T16:23:26Z</time>
      </trkpt>
      <trkpt lat="44.44488" lon="0.91742">
        <ele>110.69</ele>
        <time>2014-10-04T16:23:41Z</time>
      </trkpt>
      <trkpt lat="44.44511" lon="0.91727">
        <ele>110.21</ele>
        <time>2014-10-04T16:23:45Z</time>
      </trkpt>
      <trkpt lat="44.44518" lon="0.91724">
        <ele>110.21</ele>
        <time>2014-10-04T16:23:46Z</time>
      </trkpt>
      <trkpt lat="44.44599" lon="0.91701">
        <ele>107.32</ele>
        <time>2014-10-04T16:23:57Z</time>
      </trkpt>
      <trkpt lat="44.44608" lon="0.91701">
        <ele>106.84</ele>
        <time>2014-10-04T16:23:58Z</time>
      </trkpt>
      <trkpt lat="44.44636" lon="0.91705">
        <ele>104.92</ele>
        <time>2014-10-04T16:24:01Z</time>
      </trkpt>
      <trkpt lat="44.44725" lon="0.9168">
        <ele>95.79</ele>
        <time>2014-10-04T16:24:09Z</time>
      </trkpt>
      <trkpt lat="44.44735" lon="0.91675">
        <ele>94.35</ele>
        <time>2014-10-04T16:24:10Z</time>
      </trkpt>
      <trkpt lat="44.44745" lon="0.91669">
        <ele>93.39</ele>
        <time>2014-10-04T16:24:11Z</time>
      </trkpt>
      <trkpt lat="44.44754" lon="0.9166">
        <ele>91.94</ele>
        <time>2014-10-04T16:24:12Z</time>
      </trkpt>
      <trkpt lat="44.44806" lon="0.91587">
        <ele>81.85</ele>
        <time>2014-10-04T16:24:20Z</time>
      </trkpt>
      <trkpt lat="44.44809" lon="0.91584">
        <ele>80.41</ele>
        <time>2014-10-04T16:24:21Z</time>
      </trkpt>
      <trkpt lat="44.44811" lon="0.91584">
        <ele>79.45</ele>
        <time>2014-10-04T16:24:22Z</time>
      </trkpt>
      <trkpt lat="44.44811" lon="0.91583">
        <ele>77.04</ele>
        <time>2014-10-04T16:24:34Z</time>
      </trkpt>
      <trkpt lat="44.4481" lon="0.91584">
        <ele>77.04</ele>
        <time>2014-10-04T16:24:49Z</time>
      </trkpt>
      <trkpt lat="44.4481" lon="0.91584">
        <ele>76.56</ele>
        <time>2014-10-04T16:25:06Z</time>
      </trkpt>
      <trkpt lat="44.44826" lon="0.91593">
        <ele>77.04</ele>
        <time>2014-10-04T16:25:19Z</time>
      </trkpt>
      <trkpt lat="44.4483" lon="0.91594">
        <ele>77.04</ele>
        <time>2014-10-04T16:25:20Z</time>
      </trkpt>
      <trkpt lat="44.4485" lon="0.91598">
        <ele>75.6</ele>
        <time>2014-10-04T16:25:24Z</time>
      </trkpt>
      <trkpt lat="44.44856" lon="0.91598">
        <ele>75.12</ele>
        <time>2014-10-04T16:25:25Z</time>
      </trkpt>
      <trkpt lat="44.44863" lon="0.91598">
        <ele>75.12</ele>
        <time>2014-10-04T16:25:26Z</time>
      </trkpt>
      <trkpt lat="44.44869" lon="0.91595">
        <ele>74.64</ele>
        <time>2014-10-04T16:25:27Z</time>
      </trkpt>
      <trkpt lat="44.44875" lon="0.91591">
        <ele>74.16</ele>
        <time>2014-10-04T16:25:28Z</time>
      </trkpt>
      <trkpt lat="44.44881" lon="0.91585">
        <ele>73.68</ele>
        <time>2014-10-04T16:25:29Z</time>
      </trkpt>
      <trkpt lat="44.44885" lon="0.91577">
        <ele>73.68</ele>
        <time>2014-10-04T16:25:30Z</time>
      </trkpt>
      <trkpt lat="44.44888" lon="0.91568">
        <ele>73.2</ele>
        <time>2014-10-04T16:25:31Z</time>
      </trkpt>
      <trkpt lat="44.44889" lon="0.91559">
        <ele>73.2</ele>
        <time>2014-10-04T16:25:32Z</time>
      </trkpt>
      <trkpt lat="44.44891" lon="0.91549">
        <ele>72.72</ele>
        <time>2014-10-04T16:25:33Z</time>
      </trkpt>
      <trkpt lat="44.44892" lon="0.9154">
        <ele>72.72</ele>
        <time>2014-10-04T16:25:34Z</time>
      </trkpt>
      <trkpt lat="44.44895" lon="0.91515">
        <ele>72.24</ele>
        <time>2014-10-04T16:25:37Z</time>
      </trkpt>
      <trkpt lat="44.44919" lon="0.9146">
        <ele>72.24</ele>
        <time>2014-10-04T16:25:45Z</time>
      </trkpt>
      <trkpt lat="44.44927" lon="0.9145">
        <ele>72.24</ele>
        <time>2014-10-04T16:25:47Z</time>
      </trkpt>
      <trkpt lat="44.44931" lon="0.91446">
        <ele>72.24</ele>
        <time>2014-10-04T16:25:48Z</time>
      </trkpt>
      <trkpt lat="44.45014" lon="0.91387">
        <ele>71.27</ele>
        <time>2014-10-04T16:26:04Z</time>
      </trkpt>
      <trkpt lat="44.45042" lon="0.91366">
        <ele>73.2</ele>
        <time>2014-10-04T16:26:09Z</time>
      </trkpt>
      <trkpt lat="44.45079" lon="0.91312">
        <ele>73.68</ele>
        <time>2014-10-04T16:26:18Z</time>
      </trkpt>
      <trkpt lat="44.45082" lon="0.91307">
        <ele>73.68</ele>
        <time>2014-10-04T16:26:19Z</time>
      </trkpt>
      <trkpt lat="44.45086" lon="0.91304">
        <ele>73.68</ele>
        <time>2014-10-04T16:26:20Z</time>
      </trkpt>
      <trkpt lat="44.4509" lon="0.91304">
        <ele>73.68</ele>
        <time>2014-10-04T16:26:21Z</time>
      </trkpt>
      <trkpt lat="44.45093" lon="0.91307">
        <ele>73.68</ele>
        <time>2014-10-04T16:26:22Z</time>
      </trkpt>
      <trkpt lat="44.45096" lon="0.91311">
        <ele>74.16</ele>
        <time>2014-10-04T16:26:23Z</time>
      </trkpt>
      <trkpt lat="44.45099" lon="0.91315">
        <ele>74.16</ele>
        <time>2014-10-04T16:26:24Z</time>
      </trkpt>
      <trkpt lat="44.45103" lon="0.9132">
        <ele>74.16</ele>
        <time>2014-10-04T16:26:25Z</time>
      </trkpt>
      <trkpt lat="44.4513" lon="0.9135">
        <ele>76.08</ele>
        <time>2014-10-04T16:26:32Z</time>
      </trkpt>
      <trkpt lat="44.45197" lon="0.91433">
        <ele>76.08</ele>
        <time>2014-10-04T16:26:51Z</time>
      </trkpt>
      <trkpt lat="44.4525" lon="0.91507">
        <ele>76.08</ele>
        <time>2014-10-04T16:27:06Z</time>
      </trkpt>
      <trkpt lat="44.45323" lon="0.9158">
        <ele>76.56</ele>
        <time>2014-10-04T16:27:23Z</time>
      </trkpt>
      <trkpt lat="44.4541" lon="0.91652">
        <ele>77.04</ele>
        <time>2014-10-04T16:27:41Z</time>
      </trkpt>
      <trkpt lat="44.45467" lon="0.91734">
        <ele>74.16</ele>
        <time>2014-10-04T16:27:55Z</time>
      </trkpt>
      <trkpt lat="44.45513" lon="0.91838">
        <ele>73.68</ele>
        <time>2014-10-04T16:28:10Z</time>
      </trkpt>
      <trkpt lat="44.45521" lon="0.91862">
        <ele>74.16</ele>
        <time>2014-10-04T16:28:14Z</time>
      </trkpt>
      <trkpt lat="44.45522" lon="0.91868">
        <ele>74.64</ele>
        <time>2014-10-04T16:28:15Z</time>
      </trkpt>
      <trkpt lat="44.45522" lon="0.91881">
        <ele>74.64</ele>
        <time>2014-10-04T16:28:17Z</time>
      </trkpt>
      <trkpt lat="44.45521" lon="0.91887">
        <ele>74.64</ele>
        <time>2014-10-04T16:28:18Z</time>
      </trkpt>
      <trkpt lat="44.45521" lon="0.91894">
        <ele>74.64</ele>
        <time>2014-10-04T16:28:19Z</time>
      </trkpt>
      <trkpt lat="44.45522" lon="0.919">
        <ele>75.12</ele>
        <time>2014-10-04T16:28:20Z</time>
      </trkpt>
      <trkpt lat="44.45524" lon="0.91905">
        <ele>75.12</ele>
        <time>2014-10-04T16:28:21Z</time>
      </trkpt>
      <trkpt lat="44.45527" lon="0.91909">
        <ele>75.12</ele>
        <time>2014-10-04T16:28:22Z</time>
      </trkpt>
      <trkpt lat="44.45595" lon="0.91975">
        <ele>75.12</ele>
        <time>2014-10-04T16:28:38Z</time>
      </trkpt>
      <trkpt lat="44.45647" lon="0.92023">
        <ele>74.64</ele>
        <time>2014-10-04T16:28:50Z</time>
      </trkpt>
      <trkpt lat="44.45686" lon="0.92062">
        <ele>74.64</ele>
        <time>2014-10-04T16:28:59Z</time>
      </trkpt>
      <trkpt lat="44.45735" lon="0.9212">
        <ele>73.2</ele>
        <time>2014-10-04T16:29:12Z</time>
      </trkpt>
      <trkpt lat="44.45791" lon="0.92186">
        <ele>73.2</ele>
        <time>2014-10-04T16:29:28Z</time>
      </trkpt>
      <trkpt lat="44.45847" lon="0.92243">
        <ele>71.27</ele>
        <time>2014-10-04T16:29:40Z</time>
      </trkpt>
      <trkpt lat="44.45903" lon="0.923">
        <ele>71.76</ele>
        <time>2014-10-04T16:29:54Z</time>
      </trkpt>
      <trkpt lat="44.45921" lon="0.92311">
        <ele>72.24</ele>
        <time>2014-10-04T16:29:58Z</time>
      </trkpt>
      <trkpt lat="44.45939" lon="0.92324">
        <ele>72.72</ele>
        <time>2014-10-04T16:30:02Z</time>
      </trkpt>
      <trkpt lat="44.45951" lon="0.92338">
        <ele>73.2</ele>
        <time>2014-10-04T16:30:06Z</time>
      </trkpt>
      <trkpt lat="44.45953" lon="0.92339">
        <ele>73.2</ele>
        <time>2014-10-04T16:30:07Z</time>
      </trkpt>
      <trkpt lat="44.45955" lon="0.9234">
        <ele>72.72</ele>
        <time>2014-10-04T16:30:16Z</time>
      </trkpt>
      <trkpt lat="44.45955" lon="0.9234">
        <ele>71.27</ele>
        <time>2014-10-04T16:30:36Z</time>
      </trkpt>
      <trkpt lat="44.45956" lon="0.92339">
        <ele>71.27</ele>
        <time>2014-10-04T16:30:37Z</time>
      </trkpt>
      <trkpt lat="44.45958" lon="0.92338">
        <ele>71.76</ele>
        <time>2014-10-04T16:30:38Z</time>
      </trkpt>
      <trkpt lat="44.45959" lon="0.92337">
        <ele>71.76</ele>
        <time>2014-10-04T16:30:39Z</time>
      </trkpt>
      <trkpt lat="44.45961" lon="0.92336">
        <ele>71.76</ele>
        <time>2014-10-04T16:30:40Z</time>
      </trkpt>
      <trkpt lat="44.45962" lon="0.92335">
        <ele>71.76</ele>
        <time>2014-10-04T16:30:41Z</time>
      </trkpt>
      <trkpt lat="44.45964" lon="0.92334">
        <ele>72.24</ele>
        <time>2014-10-04T16:30:42Z</time>
      </trkpt>
      <trkpt lat="44.45966" lon="0.92332">
        <ele>72.72</ele>
        <time>2014-10-04T16:30:43Z</time>
      </trkpt>
      <trkpt lat="44.45969" lon="0.9233">
        <ele>73.2</ele>
        <time>2014-10-04T16:30:44Z</time>
      </trkpt>
      <trkpt lat="44.46013" lon="0.9229">
        <ele>75.12</ele>
        <time>2014-10-04T16:30:57Z</time>
      </trkpt>
      <trkpt lat="44.46027" lon="0.92272">
        <ele>75.12</ele>
        <time>2014-10-04T16:31:01Z</time>
      </trkpt>
      <trkpt lat="44.46082" lon="0.92183">
        <ele>75.12</ele>
        <time>2014-10-04T16:31:17Z</time>
      </trkpt>
      <trkpt lat="44.46098" lon="0.92161">
        <ele>75.12</ele>
        <time>2014-10-04T16:31:21Z</time>
      </trkpt>
      <trkpt lat="44.46103" lon="0.92158">
        <ele>74.64</ele>
        <time>2014-10-04T16:31:22Z</time>
      </trkpt>
      <trkpt lat="44.46109" lon="0.92157">
        <ele>74.64</ele>
        <time>2014-10-04T16:31:23Z</time>
      </trkpt>
      <trkpt lat="44.46115" lon="0.92157">
        <ele>74.64</ele>
        <time>2014-10-04T16:31:24Z</time>
      </trkpt>
      <trkpt lat="44.4612" lon="0.9216">
        <ele>75.12</ele>
        <time>2014-10-04T16:31:25Z</time>
      </trkpt>
      <trkpt lat="44.46125" lon="0.92164">
        <ele>75.12</ele>
        <time>2014-10-04T16:31:26Z</time>
      </trkpt>
      <trkpt lat="44.46129" lon="0.92169">
        <ele>75.12</ele>
        <time>2014-10-04T16:31:27Z</time>
      </trkpt>
      <trkpt lat="44.46202" lon="0.9222">
        <ele>74.64</ele>
        <time>2014-10-04T16:31:42Z</time>
      </trkpt>
      <trkpt lat="44.4629" lon="0.92276">
        <ele>74.64</ele>
        <time>2014-10-04T16:31:59Z</time>
      </trkpt>
      <trkpt lat="44.4637" lon="0.92344">
        <ele>72.72</ele>
        <time>2014-10-04T16:32:16Z</time>
      </trkpt>
      <trkpt lat="44.46374" lon="0.92347">
        <ele>72.72</ele>
        <time>2014-10-04T16:32:17Z</time>
      </trkpt>
      <trkpt lat="44.46378" lon="0.92349">
        <ele>72.72</ele>
        <time>2014-10-04T16:32:18Z</time>
      </trkpt>
      <trkpt lat="44.46381" lon="0.92348">
        <ele>73.2</ele>
        <time>2014-10-04T16:32:19Z</time>
      </trkpt>
      <trkpt lat="44.46384" lon="0.92346">
        <ele>72.72</ele>
        <time>2014-10-04T16:32:20Z</time>
      </trkpt>
      <trkpt lat="44.46386" lon="0.92343">
        <ele>72.72</ele>
        <time>2014-10-04T16:32:21Z</time>
      </trkpt>
      <trkpt lat="44.46389" lon="0.92339">
        <ele>72.72</ele>
        <time>2014-10-04T16:32:22Z</time>
      </trkpt>
      <trkpt lat="44.46392" lon="0.92334">
        <ele>72.72</ele>
        <time>2014-10-04T16:32:23Z</time>
      </trkpt>
      <trkpt lat="44.46441" lon="0.92234">
        <ele>72.24</ele>
        <time>2014-10-04T16:32:40Z</time>
      </trkpt>
      <trkpt lat="44.46465" lon="0.92185">
        <ele>71.76</ele>
        <time>2014-10-04T16:32:48Z</time>
      </trkpt>
      <trkpt lat="44.46528" lon="0.92137">
        <ele>70.31</ele>
        <time>2014-10-04T16:33:01Z</time>
      </trkpt>
      <trkpt lat="44.46595" lon="0.92087">
        <ele>70.79</ele>
        <time>2014-10-04T16:33:15Z</time>
      </trkpt>
      <trkpt lat="44.46683" lon="0.9202">
        <ele>73.2</ele>
        <time>2014-10-04T16:33:32Z</time>
      </trkpt>
      <trkpt lat="44.4677" lon="0.91955">
        <ele>74.64</ele>
        <time>2014-10-04T16:33:50Z</time>
      </trkpt>
      <trkpt lat="44.46823" lon="0.9192">
        <ele>73.68</ele>
        <time>2014-10-04T16:34:04Z</time>
      </trkpt>
      <trkpt lat="44.46823" lon="0.91922">
        <ele>72.72</ele>
        <time>2014-10-04T16:34:20Z</time>
      </trkpt>
      <trkpt lat="44.46823" lon="0.91922">
        <ele>71.76</ele>
        <time>2014-10-04T16:34:42Z</time>
      </trkpt>
      <trkpt lat="44.46823" lon="0.91923">
        <ele>69.35</ele>
        <time>2014-10-04T16:35:09Z</time>
      </trkpt>
      <trkpt lat="44.46823" lon="0.91923">
        <ele>69.35</ele>
        <time>2014-10-04T16:35:13Z</time>
      </trkpt>
      <trkpt lat="44.46826" lon="0.91928">
        <ele>69.35</ele>
        <time>2014-10-04T16:35:17Z</time>
      </trkpt>
      <trkpt lat="44.46827" lon="0.91931">
        <ele>69.35</ele>
        <time>2014-10-04T16:35:18Z</time>
      </trkpt>
      <trkpt lat="44.46841" lon="0.91983">
        <ele>69.35</ele>
        <time>2014-10-04T16:35:30Z</time>
      </trkpt>
      <trkpt lat="44.46844" lon="0.91994">
        <ele>69.35</ele>
        <time>2014-10-04T16:35:32Z</time>
      </trkpt>
      <trkpt lat="44.4686" lon="0.92057">
        <ele>68.87</ele>
        <time>2014-10-04T16:35:42Z</time>
      </trkpt>
      <trkpt lat="44.46882" lon="0.92182">
        <ele>69.83</ele>
        <time>2014-10-04T16:35:59Z</time>
      </trkpt>
      <trkpt lat="44.46901" lon="0.9232">
        <ele>68.87</ele>
        <time>2014-10-04T16:36:16Z</time>
      </trkpt>
      <trkpt lat="44.46914" lon="0.92428">
        <ele>69.35</ele>
        <time>2014-10-04T16:36:29Z</time>
      </trkpt>
      <trkpt lat="44.46921" lon="0.92516">
        <ele>67.43</ele>
        <time>2014-10-04T16:36:39Z</time>
      </trkpt>
      <trkpt lat="44.46918" lon="0.92535">
        <ele>66.95</ele>
        <time>2014-10-04T16:36:41Z</time>
      </trkpt>
      <trkpt lat="44.46916" lon="0.92545">
        <ele>66.95</ele>
        <time>2014-10-04T16:36:42Z</time>
      </trkpt>
      <trkpt lat="44.46913" lon="0.92554">
        <ele>66.95</ele>
        <time>2014-10-04T16:36:43Z</time>
      </trkpt>
      <trkpt lat="44.4691" lon="0.92562">
        <ele>66.47</ele>
        <time>2014-10-04T16:36:44Z</time>
      </trkpt>
      <trkpt lat="44.46907" lon="0.92571">
        <ele>66.47</ele>
        <time>2014-10-04T16:36:45Z</time>
      </trkpt>
      <trkpt lat="44.4689" lon="0.92612">
        <ele>65.99</ele>
        <time>2014-10-04T16:36:50Z</time>
      </trkpt>
      <trkpt lat="44.46889" lon="0.9262">
        <ele>65.99</ele>
        <time>2014-10-04T16:36:51Z</time>
      </trkpt>
      <trkpt lat="44.46888" lon="0.92629">
        <ele>65.99</ele>
        <time>2014-10-04T16:36:52Z</time>
      </trkpt>
      <trkpt lat="44.46888" lon="0.92636">
        <ele>65.99</ele>
        <time>2014-10-04T16:36:53Z</time>
      </trkpt>
      <trkpt lat="44.46889" lon="0.92644">
        <ele>65.99</ele>
        <time>2014-10-04T16:36:54Z</time>
      </trkpt>
      <trkpt lat="44.46891" lon="0.92651">
        <ele>66.47</ele>
        <time>2014-10-04T16:36:55Z</time>
      </trkpt>
      <trkpt lat="44.46893" lon="0.92658">
        <ele>66.95</ele>
        <time>2014-10-04T16:36:56Z</time>
      </trkpt>
      <trkpt lat="44.46919" lon="0.92738">
        <ele>69.35</ele>
        <time>2014-10-04T16:37:08Z</time>
      </trkpt>
      <trkpt lat="44.46922" lon="0.92759">
        <ele>69.35</ele>
        <time>2014-10-04T16:37:11Z</time>
      </trkpt>
      <trkpt lat="44.46923" lon="0.92765">
        <ele>69.35</ele>
        <time>2014-10-04T16:37:12Z</time>
      </trkpt>
      <trkpt lat="44.46924" lon="0.92791">
        <ele>69.83</ele>
        <time>2014-10-04T16:37:16Z</time>
      </trkpt>
      <trkpt lat="44.46924" lon="0.92797">
        <ele>70.31</ele>
        <time>2014-10-04T16:37:17Z</time>
      </trkpt>
      <trkpt lat="44.46924" lon="0.92803">
        <ele>70.31</ele>
        <time>2014-10-04T16:37:18Z</time>
      </trkpt>
      <trkpt lat="44.46924" lon="0.92809">
        <ele>70.31</ele>
        <time>2014-10-04T16:37:19Z</time>
      </trkpt>
      <trkpt lat="44.46925" lon="0.92816">
        <ele>70.31</ele>
        <time>2014-10-04T16:37:20Z</time>
      </trkpt>
      <trkpt lat="44.46925" lon="0.92823">
        <ele>70.31</ele>
        <time>2014-10-04T16:37:21Z</time>
      </trkpt>
      <trkpt lat="44.46931" lon="0.92907">
        <ele>71.76</ele>
        <time>2014-10-04T16:37:33Z</time>
      </trkpt>
      <trkpt lat="44.46932" lon="0.92914">
        <ele>71.76</ele>
        <time>2014-10-04T16:37:34Z</time>
      </trkpt>
      <trkpt lat="44.46938" lon="0.92955">
        <ele>72.24</ele>
        <time>2014-10-04T16:37:40Z</time>
      </trkpt>
      <trkpt lat="44.46979" lon="0.9305">
        <ele>72.72</ele>
        <time>2014-10-04T16:37:55Z</time>
      </trkpt>
      <trkpt lat="44.46987" lon="0.93069">
        <ele>72.72</ele>
        <time>2014-10-04T16:37:58Z</time>
      </trkpt>
      <trkpt lat="44.47008" lon="0.93199">
        <ele>72.72</ele>
        <time>2014-10-04T16:38:15Z</time>
      </trkpt>
      <trkpt lat="44.47039" lon="0.93324">
        <ele>72.72</ele>
        <time>2014-10-04T16:38:33Z</time>
      </trkpt>
      <trkpt lat="44.4708" lon="0.93427">
        <ele>72.24</ele>
        <time>2014-10-04T16:38:50Z</time>
      </trkpt>
      <trkpt lat="44.47108" lon="0.93488">
        <ele>72.72</ele>
        <time>2014-10-04T16:39:04Z</time>
      </trkpt>
      <trkpt lat="44.4711" lon="0.9349">
        <ele>73.2</ele>
        <time>2014-10-04T16:39:05Z</time>
      </trkpt>
      <trkpt lat="44.47113" lon="0.93491">
        <ele>73.2</ele>
        <time>2014-10-04T16:39:06Z</time>
      </trkpt>
      <trkpt lat="44.47115" lon="0.9349">
        <ele>73.2</ele>
        <time>2014-10-04T16:39:07Z</time>
      </trkpt>
      <trkpt lat="44.47119" lon="0.93489">
        <ele>73.2</ele>
        <time>2014-10-04T16:39:08Z</time>
      </trkpt>
      <trkpt lat="44.47181" lon="0.93463">
        <ele>73.68</ele>
        <time>2014-10-04T16:39:23Z</time>
      </trkpt>
      <trkpt lat="44.47206" lon="0.93449">
        <ele>74.16</ele>
        <time>2014-10-04T16:39:33Z</time>
      </trkpt>
      <trkpt lat="44.47213" lon="0.93443">
        <ele>74.64</ele>
        <time>2014-10-04T16:39:37Z</time>
      </trkpt>
      <trkpt lat="44.47214" lon="0.93442">
        <ele>74.64</ele>
        <time>2014-10-04T16:39:38Z</time>
      </trkpt>
      <trkpt lat="44.47215" lon="0.9344">
        <ele>74.64</ele>
        <time>2014-10-04T16:39:39Z</time>
      </trkpt>
      <trkpt lat="44.47215" lon="0.93439">
        <ele>74.64</ele>
        <time>2014-10-04T16:39:40Z</time>
      </trkpt>
      <trkpt lat="44.47214" lon="0.93436">
        <ele>75.6</ele>
        <time>2014-10-04T16:39:51Z</time>
      </trkpt>
      <trkpt lat="44.47211" lon="0.93431">
        <ele>76.08</ele>
        <time>2014-10-04T16:39:54Z</time>
      </trkpt>
      <trkpt lat="44.47211" lon="0.9343">
        <ele>76.08</ele>
        <time>2014-10-04T16:39:55Z</time>
      </trkpt>
      <trkpt lat="44.4721" lon="0.93428">
        <ele>76.08</ele>
        <time>2014-10-04T16:39:56Z</time>
      </trkpt>
      <trkpt lat="44.47209" lon="0.93426">
        <ele>76.08</ele>
        <time>2014-10-04T16:39:57Z</time>
      </trkpt>
      <trkpt lat="44.47208" lon="0.93423">
        <ele>76.08</ele>
        <time>2014-10-04T16:39:58Z</time>
      </trkpt>
      <trkpt lat="44.47208" lon="0.93421">
        <ele>76.08</ele>
        <time>2014-10-04T16:39:59Z</time>
      </trkpt>
      <trkpt lat="44.4721" lon="0.93418">
        <ele>75.12</ele>
        <time>2014-10-04T16:40:09Z</time>
      </trkpt>
      <trkpt lat="44.47209" lon="0.93418">
        <ele>75.12</ele>
        <time>2014-10-04T16:40:24Z</time>
      </trkpt>
      <trkpt lat="44.47207" lon="0.93416">
        <ele>73.68</ele>
        <time>2014-10-04T16:40:35Z</time>
      </trkpt>
      <trkpt lat="44.47208" lon="0.93416">
        <ele>72.24</ele>
        <time>2014-10-04T16:41:10Z</time>
      </trkpt>
      <trkpt lat="44.47207" lon="0.93417">
        <ele>71.27</ele>
        <time>2014-10-04T16:41:39Z</time>
      </trkpt>
      <trkpt lat="44.47206" lon="0.93417">
        <ele>70.79</ele>
        <time>2014-10-04T16:42:09Z</time>
      </trkpt>
      <trkpt lat="44.47206" lon="0.93418">
        <ele>70.79</ele>
        <time>2014-10-04T16:42:36Z</time>
      </trkpt>
      <trkpt lat="44.47206" lon="0.93418">
        <ele>70.31</ele>
        <time>2014-10-04T16:43:03Z</time>
      </trkpt>
    </trkseg>
  </trk>
</gpx>